| State | Missouri | Latest | Unknown (5140 cfs) | |
| River | Salt River | Rating | Observed | Estimated |
| Updated | 2026-05-09 4:00 (38 minutes ago) | Flood - The river is flooding. Obstacles can be treacherous or deadly. The river should be avoided at this stage for casual trips and definitely for the inexperienced. Trips should be attempted only with protective gear and equipment.Flood | (none) | (none) |
| Discharge | 5140 cfs (median: 1760 cfs) | High - The river is high and potentially dangerous, especially for the young and / or inexperienced. Normal stream obstacles are sometimes difficult to navigate. Extended distances can be attempted, but canoe travel may not be advisable.High | (none) | (none) |
| Height | 8.03 feet | Good - Conditions are ideal for a canoe or kayak. Boats typically will drag on fewer than one-quarter of riffles, if at all, and portages are unnecessary or rare. Normal float lengths can be attempted without a problem.Good | (none) | (none) |
| Trend | Falling (rising over 24 hours) | Low - River is low but can still be floated. Some riffles are okay but most come with significant dragging and might need a portage. Float lengths should be reduced to accommodate low flow, dragging, and portages.Low | (none) | (none) |
| USGS | USGS Site ( Duck Duck Go Maps) | Poor - River is too low to float comfortably. Most or all riffles will drag or must be portaged and some obstacles (such as slick shelf rock) cause undue problems. Avoid the river at this stage for casual paddling trips.Poor | (none) | (none) |
A total of 5 rows are displayed.
| Miles | 64.7 |
| Trips | 5 |
| People | 16 |
| Dates | 5 |
| Years | 5 |
| Months | 2 |
| Rows | 5 |
| Sources | 2 |
BLG - Bluegill
CCF - Channel Catfish
CP - Chain Pickerel
FWD - Freshwater Drum
GSF - Green Sunfish
KSB - Kentucky Spotted Bass
LMB - Largemouth Bass
LSF - Longear Sunfish
RB - Rock Bass / Goggle Eye
RSF - Redear Sunfish
RT - Rainbow Trout
SMB - Smallmouth Bass
WB - White Bass
WF - Whitefish
WL - WalleyeThe classic River Trips application is still available for use. It is updated with the new system using a data retrofit. It is no longer maintained. The original River Trips application is no longer updated (as of 1 Dec 2016) but can be checked for errors or for the condition of the data before it was converted to the new system.
| Observation | Height | Discharge | Maximum Discharge | Minimum Discharge | Mean Discharge | P05 | P10 | P20 | P25 | P50 (Median) | P75 | P80 | P90 | P95 |
|---|---|---|---|---|---|---|---|---|---|---|---|---|---|---|
| 2026-05-09 04:00 | 8.03 | 5140 | 9930 (2010) | 49 (2006) | 2940 | 68 | 91 | 217 | 404 | 1760 | 4510 | 4960 | 8440 | 9590 |
| 2026-05-09 03:30 | 8.21 | 5360 | 9930 (2010) | 49 (2006) | 2940 | 68 | 91 | 217 | 404 | 1760 | 4510 | 4960 | 8440 | 9590 |
| 2026-05-09 03:00 | 8.36 | 5550 | 9930 (2010) | 49 (2006) | 2940 | 68 | 91 | 217 | 404 | 1760 | 4510 | 4960 | 8440 | 9590 |
| 2026-05-09 02:30 | 8.52 | 5750 | 9930 (2010) | 49 (2006) | 2940 | 68 | 91 | 217 | 404 | 1760 | 4510 | 4960 | 8440 | 9590 |
| 2026-05-09 02:00 | 8.61 | 5860 | 9930 (2010) | 49 (2006) | 2940 | 68 | 91 | 217 | 404 | 1760 | 4510 | 4960 | 8440 | 9590 |
| 2026-05-09 01:30 | 8.69 | 5970 | 9930 (2010) | 49 (2006) | 2940 | 68 | 91 | 217 | 404 | 1760 | 4510 | 4960 | 8440 | 9590 |
| 2026-05-09 01:00 | 8.75 | 6040 | 9930 (2010) | 49 (2006) | 2940 | 68 | 91 | 217 | 404 | 1760 | 4510 | 4960 | 8440 | 9590 |
| 2026-05-09 00:30 | 8.71 | 5990 | 9930 (2010) | 49 (2006) | 2940 | 68 | 91 | 217 | 404 | 1760 | 4510 | 4960 | 8440 | 9590 |
| 2026-05-09 00:00 | 8.71 | 5990 | 9930 (2010) | 49 (2006) | 2940 | 68 | 91 | 217 | 404 | 1760 | 4510 | 4960 | 8440 | 9590 |
| 2026-05-08 23:30 | 8.67 | 5940 | 9930 (2010) | 49 (2006) | 2940 | 68 | 91 | 217 | 404 | 1760 | 4510 | 4960 | 8440 | 9590 |
| 2026-05-08 23:00 | 8.69 | 5970 | 9930 (2010) | 49 (2006) | 2940 | 68 | 91 | 217 | 404 | 1760 | 4510 | 4960 | 8440 | 9590 |
| 2026-05-08 22:30 | 8.66 | 5930 | 12000 (2013) | 49 (2006) | 3030 | 73 | 90 | 124 | 332 | 1750 | 4770 | 5620 | 8710 | 9480 |
| 2026-05-08 22:00 | 8.57 | 5810 | 12000 (2013) | 49 (2006) | 3030 | 73 | 90 | 124 | 332 | 1750 | 4770 | 5620 | 8710 | 9480 |
| 2026-05-08 21:30 | 8.56 | 5800 | 12000 (2013) | 49 (2006) | 3030 | 73 | 90 | 124 | 332 | 1750 | 4770 | 5620 | 8710 | 9480 |
| 2026-05-08 21:00 | 8.47 | 5690 | 12000 (2013) | 49 (2006) | 3030 | 73 | 90 | 124 | 332 | 1750 | 4770 | 5620 | 8710 | 9480 |
| 2026-05-08 20:30 | 8.42 | 5620 | 12000 (2013) | 49 (2006) | 3030 | 73 | 90 | 124 | 332 | 1750 | 4770 | 5620 | 8710 | 9480 |
| 2026-05-08 20:00 | 8.36 | 5550 | 12000 (2013) | 49 (2006) | 3030 | 73 | 90 | 124 | 332 | 1750 | 4770 | 5620 | 8710 | 9480 |
| 2026-05-08 19:30 | 8.30 | 5480 | 12000 (2013) | 49 (2006) | 3030 | 73 | 90 | 124 | 332 | 1750 | 4770 | 5620 | 8710 | 9480 |
| 2026-05-08 19:00 | 8.20 | 5350 | 12000 (2013) | 49 (2006) | 3030 | 73 | 90 | 124 | 332 | 1750 | 4770 | 5620 | 8710 | 9480 |
| 2026-05-08 18:30 | 8.11 | 5240 | 12000 (2013) | 49 (2006) | 3030 | 73 | 90 | 124 | 332 | 1750 | 4770 | 5620 | 8710 | 9480 |
| 2026-05-08 18:00 | 7.99 | 5090 | 12000 (2013) | 49 (2006) | 3030 | 73 | 90 | 124 | 332 | 1750 | 4770 | 5620 | 8710 | 9480 |
| 2026-05-08 17:30 | 7.85 | 4930 | 12000 (2013) | 49 (2006) | 3030 | 73 | 90 | 124 | 332 | 1750 | 4770 | 5620 | 8710 | 9480 |
| 2026-05-08 17:00 | 7.75 | 4810 | 12000 (2013) | 49 (2006) | 3030 | 73 | 90 | 124 | 332 | 1750 | 4770 | 5620 | 8710 | 9480 |
| 2026-05-08 16:30 | 7.60 | 4630 | 12000 (2013) | 49 (2006) | 3030 | 73 | 90 | 124 | 332 | 1750 | 4770 | 5620 | 8710 | 9480 |
| 2026-05-08 16:00 | 7.46 | 4470 | 12000 (2013) | 49 (2006) | 3030 | 73 | 90 | 124 | 332 | 1750 | 4770 | 5620 | 8710 | 9480 |
| 2026-05-08 15:30 | 7.32 | 4300 | 12000 (2013) | 49 (2006) | 3030 | 73 | 90 | 124 | 332 | 1750 | 4770 | 5620 | 8710 | 9480 |
| 2026-05-08 15:00 | 7.13 | 4050 | 12000 (2013) | 49 (2006) | 3030 | 73 | 90 | 124 | 332 | 1750 | 4770 | 5620 | 8710 | 9480 |
| 2026-05-08 14:30 | 6.99 | 3870 | 12000 (2013) | 49 (2006) | 3030 | 73 | 90 | 124 | 332 | 1750 | 4770 | 5620 | 8710 | 9480 |
| 2026-05-08 14:00 | 6.85 | 3700 | 12000 (2013) | 49 (2006) | 3030 | 73 | 90 | 124 | 332 | 1750 | 4770 | 5620 | 8710 | 9480 |
| 2026-05-08 13:30 | 6.67 | 3480 | 12000 (2013) | 49 (2006) | 3030 | 73 | 90 | 124 | 332 | 1750 | 4770 | 5620 | 8710 | 9480 |
| 2026-05-08 13:00 | 6.47 | 3250 | 12000 (2013) | 49 (2006) | 3030 | 73 | 90 | 124 | 332 | 1750 | 4770 | 5620 | 8710 | 9480 |
| 2026-05-08 12:30 | 6.27 | 3020 | 12000 (2013) | 49 (2006) | 3030 | 73 | 90 | 124 | 332 | 1750 | 4770 | 5620 | 8710 | 9480 |
| 2026-05-08 12:00 | 6.09 | 2820 | 12000 (2013) | 49 (2006) | 3030 | 73 | 90 | 124 | 332 | 1750 | 4770 | 5620 | 8710 | 9480 |
| 2026-05-08 11:30 | 5.92 | 2630 | 12000 (2013) | 49 (2006) | 3030 | 73 | 90 | 124 | 332 | 1750 | 4770 | 5620 | 8710 | 9480 |
| 2026-05-08 11:00 | 5.78 | 2490 | 12000 (2013) | 49 (2006) | 3030 | 73 | 90 | 124 | 332 | 1750 | 4770 | 5620 | 8710 | 9480 |
| 2026-05-08 10:30 | 5.71 | 2420 | 12000 (2013) | 49 (2006) | 3030 | 73 | 90 | 124 | 332 | 1750 | 4770 | 5620 | 8710 | 9480 |
| 2026-05-08 10:00 | 5.68 | 2390 | 12000 (2013) | 49 (2006) | 3030 | 73 | 90 | 124 | 332 | 1750 | 4770 | 5620 | 8710 | 9480 |
| 2026-05-08 09:30 | 5.70 | 2410 | 12000 (2013) | 49 (2006) | 3030 | 73 | 90 | 124 | 332 | 1750 | 4770 | 5620 | 8710 | 9480 |
| 2026-05-08 09:00 | 5.76 | 2470 | 12000 (2013) | 49 (2006) | 3030 | 73 | 90 | 124 | 332 | 1750 | 4770 | 5620 | 8710 | 9480 |
| 2026-05-08 08:30 | 5.82 | 2530 | 12000 (2013) | 49 (2006) | 3030 | 73 | 90 | 124 | 332 | 1750 | 4770 | 5620 | 8710 | 9480 |
| 2026-05-08 08:00 | 5.89 | 2600 | 12000 (2013) | 49 (2006) | 3030 | 73 | 90 | 124 | 332 | 1750 | 4770 | 5620 | 8710 | 9480 |
| 2026-05-08 07:30 | 5.99 | 2710 | 12000 (2013) | 49 (2006) | 3030 | 73 | 90 | 124 | 332 | 1750 | 4770 | 5620 | 8710 | 9480 |
| 2026-05-08 07:00 | 6.09 | 2820 | 12000 (2013) | 49 (2006) | 3030 | 73 | 90 | 124 | 332 | 1750 | 4770 | 5620 | 8710 | 9480 |
| 2026-05-08 06:30 | 6.24 | 2980 | 12000 (2013) | 49 (2006) | 3030 | 73 | 90 | 124 | 332 | 1750 | 4770 | 5620 | 8710 | 9480 |
| 2026-05-08 06:00 | 6.40 | 3160 | 12000 (2013) | 49 (2006) | 3030 | 73 | 90 | 124 | 332 | 1750 | 4770 | 5620 | 8710 | 9480 |
| 2026-05-08 05:30 | 6.57 | 3360 | 12000 (2013) | 49 (2006) | 3030 | 73 | 90 | 124 | 332 | 1750 | 4770 | 5620 | 8710 | 9480 |
| 2026-05-08 05:00 | 6.77 | 3600 | 12000 (2013) | 49 (2006) | 3030 | 73 | 90 | 124 | 332 | 1750 | 4770 | 5620 | 8710 | 9480 |
| 2026-05-08 04:30 | 6.99 | 3870 | 12000 (2013) | 49 (2006) | 3030 | 73 | 90 | 124 | 332 | 1750 | 4770 | 5620 | 8710 | 9480 |
| 2026-05-08 04:00 | 7.23 | 4180 | 12000 (2013) | 49 (2006) | 3030 | 73 | 90 | 124 | 332 | 1750 | 4770 | 5620 | 8710 | 9480 |
| 2026-05-08 03:30 | 7.46 | 4470 | 12000 (2013) | 49 (2006) | 3030 | 73 | 90 | 124 | 332 | 1750 | 4770 | 5620 | 8710 | 9480 |
| 2026-05-08 03:00 | 7.71 | 4760 | 12000 (2013) | 49 (2006) | 3030 | 73 | 90 | 124 | 332 | 1750 | 4770 | 5620 | 8710 | 9480 |
| 2026-05-08 02:30 | 7.94 | 5030 | 12000 (2013) | 49 (2006) | 3030 | 73 | 90 | 124 | 332 | 1750 | 4770 | 5620 | 8710 | 9480 |
| 2026-05-08 02:00 | 8.17 | 5310 | 12000 (2013) | 49 (2006) | 3030 | 73 | 90 | 124 | 332 | 1750 | 4770 | 5620 | 8710 | 9480 |
| 2026-05-08 01:30 | 8.33 | 5510 | 12000 (2013) | 49 (2006) | 3030 | 73 | 90 | 124 | 332 | 1750 | 4770 | 5620 | 8710 | 9480 |
| 2026-05-08 01:00 | 8.46 | 5680 | 12000 (2013) | 49 (2006) | 3030 | 73 | 90 | 124 | 332 | 1750 | 4770 | 5620 | 8710 | 9480 |
| 2026-05-08 00:30 | 8.49 | 5710 | 12000 (2013) | 49 (2006) | 3030 | 73 | 90 | 124 | 332 | 1750 | 4770 | 5620 | 8710 | 9480 |
| 2026-05-08 00:00 | 8.51 | 5740 | 12000 (2013) | 49 (2006) | 3030 | 73 | 90 | 124 | 332 | 1750 | 4770 | 5620 | 8710 | 9480 |
| 2026-05-07 23:30 | 8.48 | 5700 | 12000 (2013) | 49 (2006) | 3030 | 73 | 90 | 124 | 332 | 1750 | 4770 | 5620 | 8710 | 9480 |
| 2026-05-07 23:00 | 8.39 | 5590 | 12000 (2013) | 49 (2006) | 3030 | 73 | 90 | 124 | 332 | 1750 | 4770 | 5620 | 8710 | 9480 |
| 2026-05-07 22:30 | 8.33 | 5510 | 12100 (2013) | 53 (2006) | 3140 | 71 | 82 | 105 | 146 | 2200 | 4660 | 5330 | 9080 | 9820 |
| 2026-05-07 22:00 | 8.24 | 5400 | 12100 (2013) | 53 (2006) | 3140 | 71 | 82 | 105 | 146 | 2200 | 4660 | 5330 | 9080 | 9820 |
| 2026-05-07 21:30 | 8.18 | 5330 | 12100 (2013) | 53 (2006) | 3140 | 71 | 82 | 105 | 146 | 2200 | 4660 | 5330 | 9080 | 9820 |
| 2026-05-07 21:00 | 8.09 | 5220 | 12100 (2013) | 53 (2006) | 3140 | 71 | 82 | 105 | 146 | 2200 | 4660 | 5330 | 9080 | 9820 |
| 2026-05-07 20:30 | 8.01 | 5120 | 12100 (2013) | 53 (2006) | 3140 | 71 | 82 | 105 | 146 | 2200 | 4660 | 5330 | 9080 | 9820 |
| 2026-05-07 20:00 | 7.93 | 5020 | 12100 (2013) | 53 (2006) | 3140 | 71 | 82 | 105 | 146 | 2200 | 4660 | 5330 | 9080 | 9820 |
| 2026-05-07 19:30 | 7.84 | 4910 | 12100 (2013) | 53 (2006) | 3140 | 71 | 82 | 105 | 146 | 2200 | 4660 | 5330 | 9080 | 9820 |
| 2026-05-07 19:00 | 7.76 | 4820 | 12100 (2013) | 53 (2006) | 3140 | 71 | 82 | 105 | 146 | 2200 | 4660 | 5330 | 9080 | 9820 |
| 2026-05-07 18:30 | 7.66 | 4700 | 12100 (2013) | 53 (2006) | 3140 | 71 | 82 | 105 | 146 | 2200 | 4660 | 5330 | 9080 | 9820 |
| 2026-05-07 18:00 | 7.59 | 4620 | 12100 (2013) | 53 (2006) | 3140 | 71 | 82 | 105 | 146 | 2200 | 4660 | 5330 | 9080 | 9820 |
| 2026-05-07 17:30 | 7.51 | 4530 | 12100 (2013) | 53 (2006) | 3140 | 71 | 82 | 105 | 146 | 2200 | 4660 | 5330 | 9080 | 9820 |
| 2026-05-07 17:00 | 7.39 | 4390 | 12100 (2013) | 53 (2006) | 3140 | 71 | 82 | 105 | 146 | 2200 | 4660 | 5330 | 9080 | 9820 |
| 2026-05-07 16:30 | 7.30 | 4270 | 12100 (2013) | 53 (2006) | 3140 | 71 | 82 | 105 | 146 | 2200 | 4660 | 5330 | 9080 | 9820 |
| 2026-05-07 16:00 | 7.18 | 4110 | 12100 (2013) | 53 (2006) | 3140 | 71 | 82 | 105 | 146 | 2200 | 4660 | 5330 | 9080 | 9820 |
| 2026-05-07 15:30 | 7.06 | 3960 | 12100 (2013) | 53 (2006) | 3140 | 71 | 82 | 105 | 146 | 2200 | 4660 | 5330 | 9080 | 9820 |
| 2026-05-07 15:00 | 6.97 | 3850 | 12100 (2013) | 53 (2006) | 3140 | 71 | 82 | 105 | 146 | 2200 | 4660 | 5330 | 9080 | 9820 |
| 2026-05-07 14:30 | 6.91 | 3770 | 12100 (2013) | 53 (2006) | 3140 | 71 | 82 | 105 | 146 | 2200 | 4660 | 5330 | 9080 | 9820 |
| 2026-05-07 14:00 | 6.81 | 3650 | 12100 (2013) | 53 (2006) | 3140 | 71 | 82 | 105 | 146 | 2200 | 4660 | 5330 | 9080 | 9820 |
| 2026-05-07 13:30 | 6.72 | 3540 | 12100 (2013) | 53 (2006) | 3140 | 71 | 82 | 105 | 146 | 2200 | 4660 | 5330 | 9080 | 9820 |
| 2026-05-07 13:00 | 6.66 | 3470 | 12100 (2013) | 53 (2006) | 3140 | 71 | 82 | 105 | 146 | 2200 | 4660 | 5330 | 9080 | 9820 |
| 2026-05-07 12:30 | 6.53 | 3320 | 12100 (2013) | 53 (2006) | 3140 | 71 | 82 | 105 | 146 | 2200 | 4660 | 5330 | 9080 | 9820 |
| 2026-05-07 12:00 | 6.42 | 3190 | 12100 (2013) | 53 (2006) | 3140 | 71 | 82 | 105 | 146 | 2200 | 4660 | 5330 | 9080 | 9820 |
| 2026-05-07 11:30 | 6.28 | 3030 | 12100 (2013) | 53 (2006) | 3140 | 71 | 82 | 105 | 146 | 2200 | 4660 | 5330 | 9080 | 9820 |
| 2026-05-07 11:00 | 6.13 | 2860 | 12100 (2013) | 53 (2006) | 3140 | 71 | 82 | 105 | 146 | 2200 | 4660 | 5330 | 9080 | 9820 |
| 2026-05-07 10:30 | 6.02 | 2740 | 12100 (2013) | 53 (2006) | 3140 | 71 | 82 | 105 | 146 | 2200 | 4660 | 5330 | 9080 | 9820 |
| 2026-05-07 10:00 | 5.94 | 2660 | 12100 (2013) | 53 (2006) | 3140 | 71 | 82 | 105 | 146 | 2200 | 4660 | 5330 | 9080 | 9820 |
| 2026-05-07 09:30 | 5.91 | 2620 | 12100 (2013) | 53 (2006) | 3140 | 71 | 82 | 105 | 146 | 2200 | 4660 | 5330 | 9080 | 9820 |
| 2026-05-07 09:00 | 5.95 | 2670 | 12100 (2013) | 53 (2006) | 3140 | 71 | 82 | 105 | 146 | 2200 | 4660 | 5330 | 9080 | 9820 |
| 2026-05-07 08:30 | 6.02 | 2740 | 12100 (2013) | 53 (2006) | 3140 | 71 | 82 | 105 | 146 | 2200 | 4660 | 5330 | 9080 | 9820 |
| 2026-05-07 08:00 | 6.15 | 2880 | 12100 (2013) | 53 (2006) | 3140 | 71 | 82 | 105 | 146 | 2200 | 4660 | 5330 | 9080 | 9820 |
| 2026-05-07 07:30 | 6.29 | 3040 | 12100 (2013) | 53 (2006) | 3140 | 71 | 82 | 105 | 146 | 2200 | 4660 | 5330 | 9080 | 9820 |
| 2026-05-07 07:00 | 6.48 | 3260 | 12100 (2013) | 53 (2006) | 3140 | 71 | 82 | 105 | 146 | 2200 | 4660 | 5330 | 9080 | 9820 |
| 2026-05-07 06:30 | 6.65 | 3460 | 12100 (2013) | 53 (2006) | 3140 | 71 | 82 | 105 | 146 | 2200 | 4660 | 5330 | 9080 | 9820 |
| 2026-05-07 06:00 | 6.87 | 3720 | 12100 (2013) | 53 (2006) | 3140 | 71 | 82 | 105 | 146 | 2200 | 4660 | 5330 | 9080 | 9820 |
| 2026-05-07 05:30 | 7.09 | 4000 | 12100 (2013) | 53 (2006) | 3140 | 71 | 82 | 105 | 146 | 2200 | 4660 | 5330 | 9080 | 9820 |
| 2026-05-07 05:00 | 7.31 | 4280 | 12100 (2013) | 53 (2006) | 3140 | 71 | 82 | 105 | 146 | 2200 | 4660 | 5330 | 9080 | 9820 |
| 2026-05-07 04:30 | 7.53 | 4550 | 12100 (2013) | 53 (2006) | 3140 | 71 | 82 | 105 | 146 | 2200 | 4660 | 5330 | 9080 | 9820 |
| 2026-05-07 04:00 | 7.73 | 4780 | 12100 (2013) | 53 (2006) | 3140 | 71 | 82 | 105 | 146 | 2200 | 4660 | 5330 | 9080 | 9820 |
| 2026-05-07 03:30 | 7.91 | 5000 | 12100 (2013) | 53 (2006) | 3140 | 71 | 82 | 105 | 146 | 2200 | 4660 | 5330 | 9080 | 9820 |
| 2026-05-07 03:00 | 8.03 | 5140 | 12100 (2013) | 53 (2006) | 3140 | 71 | 82 | 105 | 146 | 2200 | 4660 | 5330 | 9080 | 9820 |
| 2026-05-07 02:30 | 8.15 | 5290 | 12100 (2013) | 53 (2006) | 3140 | 71 | 82 | 105 | 146 | 2200 | 4660 | 5330 | 9080 | 9820 |
| 2026-05-07 02:00 | 8.18 | 5330 | 12100 (2013) | 53 (2006) | 3140 | 71 | 82 | 105 | 146 | 2200 | 4660 | 5330 | 9080 | 9820 |
| 2026-05-07 01:30 | 8.19 | 5340 | 12100 (2013) | 53 (2006) | 3140 | 71 | 82 | 105 | 146 | 2200 | 4660 | 5330 | 9080 | 9820 |
| 2026-05-07 01:00 | 8.15 | 5290 | 12100 (2013) | 53 (2006) | 3140 | 71 | 82 | 105 | 146 | 2200 | 4660 | 5330 | 9080 | 9820 |
| 2026-05-07 00:30 | 8.14 | 5280 | 12100 (2013) | 53 (2006) | 3140 | 71 | 82 | 105 | 146 | 2200 | 4660 | 5330 | 9080 | 9820 |
| 2026-05-07 00:00 | 8.08 | 5200 | 12100 (2013) | 53 (2006) | 3140 | 71 | 82 | 105 | 146 | 2200 | 4660 | 5330 | 9080 | 9820 |
| 2026-05-06 23:30 | 8.07 | 5190 | 12100 (2013) | 53 (2006) | 3140 | 71 | 82 | 105 | 146 | 2200 | 4660 | 5330 | 9080 | 9820 |
| 2026-05-06 23:00 | 8.04 | 5160 | 12100 (2013) | 53 (2006) | 3140 | 71 | 82 | 105 | 146 | 2200 | 4660 | 5330 | 9080 | 9820 |
| 2026-05-06 22:30 | 8.02 | 5130 | 10700 (2002) | 57 (2006) | 2820 | 70 | 89 | 120 | 144 | 1770 | 4910 | 5560 | 9280 | 9650 |
| 2026-05-06 22:00 | 7.97 | 5070 | 10700 (2002) | 57 (2006) | 2820 | 70 | 89 | 120 | 144 | 1770 | 4910 | 5560 | 9280 | 9650 |
| 2026-05-06 21:30 | 7.95 | 5050 | 10700 (2002) | 57 (2006) | 2820 | 70 | 89 | 120 | 144 | 1770 | 4910 | 5560 | 9280 | 9650 |
| 2026-05-06 21:00 | 7.91 | 5000 | 10700 (2002) | 57 (2006) | 2820 | 70 | 89 | 120 | 144 | 1770 | 4910 | 5560 | 9280 | 9650 |
| 2026-05-06 20:30 | 7.89 | 4970 | 10700 (2002) | 57 (2006) | 2820 | 70 | 89 | 120 | 144 | 1770 | 4910 | 5560 | 9280 | 9650 |
| 2026-05-06 20:00 | 7.86 | 4940 | 10700 (2002) | 57 (2006) | 2820 | 70 | 89 | 120 | 144 | 1770 | 4910 | 5560 | 9280 | 9650 |
| 2026-05-06 19:30 | 7.81 | 4880 | 10700 (2002) | 57 (2006) | 2820 | 70 | 89 | 120 | 144 | 1770 | 4910 | 5560 | 9280 | 9650 |
| 2026-05-06 19:00 | 7.79 | 4850 | 10700 (2002) | 57 (2006) | 2820 | 70 | 89 | 120 | 144 | 1770 | 4910 | 5560 | 9280 | 9650 |
| 2026-05-06 18:30 | 7.74 | 4800 | 10700 (2002) | 57 (2006) | 2820 | 70 | 89 | 120 | 144 | 1770 | 4910 | 5560 | 9280 | 9650 |
| 2026-05-06 18:00 | 7.73 | 4780 | 10700 (2002) | 57 (2006) | 2820 | 70 | 89 | 120 | 144 | 1770 | 4910 | 5560 | 9280 | 9650 |
| 2026-05-06 17:30 | 7.67 | 4710 | 10700 (2002) | 57 (2006) | 2820 | 70 | 89 | 120 | 144 | 1770 | 4910 | 5560 | 9280 | 9650 |
| 2026-05-06 17:00 | 7.61 | 4640 | 10700 (2002) | 57 (2006) | 2820 | 70 | 89 | 120 | 144 | 1770 | 4910 | 5560 | 9280 | 9650 |
| 2026-05-06 16:30 | 7.51 | 4530 | 10700 (2002) | 57 (2006) | 2820 | 70 | 89 | 120 | 144 | 1770 | 4910 | 5560 | 9280 | 9650 |
| 2026-05-06 16:00 | 7.43 | 4430 | 10700 (2002) | 57 (2006) | 2820 | 70 | 89 | 120 | 144 | 1770 | 4910 | 5560 | 9280 | 9650 |
| 2026-05-06 15:30 | 7.33 | 4310 | 10700 (2002) | 57 (2006) | 2820 | 70 | 89 | 120 | 144 | 1770 | 4910 | 5560 | 9280 | 9650 |
| 2026-05-06 15:00 | 7.23 | 4180 | 10700 (2002) | 57 (2006) | 2820 | 70 | 89 | 120 | 144 | 1770 | 4910 | 5560 | 9280 | 9650 |
| 2026-05-06 14:30 | 7.12 | 4040 | 10700 (2002) | 57 (2006) | 2820 | 70 | 89 | 120 | 144 | 1770 | 4910 | 5560 | 9280 | 9650 |
| 2026-05-06 14:00 | 7.02 | 3910 | 10700 (2002) | 57 (2006) | 2820 | 70 | 89 | 120 | 144 | 1770 | 4910 | 5560 | 9280 | 9650 |
| 2026-05-06 13:30 | 6.94 | 3810 | 10700 (2002) | 57 (2006) | 2820 | 70 | 89 | 120 | 144 | 1770 | 4910 | 5560 | 9280 | 9650 |
| 2026-05-06 13:00 | 6.87 | 3720 | 10700 (2002) | 57 (2006) | 2820 | 70 | 89 | 120 | 144 | 1770 | 4910 | 5560 | 9280 | 9650 |
| 2026-05-06 12:30 | 6.82 | 3660 | 10700 (2002) | 57 (2006) | 2820 | 70 | 89 | 120 | 144 | 1770 | 4910 | 5560 | 9280 | 9650 |
| 2026-05-06 12:00 | 6.74 | 3560 | 10700 (2002) | 57 (2006) | 2820 | 70 | 89 | 120 | 144 | 1770 | 4910 | 5560 | 9280 | 9650 |
| 2026-05-06 11:30 | 6.64 | 3440 | 10700 (2002) | 57 (2006) | 2820 | 70 | 89 | 120 | 144 | 1770 | 4910 | 5560 | 9280 | 9650 |
| 2026-05-06 11:00 | 6.56 | 3350 | 10700 (2002) | 57 (2006) | 2820 | 70 | 89 | 120 | 144 | 1770 | 4910 | 5560 | 9280 | 9650 |
| 2026-05-06 10:30 | 6.41 | 3180 | 10700 (2002) | 57 (2006) | 2820 | 70 | 89 | 120 | 144 | 1770 | 4910 | 5560 | 9280 | 9650 |
| 2026-05-06 10:00 | 6.25 | 2990 | 10700 (2002) | 57 (2006) | 2820 | 70 | 89 | 120 | 144 | 1770 | 4910 | 5560 | 9280 | 9650 |
| 2026-05-06 09:30 | 6.04 | 2760 | 10700 (2002) | 57 (2006) | 2820 | 70 | 89 | 120 | 144 | 1770 | 4910 | 5560 | 9280 | 9650 |
| 2026-05-06 09:00 | 5.80 | 2510 | 10700 (2002) | 57 (2006) | 2820 | 70 | 89 | 120 | 144 | 1770 | 4910 | 5560 | 9280 | 9650 |
| 2026-05-06 08:30 | 5.57 | 2280 | 10700 (2002) | 57 (2006) | 2820 | 70 | 89 | 120 | 144 | 1770 | 4910 | 5560 | 9280 | 9650 |
| 2026-05-06 08:00 | 5.36 | 2060 | 10700 (2002) | 57 (2006) | 2820 | 70 | 89 | 120 | 144 | 1770 | 4910 | 5560 | 9280 | 9650 |
| 2026-05-06 07:30 | 5.22 | 1900 | 10700 (2002) | 57 (2006) | 2820 | 70 | 89 | 120 | 144 | 1770 | 4910 | 5560 | 9280 | 9650 |
| 2026-05-06 07:00 | 5.17 | 1840 | 10700 (2002) | 57 (2006) | 2820 | 70 | 89 | 120 | 144 | 1770 | 4910 | 5560 | 9280 | 9650 |
| 2026-05-06 06:30 | 5.20 | 1870 | 10700 (2002) | 57 (2006) | 2820 | 70 | 89 | 120 | 144 | 1770 | 4910 | 5560 | 9280 | 9650 |
| 2026-05-06 06:00 | 5.28 | 1960 | 10700 (2002) | 57 (2006) | 2820 | 70 | 89 | 120 | 144 | 1770 | 4910 | 5560 | 9280 | 9650 |
| 2026-05-06 05:30 | 5.38 | 2080 | 10700 (2002) | 57 (2006) | 2820 | 70 | 89 | 120 | 144 | 1770 | 4910 | 5560 | 9280 | 9650 |
| 2026-05-06 05:00 | 5.50 | 2210 | 10700 (2002) | 57 (2006) | 2820 | 70 | 89 | 120 | 144 | 1770 | 4910 | 5560 | 9280 | 9650 |
| 2026-05-06 04:30 | 5.65 | 2360 | 10700 (2002) | 57 (2006) | 2820 | 70 | 89 | 120 | 144 | 1770 | 4910 | 5560 | 9280 | 9650 |
| 2026-05-06 04:00 | 5.79 | 2500 | 10700 (2002) | 57 (2006) | 2820 | 70 | 89 | 120 | 144 | 1770 | 4910 | 5560 | 9280 | 9650 |
| 2026-05-06 03:30 | 5.98 | 2700 | 10700 (2002) | 57 (2006) | 2820 | 70 | 89 | 120 | 144 | 1770 | 4910 | 5560 | 9280 | 9650 |
| 2026-05-06 03:00 | 6.17 | 2910 | 10700 (2002) | 57 (2006) | 2820 | 70 | 89 | 120 | 144 | 1770 | 4910 | 5560 | 9280 | 9650 |
| 2026-05-06 02:30 | 6.36 | 3120 | 10700 (2002) | 57 (2006) | 2820 | 70 | 89 | 120 | 144 | 1770 | 4910 | 5560 | 9280 | 9650 |
| 2026-05-06 02:00 | 6.56 | 3350 | 10700 (2002) | 57 (2006) | 2820 | 70 | 89 | 120 | 144 | 1770 | 4910 | 5560 | 9280 | 9650 |
| 2026-05-06 01:30 | 6.75 | 3580 | 10700 (2002) | 57 (2006) | 2820 | 70 | 89 | 120 | 144 | 1770 | 4910 | 5560 | 9280 | 9650 |
| 2026-05-06 01:00 | 6.97 | 3850 | 10700 (2002) | 57 (2006) | 2820 | 70 | 89 | 120 | 144 | 1770 | 4910 | 5560 | 9280 | 9650 |
| 2026-05-06 00:30 | 7.15 | 4080 | 10700 (2002) | 57 (2006) | 2820 | 70 | 89 | 120 | 144 | 1770 | 4910 | 5560 | 9280 | 9650 |
| 2026-05-06 00:00 | 7.33 | 4310 | 10700 (2002) | 57 (2006) | 2820 | 70 | 89 | 120 | 144 | 1770 | 4910 | 5560 | 9280 | 9650 |
| 2026-05-05 23:30 | 7.48 | 4490 | 10700 (2002) | 57 (2006) | 2820 | 70 | 89 | 120 | 144 | 1770 | 4910 | 5560 | 9280 | 9650 |
| 2026-05-05 23:00 | 7.61 | 4640 | 10700 (2002) | 57 (2006) | 2820 | 70 | 89 | 120 | 144 | 1770 | 4910 | 5560 | 9280 | 9650 |
| 2026-05-05 22:30 | 7.66 | 4700 | 15500 (1983) | 62 (2006) | 2610 | 65 | 79 | 140 | 149 | 1640 | 3750 | 4510 | 7330 | 9380 |
| 2026-05-05 22:00 | 7.71 | 4760 | 15500 (1983) | 62 (2006) | 2610 | 65 | 79 | 140 | 149 | 1640 | 3750 | 4510 | 7330 | 9380 |
| 2026-05-05 21:30 | 7.68 | 4720 | 15500 (1983) | 62 (2006) | 2610 | 65 | 79 | 140 | 149 | 1640 | 3750 | 4510 | 7330 | 9380 |
| 2026-05-05 21:00 | 7.70 | 4750 | 15500 (1983) | 62 (2006) | 2610 | 65 | 79 | 140 | 149 | 1640 | 3750 | 4510 | 7330 | 9380 |
| 2026-05-05 20:30 | 7.63 | 4670 | 15500 (1983) | 62 (2006) | 2610 | 65 | 79 | 140 | 149 | 1640 | 3750 | 4510 | 7330 | 9380 |
| 2026-05-05 20:00 | 7.58 | 4610 | 15500 (1983) | 62 (2006) | 2610 | 65 | 79 | 140 | 149 | 1640 | 3750 | 4510 | 7330 | 9380 |
| 2026-05-05 19:30 | 7.57 | 4590 | 15500 (1983) | 62 (2006) | 2610 | 65 | 79 | 140 | 149 | 1640 | 3750 | 4510 | 7330 | 9380 |
| 2026-05-05 19:00 | 7.54 | 4560 | 15500 (1983) | 62 (2006) | 2610 | 65 | 79 | 140 | 149 | 1640 | 3750 | 4510 | 7330 | 9380 |
| 2026-05-05 18:30 | 7.56 | 4580 | 15500 (1983) | 62 (2006) | 2610 | 65 | 79 | 140 | 149 | 1640 | 3750 | 4510 | 7330 | 9380 |
| 2026-05-05 18:00 | 7.55 | 4570 | 15500 (1983) | 62 (2006) | 2610 | 65 | 79 | 140 | 149 | 1640 | 3750 | 4510 | 7330 | 9380 |
| 2026-05-05 17:30 | 7.53 | 4550 | 15500 (1983) | 62 (2006) | 2610 | 65 | 79 | 140 | 149 | 1640 | 3750 | 4510 | 7330 | 9380 |
| 2026-05-05 17:00 | 7.54 | 4560 | 15500 (1983) | 62 (2006) | 2610 | 65 | 79 | 140 | 149 | 1640 | 3750 | 4510 | 7330 | 9380 |
| 2026-05-05 16:30 | 7.53 | 4550 | 15500 (1983) | 62 (2006) | 2610 | 65 | 79 | 140 | 149 | 1640 | 3750 | 4510 | 7330 | 9380 |
| 2026-05-05 16:00 | 7.53 | 4550 | 15500 (1983) | 62 (2006) | 2610 | 65 | 79 | 140 | 149 | 1640 | 3750 | 4510 | 7330 | 9380 |
| 2026-05-05 15:30 | 7.50 | 4510 | 15500 (1983) | 62 (2006) | 2610 | 65 | 79 | 140 | 149 | 1640 | 3750 | 4510 | 7330 | 9380 |
| 2026-05-05 15:00 | 7.53 | 4550 | 15500 (1983) | 62 (2006) | 2610 | 65 | 79 | 140 | 149 | 1640 | 3750 | 4510 | 7330 | 9380 |
| 2026-05-05 14:30 | 7.53 | 4550 | 15500 (1983) | 62 (2006) | 2610 | 65 | 79 | 140 | 149 | 1640 | 3750 | 4510 | 7330 | 9380 |
| 2026-05-05 14:00 | 7.48 | 4490 | 15500 (1983) | 62 (2006) | 2610 | 65 | 79 | 140 | 149 | 1640 | 3750 | 4510 | 7330 | 9380 |
| 2026-05-05 13:30 | 7.48 | 4490 | 15500 (1983) | 62 (2006) | 2610 | 65 | 79 | 140 | 149 | 1640 | 3750 | 4510 | 7330 | 9380 |
| 2026-05-05 13:00 | 7.46 | 4470 | 15500 (1983) | 62 (2006) | 2610 | 65 | 79 | 140 | 149 | 1640 | 3750 | 4510 | 7330 | 9380 |
| 2026-05-05 12:30 | 7.45 | 4460 | 15500 (1983) | 62 (2006) | 2610 | 65 | 79 | 140 | 149 | 1640 | 3750 | 4510 | 7330 | 9380 |
| 2026-05-05 12:00 | 7.41 | 4410 | 15500 (1983) | 62 (2006) | 2610 | 65 | 79 | 140 | 149 | 1640 | 3750 | 4510 | 7330 | 9380 |
| 2026-05-05 11:30 | 7.40 | 4400 | 15500 (1983) | 62 (2006) | 2610 | 65 | 79 | 140 | 149 | 1640 | 3750 | 4510 | 7330 | 9380 |
| 2026-05-05 11:00 | 7.34 | 4320 | 15500 (1983) | 62 (2006) | 2610 | 65 | 79 | 140 | 149 | 1640 | 3750 | 4510 | 7330 | 9380 |
| 2026-05-05 10:30 | 7.30 | 4270 | 15500 (1983) | 62 (2006) | 2610 | 65 | 79 | 140 | 149 | 1640 | 3750 | 4510 | 7330 | 9380 |
| 2026-05-05 10:00 | 7.25 | 4200 | 15500 (1983) | 62 (2006) | 2610 | 65 | 79 | 140 | 149 | 1640 | 3750 | 4510 | 7330 | 9380 |
| 2026-05-05 09:30 | 7.16 | 4090 | 15500 (1983) | 62 (2006) | 2610 | 65 | 79 | 140 | 149 | 1640 | 3750 | 4510 | 7330 | 9380 |
| 2026-05-05 09:00 | 7.06 | 3960 | 15500 (1983) | 62 (2006) | 2610 | 65 | 79 | 140 | 149 | 1640 | 3750 | 4510 | 7330 | 9380 |
| 2026-05-05 08:30 | 6.96 | 3840 | 15500 (1983) | 62 (2006) | 2610 | 65 | 79 | 140 | 149 | 1640 | 3750 | 4510 | 7330 | 9380 |
| 2026-05-05 08:00 | 6.84 | 3690 | 15500 (1983) | 62 (2006) | 2610 | 65 | 79 | 140 | 149 | 1640 | 3750 | 4510 | 7330 | 9380 |
| 2026-05-05 07:30 | 6.64 | 3440 | 15500 (1983) | 62 (2006) | 2610 | 65 | 79 | 140 | 149 | 1640 | 3750 | 4510 | 7330 | 9380 |
| 2026-05-05 07:00 | 6.47 | 3250 | 15500 (1983) | 62 (2006) | 2610 | 65 | 79 | 140 | 149 | 1640 | 3750 | 4510 | 7330 | 9380 |
| 2026-05-05 06:30 | 6.31 | 3060 | 15500 (1983) | 62 (2006) | 2610 | 65 | 79 | 140 | 149 | 1640 | 3750 | 4510 | 7330 | 9380 |
| 2026-05-05 06:00 | 6.19 | 2930 | 15500 (1983) | 62 (2006) | 2610 | 65 | 79 | 140 | 149 | 1640 | 3750 | 4510 | 7330 | 9380 |
| 2026-05-05 05:30 | 6.10 | 2830 | 15500 (1983) | 62 (2006) | 2610 | 65 | 79 | 140 | 149 | 1640 | 3750 | 4510 | 7330 | 9380 |
| 2026-05-05 05:00 | 6.11 | 2840 | 15500 (1983) | 62 (2006) | 2610 | 65 | 79 | 140 | 149 | 1640 | 3750 | 4510 | 7330 | 9380 |
| 2026-05-05 04:30 | 6.20 | 2940 | 15500 (1983) | 62 (2006) | 2610 | 65 | 79 | 140 | 149 | 1640 | 3750 | 4510 | 7330 | 9380 |
| 2026-05-05 04:00 | 6.33 | 3080 | 15500 (1983) | 62 (2006) | 2610 | 65 | 79 | 140 | 149 | 1640 | 3750 | 4510 | 7330 | 9380 |
| 2026-05-05 03:30 | 6.48 | 3260 | 15500 (1983) | 62 (2006) | 2610 | 65 | 79 | 140 | 149 | 1640 | 3750 | 4510 | 7330 | 9380 |
| 2026-05-05 03:00 | 6.65 | 3460 | 15500 (1983) | 62 (2006) | 2610 | 65 | 79 | 140 | 149 | 1640 | 3750 | 4510 | 7330 | 9380 |
| 2026-05-05 02:30 | 6.82 | 3660 | 15500 (1983) | 62 (2006) | 2610 | 65 | 79 | 140 | 149 | 1640 | 3750 | 4510 | 7330 | 9380 |
| 2026-05-05 02:00 | 6.99 | 3870 | 15500 (1983) | 62 (2006) | 2610 | 65 | 79 | 140 | 149 | 1640 | 3750 | 4510 | 7330 | 9380 |
| 2026-05-05 01:30 | 7.15 | 4080 | 15500 (1983) | 62 (2006) | 2610 | 65 | 79 | 140 | 149 | 1640 | 3750 | 4510 | 7330 | 9380 |
| 2026-05-05 01:00 | 7.28 | 4240 | 15500 (1983) | 62 (2006) | 2610 | 65 | 79 | 140 | 149 | 1640 | 3750 | 4510 | 7330 | 9380 |
| 2026-05-05 00:30 | 7.38 | 4370 | 15500 (1983) | 62 (2006) | 2610 | 65 | 79 | 140 | 149 | 1640 | 3750 | 4510 | 7330 | 9380 |
| 2026-05-05 00:00 | 7.47 | 4480 | 15500 (1983) | 62 (2006) | 2610 | 65 | 79 | 140 | 149 | 1640 | 3750 | 4510 | 7330 | 9380 |
| 2026-05-04 23:30 | 7.47 | 4480 | 15500 (1983) | 62 (2006) | 2610 | 65 | 79 | 140 | 149 | 1640 | 3750 | 4510 | 7330 | 9380 |
| 2026-05-04 23:00 | 7.47 | 4480 | 15500 (1983) | 62 (2006) | 2610 | 65 | 79 | 140 | 149 | 1640 | 3750 | 4510 | 7330 | 9380 |
| 2026-05-04 22:30 | 7.46 | 4470 | 19600 (1983) | 69 (2000) | 2570 | 73 | 83 | 136 | 164 | 1550 | 3620 | 4570 | 5940 | 9390 |
| 2026-05-04 22:00 | 7.46 | 4470 | 19600 (1983) | 69 (2000) | 2570 | 73 | 83 | 136 | 164 | 1550 | 3620 | 4570 | 5940 | 9390 |
| 2026-05-04 21:30 | 7.45 | 4460 | 19600 (1983) | 69 (2000) | 2570 | 73 | 83 | 136 | 164 | 1550 | 3620 | 4570 | 5940 | 9390 |
| 2026-05-04 21:00 | 7.42 | 4420 | 19600 (1983) | 69 (2000) | 2570 | 73 | 83 | 136 | 164 | 1550 | 3620 | 4570 | 5940 | 9390 |
| 2026-05-04 20:30 | 7.38 | 4370 | 19600 (1983) | 69 (2000) | 2570 | 73 | 83 | 136 | 164 | 1550 | 3620 | 4570 | 5940 | 9390 |
| 2026-05-04 20:00 | 7.32 | 4300 | 19600 (1983) | 69 (2000) | 2570 | 73 | 83 | 136 | 164 | 1550 | 3620 | 4570 | 5940 | 9390 |
| 2026-05-04 19:30 | 7.30 | 4270 | 19600 (1983) | 69 (2000) | 2570 | 73 | 83 | 136 | 164 | 1550 | 3620 | 4570 | 5940 | 9390 |
| 2026-05-04 19:00 | 7.21 | 4150 | 19600 (1983) | 69 (2000) | 2570 | 73 | 83 | 136 | 164 | 1550 | 3620 | 4570 | 5940 | 9390 |
| 2026-05-04 18:30 | 7.14 | 4060 | 19600 (1983) | 69 (2000) | 2570 | 73 | 83 | 136 | 164 | 1550 | 3620 | 4570 | 5940 | 9390 |
| 2026-05-04 18:00 | 7.02 | 3910 | 19600 (1983) | 69 (2000) | 2570 | 73 | 83 | 136 | 164 | 1550 | 3620 | 4570 | 5940 | 9390 |
| 2026-05-04 17:30 | 6.89 | 3750 | 19600 (1983) | 69 (2000) | 2570 | 73 | 83 | 136 | 164 | 1550 | 3620 | 4570 | 5940 | 9390 |
| 2026-05-04 17:00 | 6.71 | 3530 | 19600 (1983) | 69 (2000) | 2570 | 73 | 83 | 136 | 164 | 1550 | 3620 | 4570 | 5940 | 9390 |
| 2026-05-04 16:30 | 6.51 | 3290 | 19600 (1983) | 69 (2000) | 2570 | 73 | 83 | 136 | 164 | 1550 | 3620 | 4570 | 5940 | 9390 |
| 2026-05-04 16:00 | 6.20 | 2940 | 19600 (1983) | 69 (2000) | 2570 | 73 | 83 | 136 | 164 | 1550 | 3620 | 4570 | 5940 | 9390 |
| 2026-05-04 15:30 | 5.88 | 2590 | 19600 (1983) | 69 (2000) | 2570 | 73 | 83 | 136 | 164 | 1550 | 3620 | 4570 | 5940 | 9390 |
| 2026-05-04 15:00 | 5.49 | 2200 | 19600 (1983) | 69 (2000) | 2570 | 73 | 83 | 136 | 164 | 1550 | 3620 | 4570 | 5940 | 9390 |
| 2026-05-04 14:30 | 5.07 | 1730 | 19600 (1983) | 69 (2000) | 2570 | 73 | 83 | 136 | 164 | 1550 | 3620 | 4570 | 5940 | 9390 |
| 2026-05-04 14:00 | 4.66 | 1320 | 19600 (1983) | 69 (2000) | 2570 | 73 | 83 | 136 | 164 | 1550 | 3620 | 4570 | 5940 | 9390 |
| 2026-05-04 13:30 | 4.34 | 1040 | 19600 (1983) | 69 (2000) | 2570 | 73 | 83 | 136 | 164 | 1550 | 3620 | 4570 | 5940 | 9390 |
| 2026-05-04 13:00 | 4.18 | 917 | 19600 (1983) | 69 (2000) | 2570 | 73 | 83 | 136 | 164 | 1550 | 3620 | 4570 | 5940 | 9390 |
| 2026-05-04 12:30 | 4.17 | 910 | 19600 (1983) | 69 (2000) | 2570 | 73 | 83 | 136 | 164 | 1550 | 3620 | 4570 | 5940 | 9390 |
| 2026-05-04 12:00 | 4.25 | 971 | 19600 (1983) | 69 (2000) | 2570 | 73 | 83 | 136 | 164 | 1550 | 3620 | 4570 | 5940 | 9390 |
| 2026-05-04 11:30 | 4.35 | 1050 | 19600 (1983) | 69 (2000) | 2570 | 73 | 83 | 136 | 164 | 1550 | 3620 | 4570 | 5940 | 9390 |
| 2026-05-04 11:00 | 4.48 | 1160 | 19600 (1983) | 69 (2000) | 2570 | 73 | 83 | 136 | 164 | 1550 | 3620 | 4570 | 5940 | 9390 |
| 2026-05-04 10:30 | 4.61 | 1280 | 19600 (1983) | 69 (2000) | 2570 | 73 | 83 | 136 | 164 | 1550 | 3620 | 4570 | 5940 | 9390 |
| 2026-05-04 10:00 | 4.74 | 1400 | 19600 (1983) | 69 (2000) | 2570 | 73 | 83 | 136 | 164 | 1550 | 3620 | 4570 | 5940 | 9390 |
| 2026-05-04 09:30 | 4.87 | 1520 | 19600 (1983) | 69 (2000) | 2570 | 73 | 83 | 136 | 164 | 1550 | 3620 | 4570 | 5940 | 9390 |
| 2026-05-04 09:00 | 5.00 | 1660 | 19600 (1983) | 69 (2000) | 2570 | 73 | 83 | 136 | 164 | 1550 | 3620 | 4570 | 5940 | 9390 |
| 2026-05-04 08:30 | 5.12 | 1780 | 19600 (1983) | 69 (2000) | 2570 | 73 | 83 | 136 | 164 | 1550 | 3620 | 4570 | 5940 | 9390 |
| 2026-05-04 08:00 | 5.26 | 1940 | 19600 (1983) | 69 (2000) | 2570 | 73 | 83 | 136 | 164 | 1550 | 3620 | 4570 | 5940 | 9390 |
| 2026-05-04 07:30 | 5.38 | 2080 | 19600 (1983) | 69 (2000) | 2570 | 73 | 83 | 136 | 164 | 1550 | 3620 | 4570 | 5940 | 9390 |
| 2026-05-04 07:00 | 5.51 | 2220 | 19600 (1983) | 69 (2000) | 2570 | 73 | 83 | 136 | 164 | 1550 | 3620 | 4570 | 5940 | 9390 |
| 2026-05-04 06:30 | 5.65 | 2360 | 19600 (1983) | 69 (2000) | 2570 | 73 | 83 | 136 | 164 | 1550 | 3620 | 4570 | 5940 | 9390 |
| 2026-05-04 06:00 | 5.79 | 2500 | 19600 (1983) | 69 (2000) | 2570 | 73 | 83 | 136 | 164 | 1550 | 3620 | 4570 | 5940 | 9390 |
| 2026-05-04 05:30 | 5.95 | 2670 | 19600 (1983) | 69 (2000) | 2570 | 73 | 83 | 136 | 164 | 1550 | 3620 | 4570 | 5940 | 9390 |
| 2026-05-04 05:00 | 6.12 | 2850 | 19600 (1983) | 69 (2000) | 2570 | 73 | 83 | 136 | 164 | 1550 | 3620 | 4570 | 5940 | 9390 |
| 2026-05-04 04:30 | 6.28 | 3030 | 19600 (1983) | 69 (2000) | 2570 | 73 | 83 | 136 | 164 | 1550 | 3620 | 4570 | 5940 | 9390 |
| 2026-05-04 04:00 | 6.45 | 3220 | 19600 (1983) | 69 (2000) | 2570 | 73 | 83 | 136 | 164 | 1550 | 3620 | 4570 | 5940 | 9390 |
| 2026-05-04 03:30 | 6.66 | 3470 | 19600 (1983) | 69 (2000) | 2570 | 73 | 83 | 136 | 164 | 1550 | 3620 | 4570 | 5940 | 9390 |
| 2026-05-04 03:00 | 6.82 | 3660 | 19600 (1983) | 69 (2000) | 2570 | 73 | 83 | 136 | 164 | 1550 | 3620 | 4570 | 5940 | 9390 |
| 2026-05-04 02:30 | 6.98 | 3860 | 19600 (1983) | 69 (2000) | 2570 | 73 | 83 | 136 | 164 | 1550 | 3620 | 4570 | 5940 | 9390 |
| 2026-05-04 02:00 | 7.14 | 4060 | 19600 (1983) | 69 (2000) | 2570 | 73 | 83 | 136 | 164 | 1550 | 3620 | 4570 | 5940 | 9390 |
| 2026-05-04 01:30 | 7.29 | 4260 | 19600 (1983) | 69 (2000) | 2570 | 73 | 83 | 136 | 164 | 1550 | 3620 | 4570 | 5940 | 9390 |
| 2026-05-04 01:00 | 7.39 | 4390 | 19600 (1983) | 69 (2000) | 2570 | 73 | 83 | 136 | 164 | 1550 | 3620 | 4570 | 5940 | 9390 |
| 2026-05-04 00:30 | 7.45 | 4460 | 19600 (1983) | 69 (2000) | 2570 | 73 | 83 | 136 | 164 | 1550 | 3620 | 4570 | 5940 | 9390 |
| 2026-05-04 00:00 | 7.52 | 4540 | 19600 (1983) | 69 (2000) | 2570 | 73 | 83 | 136 | 164 | 1550 | 3620 | 4570 | 5940 | 9390 |
| 2026-05-03 23:30 | 7.52 | 4540 | 19600 (1983) | 69 (2000) | 2570 | 73 | 83 | 136 | 164 | 1550 | 3620 | 4570 | 5940 | 9390 |
| 2026-05-03 23:00 | 7.52 | 4540 | 19600 (1983) | 69 (2000) | 2570 | 73 | 83 | 136 | 164 | 1550 | 3620 | 4570 | 5940 | 9390 |
| 2026-05-03 22:30 | 7.51 | 4530 | 19400 (1983) | 71 (2000) | 2670 | 73 | 83 | 140 | 152 | 1970 | 4180 | 4680 | 5960 | 8180 |
| 2026-05-03 22:00 | 7.48 | 4490 | 19400 (1983) | 71 (2000) | 2670 | 73 | 83 | 140 | 152 | 1970 | 4180 | 4680 | 5960 | 8180 |
| 2026-05-03 21:30 | 7.51 | 4530 | 19400 (1983) | 71 (2000) | 2670 | 73 | 83 | 140 | 152 | 1970 | 4180 | 4680 | 5960 | 8180 |
| 2026-05-03 21:00 | 7.51 | 4530 | 19400 (1983) | 71 (2000) | 2670 | 73 | 83 | 140 | 152 | 1970 | 4180 | 4680 | 5960 | 8180 |
| 2026-05-03 20:30 | 7.48 | 4490 | 19400 (1983) | 71 (2000) | 2670 | 73 | 83 | 140 | 152 | 1970 | 4180 | 4680 | 5960 | 8180 |
| 2026-05-03 20:00 | 7.46 | 4470 | 19400 (1983) | 71 (2000) | 2670 | 73 | 83 | 140 | 152 | 1970 | 4180 | 4680 | 5960 | 8180 |
| 2026-05-03 19:30 | 7.44 | 4440 | 19400 (1983) | 71 (2000) | 2670 | 73 | 83 | 140 | 152 | 1970 | 4180 | 4680 | 5960 | 8180 |
| 2026-05-03 19:00 | 7.42 | 4420 | 19400 (1983) | 71 (2000) | 2670 | 73 | 83 | 140 | 152 | 1970 | 4180 | 4680 | 5960 | 8180 |
| 2026-05-03 18:30 | 7.38 | 4370 | 19400 (1983) | 71 (2000) | 2670 | 73 | 83 | 140 | 152 | 1970 | 4180 | 4680 | 5960 | 8180 |
| 2026-05-03 18:00 | 7.36 | 4350 | 19400 (1983) | 71 (2000) | 2670 | 73 | 83 | 140 | 152 | 1970 | 4180 | 4680 | 5960 | 8180 |
| 2026-05-03 17:30 | 7.27 | 4230 | 19400 (1983) | 71 (2000) | 2670 | 73 | 83 | 140 | 152 | 1970 | 4180 | 4680 | 5960 | 8180 |
| 2026-05-03 17:00 | 7.23 | 4180 | 19400 (1983) | 71 (2000) | 2670 | 73 | 83 | 140 | 152 | 1970 | 4180 | 4680 | 5960 | 8180 |
| 2026-05-03 16:30 | 7.13 | 4050 | 19400 (1983) | 71 (2000) | 2670 | 73 | 83 | 140 | 152 | 1970 | 4180 | 4680 | 5960 | 8180 |
| 2026-05-03 16:00 | 6.99 | 3870 | 19400 (1983) | 71 (2000) | 2670 | 73 | 83 | 140 | 152 | 1970 | 4180 | 4680 | 5960 | 8180 |
| 2026-05-03 15:30 | 6.82 | 3660 | 19400 (1983) | 71 (2000) | 2670 | 73 | 83 | 140 | 152 | 1970 | 4180 | 4680 | 5960 | 8180 |
| 2026-05-03 15:00 | 6.59 | 3390 | 19400 (1983) | 71 (2000) | 2670 | 73 | 83 | 140 | 152 | 1970 | 4180 | 4680 | 5960 | 8180 |
| 2026-05-03 14:30 | 6.28 | 3030 | 19400 (1983) | 71 (2000) | 2670 | 73 | 83 | 140 | 152 | 1970 | 4180 | 4680 | 5960 | 8180 |
| 2026-05-03 14:00 | 5.88 | 2590 | 19400 (1983) | 71 (2000) | 2670 | 73 | 83 | 140 | 152 | 1970 | 4180 | 4680 | 5960 | 8180 |
| 2026-05-03 13:30 | 5.41 | 2120 | 19400 (1983) | 71 (2000) | 2670 | 73 | 83 | 140 | 152 | 1970 | 4180 | 4680 | 5960 | 8180 |
| 2026-05-03 13:00 | 4.89 | 1540 | 19400 (1983) | 71 (2000) | 2670 | 73 | 83 | 140 | 152 | 1970 | 4180 | 4680 | 5960 | 8180 |
| 2026-05-03 12:30 | 4.47 | 1150 | 19400 (1983) | 71 (2000) | 2670 | 73 | 83 | 140 | 152 | 1970 | 4180 | 4680 | 5960 | 8180 |
| 2026-05-03 12:00 | 4.26 | 979 | 19400 (1983) | 71 (2000) | 2670 | 73 | 83 | 140 | 152 | 1970 | 4180 | 4680 | 5960 | 8180 |
| 2026-05-03 11:30 | 4.21 | 940 | 19400 (1983) | 71 (2000) | 2670 | 73 | 83 | 140 | 152 | 1970 | 4180 | 4680 | 5960 | 8180 |
| 2026-05-03 11:00 | 4.24 | 964 | 19400 (1983) | 71 (2000) | 2670 | 73 | 83 | 140 | 152 | 1970 | 4180 | 4680 | 5960 | 8180 |
| 2026-05-03 10:30 | 4.30 | 1010 | 19400 (1983) | 71 (2000) | 2670 | 73 | 83 | 140 | 152 | 1970 | 4180 | 4680 | 5960 | 8180 |
| 2026-05-03 10:00 | 4.36 | 1060 | 19400 (1983) | 71 (2000) | 2670 | 73 | 83 | 140 | 152 | 1970 | 4180 | 4680 | 5960 | 8180 |
| 2026-05-03 09:30 | 4.42 | 1110 | 19400 (1983) | 71 (2000) | 2670 | 73 | 83 | 140 | 152 | 1970 | 4180 | 4680 | 5960 | 8180 |
| 2026-05-03 09:00 | 4.49 | 1170 | 19400 (1983) | 71 (2000) | 2670 | 73 | 83 | 140 | 152 | 1970 | 4180 | 4680 | 5960 | 8180 |
| 2026-05-03 08:30 | 4.53 | 1200 | 19400 (1983) | 71 (2000) | 2670 | 73 | 83 | 140 | 152 | 1970 | 4180 | 4680 | 5960 | 8180 |
| 2026-05-03 08:00 | 4.59 | 1260 | 19400 (1983) | 71 (2000) | 2670 | 73 | 83 | 140 | 152 | 1970 | 4180 | 4680 | 5960 | 8180 |
| 2026-05-03 07:30 | 4.61 | 1280 | 19400 (1983) | 71 (2000) | 2670 | 73 | 83 | 140 | 152 | 1970 | 4180 | 4680 | 5960 | 8180 |
| 2026-05-03 07:00 | 4.62 | 1280 | 19400 (1983) | 71 (2000) | 2670 | 73 | 83 | 140 | 152 | 1970 | 4180 | 4680 | 5960 | 8180 |
| 2026-05-03 06:30 | 4.60 | 1270 | 19400 (1983) | 71 (2000) | 2670 | 73 | 83 | 140 | 152 | 1970 | 4180 | 4680 | 5960 | 8180 |
| 2026-05-03 06:00 | 4.55 | 1220 | 19400 (1983) | 71 (2000) | 2670 | 73 | 83 | 140 | 152 | 1970 | 4180 | 4680 | 5960 | 8180 |
| 2026-05-03 05:30 | 4.45 | 1130 | 19400 (1983) | 71 (2000) | 2670 | 73 | 83 | 140 | 152 | 1970 | 4180 | 4680 | 5960 | 8180 |
| 2026-05-03 05:00 | 4.31 | 1020 | 19400 (1983) | 71 (2000) | 2670 | 73 | 83 | 140 | 152 | 1970 | 4180 | 4680 | 5960 | 8180 |
| 2026-05-03 04:30 | 4.12 | 873 | 19400 (1983) | 71 (2000) | 2670 | 73 | 83 | 140 | 152 | 1970 | 4180 | 4680 | 5960 | 8180 |
| 2026-05-03 04:00 | 3.88 | 706 | 19400 (1983) | 71 (2000) | 2670 | 73 | 83 | 140 | 152 | 1970 | 4180 | 4680 | 5960 | 8180 |
| 2026-05-03 03:30 | 3.59 | 529 | 19400 (1983) | 71 (2000) | 2670 | 73 | 83 | 140 | 152 | 1970 | 4180 | 4680 | 5960 | 8180 |
| 2026-05-03 03:00 | 3.29 | 376 | 19400 (1983) | 71 (2000) | 2670 | 73 | 83 | 140 | 152 | 1970 | 4180 | 4680 | 5960 | 8180 |
| 2026-05-03 02:30 | 3.03 | 265 | 19400 (1983) | 71 (2000) | 2670 | 73 | 83 | 140 | 152 | 1970 | 4180 | 4680 | 5960 | 8180 |
| 2026-05-03 02:00 | 2.89 | 215 | 19400 (1983) | 71 (2000) | 2670 | 73 | 83 | 140 | 152 | 1970 | 4180 | 4680 | 5960 | 8180 |
| 2026-05-03 01:30 | 2.84 | 198 | 19400 (1983) | 71 (2000) | 2670 | 73 | 83 | 140 | 152 | 1970 | 4180 | 4680 | 5960 | 8180 |
| 2026-05-03 01:00 | 2.85 | 201 | 19400 (1983) | 71 (2000) | 2670 | 73 | 83 | 140 | 152 | 1970 | 4180 | 4680 | 5960 | 8180 |
| 2026-05-03 00:30 | 2.88 | 211 | 19400 (1983) | 71 (2000) | 2670 | 73 | 83 | 140 | 152 | 1970 | 4180 | 4680 | 5960 | 8180 |
| 2026-05-03 00:00 | 2.91 | 221 | 19400 (1983) | 71 (2000) | 2670 | 73 | 83 | 140 | 152 | 1970 | 4180 | 4680 | 5960 | 8180 |
| 2026-05-02 23:30 | 2.95 | 236 | 19400 (1983) | 71 (2000) | 2670 | 73 | 83 | 140 | 152 | 1970 | 4180 | 4680 | 5960 | 8180 |
| 2026-05-02 23:00 | 2.98 | 247 | 19400 (1983) | 71 (2000) | 2670 | 73 | 83 | 140 | 152 | 1970 | 4180 | 4680 | 5960 | 8180 |
| 2026-05-02 22:30 | 3.02 | 262 | 17300 (1983) | 68 (1989) | 2570 | 71 | 91 | 156 | 196 | 1280 | 3440 | 4630 | 6220 | 10100 |
| 2026-05-02 22:00 | 3.06 | 277 | 17300 (1983) | 68 (1989) | 2570 | 71 | 91 | 156 | 196 | 1280 | 3440 | 4630 | 6220 | 10100 |
| 2026-05-02 21:30 | 3.11 | 297 | 17300 (1983) | 68 (1989) | 2570 | 71 | 91 | 156 | 196 | 1280 | 3440 | 4630 | 6220 | 10100 |
| 2026-05-02 21:00 | 3.15 | 314 | 17300 (1983) | 68 (1989) | 2570 | 71 | 91 | 156 | 196 | 1280 | 3440 | 4630 | 6220 | 10100 |
| 2026-05-02 20:30 | 3.20 | 335 | 17300 (1983) | 68 (1989) | 2570 | 71 | 91 | 156 | 196 | 1280 | 3440 | 4630 | 6220 | 10100 |
| 2026-05-02 20:00 | 3.25 | 357 | 17300 (1983) | 68 (1989) | 2570 | 71 | 91 | 156 | 196 | 1280 | 3440 | 4630 | 6220 | 10100 |
| 2026-05-02 19:30 | 3.31 | 385 | 17300 (1983) | 68 (1989) | 2570 | 71 | 91 | 156 | 196 | 1280 | 3440 | 4630 | 6220 | 10100 |
| 2026-05-02 19:00 | 3.37 | 414 | 17300 (1983) | 68 (1989) | 2570 | 71 | 91 | 156 | 196 | 1280 | 3440 | 4630 | 6220 | 10100 |
| 2026-05-02 18:30 | 3.42 | 439 | 17300 (1983) | 68 (1989) | 2570 | 71 | 91 | 156 | 196 | 1280 | 3440 | 4630 | 6220 | 10100 |
| 2026-05-02 18:00 | 3.49 | 475 | 17300 (1983) | 68 (1989) | 2570 | 71 | 91 | 156 | 196 | 1280 | 3440 | 4630 | 6220 | 10100 |
| 2026-05-02 17:30 | 3.56 | 513 | 17300 (1983) | 68 (1989) | 2570 | 71 | 91 | 156 | 196 | 1280 | 3440 | 4630 | 6220 | 10100 |
| 2026-05-02 17:00 | 3.64 | 558 | 17300 (1983) | 68 (1989) | 2570 | 71 | 91 | 156 | 196 | 1280 | 3440 | 4630 | 6220 | 10100 |
| 2026-05-02 16:30 | 3.72 | 605 | 17300 (1983) | 68 (1989) | 2570 | 71 | 91 | 156 | 196 | 1280 | 3440 | 4630 | 6220 | 10100 |
| 2026-05-02 16:00 | 3.80 | 654 | 17300 (1983) | 68 (1989) | 2570 | 71 | 91 | 156 | 196 | 1280 | 3440 | 4630 | 6220 | 10100 |
| 2026-05-02 15:30 | 3.89 | 712 | 17300 (1983) | 68 (1989) | 2570 | 71 | 91 | 156 | 196 | 1280 | 3440 | 4630 | 6220 | 10100 |
| 2026-05-02 15:00 | 3.98 | 773 | 17300 (1983) | 68 (1989) | 2570 | 71 | 91 | 156 | 196 | 1280 | 3440 | 4630 | 6220 | 10100 |
| 2026-05-02 14:30 | 4.08 | 843 | 17300 (1983) | 68 (1989) | 2570 | 71 | 91 | 156 | 196 | 1280 | 3440 | 4630 | 6220 | 10100 |
| 2026-05-02 14:00 | 4.18 | 917 | 17300 (1983) | 68 (1989) | 2570 | 71 | 91 | 156 | 196 | 1280 | 3440 | 4630 | 6220 | 10100 |
| 2026-05-02 13:30 | 4.29 | 1000 | 17300 (1983) | 68 (1989) | 2570 | 71 | 91 | 156 | 196 | 1280 | 3440 | 4630 | 6220 | 10100 |
| 2026-05-02 13:00 | 4.40 | 1090 | 17300 (1983) | 68 (1989) | 2570 | 71 | 91 | 156 | 196 | 1280 | 3440 | 4630 | 6220 | 10100 |
| 2026-05-02 12:30 | 4.52 | 1200 | 17300 (1983) | 68 (1989) | 2570 | 71 | 91 | 156 | 196 | 1280 | 3440 | 4630 | 6220 | 10100 |
| 2026-05-02 12:00 | 4.65 | 1310 | 17300 (1983) | 68 (1989) | 2570 | 71 | 91 | 156 | 196 | 1280 | 3440 | 4630 | 6220 | 10100 |
| 2026-05-02 11:30 | 4.78 | 1430 | 17300 (1983) | 68 (1989) | 2570 | 71 | 91 | 156 | 196 | 1280 | 3440 | 4630 | 6220 | 10100 |
| 2026-05-02 11:00 | 4.93 | 1580 | 17300 (1983) | 68 (1989) | 2570 | 71 | 91 | 156 | 196 | 1280 | 3440 | 4630 | 6220 | 10100 |
| 2026-05-02 10:30 | 5.09 | 1750 | 17300 (1983) | 68 (1989) | 2570 | 71 | 91 | 156 | 196 | 1280 | 3440 | 4630 | 6220 | 10100 |
| 2026-05-02 10:00 | 5.25 | 1930 | 17300 (1983) | 68 (1989) | 2570 | 71 | 91 | 156 | 196 | 1280 | 3440 | 4630 | 6220 | 10100 |
| 2026-05-02 09:30 | 5.43 | 2140 | 17300 (1983) | 68 (1989) | 2570 | 71 | 91 | 156 | 196 | 1280 | 3440 | 4630 | 6220 | 10100 |
| 2026-05-02 09:00 | 5.60 | 2310 | 17300 (1983) | 68 (1989) | 2570 | 71 | 91 | 156 | 196 | 1280 | 3440 | 4630 | 6220 | 10100 |
| 2026-05-02 08:30 | 5.79 | 2500 | 17300 (1983) | 68 (1989) | 2570 | 71 | 91 | 156 | 196 | 1280 | 3440 | 4630 | 6220 | 10100 |
| 2026-05-02 08:00 | 5.98 | 2700 | 17300 (1983) | 68 (1989) | 2570 | 71 | 91 | 156 | 196 | 1280 | 3440 | 4630 | 6220 | 10100 |
| 2026-05-02 07:30 | 6.17 | 2910 | 17300 (1983) | 68 (1989) | 2570 | 71 | 91 | 156 | 196 | 1280 | 3440 | 4630 | 6220 | 10100 |
| 2026-05-02 07:00 | 6.33 | 3080 | 17300 (1983) | 68 (1989) | 2570 | 71 | 91 | 156 | 196 | 1280 | 3440 | 4630 | 6220 | 10100 |
| 2026-05-02 06:30 | 6.48 | 3260 | 17300 (1983) | 68 (1989) | 2570 | 71 | 91 | 156 | 196 | 1280 | 3440 | 4630 | 6220 | 10100 |
| 2026-05-02 06:00 | 6.60 | 3400 | 17300 (1983) | 68 (1989) | 2570 | 71 | 91 | 156 | 196 | 1280 | 3440 | 4630 | 6220 | 10100 |
| 2026-05-02 05:30 | 6.66 | 3470 | 17300 (1983) | 68 (1989) | 2570 | 71 | 91 | 156 | 196 | 1280 | 3440 | 4630 | 6220 | 10100 |
| 2026-05-02 05:00 | 6.72 | 3540 | 17300 (1983) | 68 (1989) | 2570 | 71 | 91 | 156 | 196 | 1280 | 3440 | 4630 | 6220 | 10100 |
| 2026-05-02 04:30 | 6.75 | 3580 | 17300 (1983) | 68 (1989) | 2570 | 71 | 91 | 156 | 196 | 1280 | 3440 | 4630 | 6220 | 10100 |
| 2026-05-02 04:00 | 6.76 | 3590 | 17300 (1983) | 68 (1989) | 2570 | 71 | 91 | 156 | 196 | 1280 | 3440 | 4630 | 6220 | 10100 |
| 2026-05-02 03:30 | 6.77 | 3600 | 17300 (1983) | 68 (1989) | 2570 | 71 | 91 | 156 | 196 | 1280 | 3440 | 4630 | 6220 | 10100 |
| 2026-05-02 03:00 | 6.78 | 3610 | 17300 (1983) | 68 (1989) | 2570 | 71 | 91 | 156 | 196 | 1280 | 3440 | 4630 | 6220 | 10100 |
| 2026-05-02 02:30 | 6.78 | 3610 | 17300 (1983) | 68 (1989) | 2570 | 71 | 91 | 156 | 196 | 1280 | 3440 | 4630 | 6220 | 10100 |
| 2026-05-02 02:00 | 6.79 | 3630 | 17300 (1983) | 68 (1989) | 2570 | 71 | 91 | 156 | 196 | 1280 | 3440 | 4630 | 6220 | 10100 |
| 2026-05-02 01:30 | 6.81 | 3650 | 17300 (1983) | 68 (1989) | 2570 | 71 | 91 | 156 | 196 | 1280 | 3440 | 4630 | 6220 | 10100 |
| 2026-05-02 01:00 | 6.80 | 3640 | 17300 (1983) | 68 (1989) | 2570 | 71 | 91 | 156 | 196 | 1280 | 3440 | 4630 | 6220 | 10100 |
| 2026-05-02 00:30 | 6.78 | 3610 | 17300 (1983) | 68 (1989) | 2570 | 71 | 91 | 156 | 196 | 1280 | 3440 | 4630 | 6220 | 10100 |
| 2026-05-02 00:00 | 6.76 | 3590 | 17300 (1983) | 68 (1989) | 2570 | 71 | 91 | 156 | 196 | 1280 | 3440 | 4630 | 6220 | 10100 |
| 2026-05-01 23:30 | 6.75 | 3580 | 17300 (1983) | 68 (1989) | 2570 | 71 | 91 | 156 | 196 | 1280 | 3440 | 4630 | 6220 | 10100 |
| 2026-05-01 23:00 | 6.75 | 3580 | 17300 (1983) | 68 (1989) | 2570 | 71 | 91 | 156 | 196 | 1280 | 3440 | 4630 | 6220 | 10100 |
| 2026-05-01 22:30 | 6.74 | 3560 | 11600 (2013) | 73 (2000) | 2380 | 76 | 115 | 171 | 200 | 1320 | 3210 | 4070 | 8090 | 9990 |
| 2026-05-01 22:00 | 6.74 | 3560 | 11600 (2013) | 73 (2000) | 2380 | 76 | 115 | 171 | 200 | 1320 | 3210 | 4070 | 8090 | 9990 |
| 2026-05-01 21:30 | 6.72 | 3540 | 11600 (2013) | 73 (2000) | 2380 | 76 | 115 | 171 | 200 | 1320 | 3210 | 4070 | 8090 | 9990 |
| 2026-05-01 21:00 | 6.71 | 3530 | 11600 (2013) | 73 (2000) | 2380 | 76 | 115 | 171 | 200 | 1320 | 3210 | 4070 | 8090 | 9990 |
| 2026-05-01 20:30 | 6.69 | 3500 | 11600 (2013) | 73 (2000) | 2380 | 76 | 115 | 171 | 200 | 1320 | 3210 | 4070 | 8090 | 9990 |
| 2026-05-01 20:00 | 6.70 | 3520 | 11600 (2013) | 73 (2000) | 2380 | 76 | 115 | 171 | 200 | 1320 | 3210 | 4070 | 8090 | 9990 |
| 2026-05-01 19:30 | 6.67 | 3480 | 11600 (2013) | 73 (2000) | 2380 | 76 | 115 | 171 | 200 | 1320 | 3210 | 4070 | 8090 | 9990 |
| 2026-05-01 19:00 | 6.65 | 3460 | 11600 (2013) | 73 (2000) | 2380 | 76 | 115 | 171 | 200 | 1320 | 3210 | 4070 | 8090 | 9990 |
| 2026-05-01 18:30 | 6.64 | 3440 | 11600 (2013) | 73 (2000) | 2380 | 76 | 115 | 171 | 200 | 1320 | 3210 | 4070 | 8090 | 9990 |
| 2026-05-01 18:00 | 6.62 | 3420 | 11600 (2013) | 73 (2000) | 2380 | 76 | 115 | 171 | 200 | 1320 | 3210 | 4070 | 8090 | 9990 |
| 2026-05-01 17:30 | 6.62 | 3420 | 11600 (2013) | 73 (2000) | 2380 | 76 | 115 | 171 | 200 | 1320 | 3210 | 4070 | 8090 | 9990 |
| 2026-05-01 17:00 | 6.58 | 3370 | 11600 (2013) | 73 (2000) | 2380 | 76 | 115 | 171 | 200 | 1320 | 3210 | 4070 | 8090 | 9990 |
| 2026-05-01 16:30 | 6.57 | 3360 | 11600 (2013) | 73 (2000) | 2380 | 76 | 115 | 171 | 200 | 1320 | 3210 | 4070 | 8090 | 9990 |
| 2026-05-01 16:00 | 6.54 | 3330 | 11600 (2013) | 73 (2000) | 2380 | 76 | 115 | 171 | 200 | 1320 | 3210 | 4070 | 8090 | 9990 |
| 2026-05-01 15:30 | 6.53 | 3320 | 11600 (2013) | 73 (2000) | 2380 | 76 | 115 | 171 | 200 | 1320 | 3210 | 4070 | 8090 | 9990 |
| 2026-05-01 15:00 | 6.51 | 3290 | 11600 (2013) | 73 (2000) | 2380 | 76 | 115 | 171 | 200 | 1320 | 3210 | 4070 | 8090 | 9990 |
| 2026-05-01 14:30 | 6.48 | 3260 | 11600 (2013) | 73 (2000) | 2380 | 76 | 115 | 171 | 200 | 1320 | 3210 | 4070 | 8090 | 9990 |
| 2026-05-01 14:00 | 6.47 | 3250 | 11600 (2013) | 73 (2000) | 2380 | 76 | 115 | 171 | 200 | 1320 | 3210 | 4070 | 8090 | 9990 |
| 2026-05-01 13:30 | 6.45 | 3220 | 11600 (2013) | 73 (2000) | 2380 | 76 | 115 | 171 | 200 | 1320 | 3210 | 4070 | 8090 | 9990 |
| 2026-05-01 13:00 | 6.43 | 3200 | 11600 (2013) | 73 (2000) | 2380 | 76 | 115 | 171 | 200 | 1320 | 3210 | 4070 | 8090 | 9990 |
| 2026-05-01 12:30 | 6.40 | 3160 | 11600 (2013) | 73 (2000) | 2380 | 76 | 115 | 171 | 200 | 1320 | 3210 | 4070 | 8090 | 9990 |
| 2026-05-01 12:00 | 6.42 | 3190 | 11600 (2013) | 73 (2000) | 2380 | 76 | 115 | 171 | 200 | 1320 | 3210 | 4070 | 8090 | 9990 |
| 2026-05-01 11:30 | 6.43 | 3200 | 11600 (2013) | 73 (2000) | 2380 | 76 | 115 | 171 | 200 | 1320 | 3210 | 4070 | 8090 | 9990 |
| 2026-05-01 11:00 | 6.44 | 3210 | 11600 (2013) | 73 (2000) | 2380 | 76 | 115 | 171 | 200 | 1320 | 3210 | 4070 | 8090 | 9990 |
| 2026-05-01 10:30 | 6.47 | 3250 | 11600 (2013) | 73 (2000) | 2380 | 76 | 115 | 171 | 200 | 1320 | 3210 | 4070 | 8090 | 9990 |
| 2026-05-01 10:00 | 6.48 | 3260 | 11600 (2013) | 73 (2000) | 2380 | 76 | 115 | 171 | 200 | 1320 | 3210 | 4070 | 8090 | 9990 |
| 2026-05-01 09:30 | 6.52 | 3300 | 11600 (2013) | 73 (2000) | 2380 | 76 | 115 | 171 | 200 | 1320 | 3210 | 4070 | 8090 | 9990 |
| 2026-05-01 09:00 | 6.55 | 3340 | 11600 (2013) | 73 (2000) | 2380 | 76 | 115 | 171 | 200 | 1320 | 3210 | 4070 | 8090 | 9990 |
| 2026-05-01 08:30 | 6.57 | 3360 | 11600 (2013) | 73 (2000) | 2380 | 76 | 115 | 171 | 200 | 1320 | 3210 | 4070 | 8090 | 9990 |
| 2026-05-01 08:00 | 6.57 | 3360 | 11600 (2013) | 73 (2000) | 2380 | 76 | 115 | 171 | 200 | 1320 | 3210 | 4070 | 8090 | 9990 |
| 2026-05-01 07:30 | 6.61 | 3410 | 11600 (2013) | 73 (2000) | 2380 | 76 | 115 | 171 | 200 | 1320 | 3210 | 4070 | 8090 | 9990 |
| 2026-05-01 07:00 | 6.63 | 3430 | 11600 (2013) | 73 (2000) | 2380 | 76 | 115 | 171 | 200 | 1320 | 3210 | 4070 | 8090 | 9990 |
| 2026-05-01 06:30 | 6.64 | 3440 | 11600 (2013) | 73 (2000) | 2380 | 76 | 115 | 171 | 200 | 1320 | 3210 | 4070 | 8090 | 9990 |
| 2026-05-01 06:00 | 6.66 | 3470 | 11600 (2013) | 73 (2000) | 2380 | 76 | 115 | 171 | 200 | 1320 | 3210 | 4070 | 8090 | 9990 |
| 2026-05-01 05:30 | 6.67 | 3480 | 11600 (2013) | 73 (2000) | 2380 | 76 | 115 | 171 | 200 | 1320 | 3210 | 4070 | 8090 | 9990 |
| 2026-05-01 05:00 | 6.68 | 3490 | 11600 (2013) | 73 (2000) | 2380 | 76 | 115 | 171 | 200 | 1320 | 3210 | 4070 | 8090 | 9990 |
| 2026-05-01 04:30 | 6.70 | 3520 | 11600 (2013) | 73 (2000) | 2380 | 76 | 115 | 171 | 200 | 1320 | 3210 | 4070 | 8090 | 9990 |
| 2026-05-01 04:00 | 6.68 | 3490 | 11600 (2013) | 73 (2000) | 2380 | 76 | 115 | 171 | 200 | 1320 | 3210 | 4070 | 8090 | 9990 |
| 2026-05-01 03:30 | 6.71 | 3530 | 11600 (2013) | 73 (2000) | 2380 | 76 | 115 | 171 | 200 | 1320 | 3210 | 4070 | 8090 | 9990 |
| 2026-05-01 03:00 | 6.69 | 3500 | 11600 (2013) | 73 (2000) | 2380 | 76 | 115 | 171 | 200 | 1320 | 3210 | 4070 | 8090 | 9990 |
| 2026-05-01 02:30 | 6.68 | 3490 | 11600 (2013) | 73 (2000) | 2380 | 76 | 115 | 171 | 200 | 1320 | 3210 | 4070 | 8090 | 9990 |
| 2026-05-01 02:00 | 6.65 | 3460 | 11600 (2013) | 73 (2000) | 2380 | 76 | 115 | 171 | 200 | 1320 | 3210 | 4070 | 8090 | 9990 |
| 2026-05-01 01:30 | 6.63 | 3430 | 11600 (2013) | 73 (2000) | 2380 | 76 | 115 | 171 | 200 | 1320 | 3210 | 4070 | 8090 | 9990 |
| 2026-05-01 01:00 | 6.60 | 3400 | 11600 (2013) | 73 (2000) | 2380 | 76 | 115 | 171 | 200 | 1320 | 3210 | 4070 | 8090 | 9990 |
| 2026-05-01 00:30 | 6.60 | 3400 | 11600 (2013) | 73 (2000) | 2380 | 76 | 115 | 171 | 200 | 1320 | 3210 | 4070 | 8090 | 9990 |
| 2026-05-01 00:00 | 6.56 | 3350 | 11600 (2013) | 73 (2000) | 2380 | 76 | 115 | 171 | 200 | 1320 | 3210 | 4070 | 8090 | 9990 |
| 2026-04-30 23:30 | 6.55 | 3340 | 11600 (2013) | 73 (2000) | 2380 | 76 | 115 | 171 | 200 | 1320 | 3210 | 4070 | 8090 | 9990 |
| 2026-04-30 23:00 | 6.51 | 3290 | 11600 (2013) | 73 (2000) | 2380 | 76 | 115 | 171 | 200 | 1320 | 3210 | 4070 | 8090 | 9990 |
| 2026-04-30 22:30 | 6.47 | 3250 | 11600 (2013) | 72 (2000) | 2690 | 78 | 102 | 178 | 316 | 1920 | 3830 | 4050 | 7040 | 9800 |
| 2026-04-30 22:00 | 6.45 | 3220 | 11600 (2013) | 72 (2000) | 2690 | 78 | 102 | 178 | 316 | 1920 | 3830 | 4050 | 7040 | 9800 |
| 2026-04-30 21:30 | 6.42 | 3190 | 11600 (2013) | 72 (2000) | 2690 | 78 | 102 | 178 | 316 | 1920 | 3830 | 4050 | 7040 | 9800 |
| 2026-04-30 21:00 | 6.37 | 3130 | 11600 (2013) | 72 (2000) | 2690 | 78 | 102 | 178 | 316 | 1920 | 3830 | 4050 | 7040 | 9800 |
| 2026-04-30 20:30 | 6.34 | 3100 | 11600 (2013) | 72 (2000) | 2690 | 78 | 102 | 178 | 316 | 1920 | 3830 | 4050 | 7040 | 9800 |
| 2026-04-30 20:00 | 6.28 | 3030 | 11600 (2013) | 72 (2000) | 2690 | 78 | 102 | 178 | 316 | 1920 | 3830 | 4050 | 7040 | 9800 |
| 2026-04-30 19:30 | 6.22 | 2960 | 11600 (2013) | 72 (2000) | 2690 | 78 | 102 | 178 | 316 | 1920 | 3830 | 4050 | 7040 | 9800 |
| 2026-04-30 19:00 | 6.17 | 2910 | 11600 (2013) | 72 (2000) | 2690 | 78 | 102 | 178 | 316 | 1920 | 3830 | 4050 | 7040 | 9800 |
| 2026-04-30 18:30 | 6.08 | 2810 | 11600 (2013) | 72 (2000) | 2690 | 78 | 102 | 178 | 316 | 1920 | 3830 | 4050 | 7040 | 9800 |
| 2026-04-30 18:00 | 5.99 | 2710 | 11600 (2013) | 72 (2000) | 2690 | 78 | 102 | 178 | 316 | 1920 | 3830 | 4050 | 7040 | 9800 |
| 2026-04-30 17:30 | 5.89 | 2600 | 11600 (2013) | 72 (2000) | 2690 | 78 | 102 | 178 | 316 | 1920 | 3830 | 4050 | 7040 | 9800 |
| 2026-04-30 17:00 | 5.80 | 2510 | 11600 (2013) | 72 (2000) | 2690 | 78 | 102 | 178 | 316 | 1920 | 3830 | 4050 | 7040 | 9800 |
| 2026-04-30 16:30 | 5.72 | 2430 | 11600 (2013) | 72 (2000) | 2690 | 78 | 102 | 178 | 316 | 1920 | 3830 | 4050 | 7040 | 9800 |
| 2026-04-30 16:00 | 5.65 | 2360 | 11600 (2013) | 72 (2000) | 2690 | 78 | 102 | 178 | 316 | 1920 | 3830 | 4050 | 7040 | 9800 |
| 2026-04-30 15:30 | 5.62 | 2330 | 11600 (2013) | 72 (2000) | 2690 | 78 | 102 | 178 | 316 | 1920 | 3830 | 4050 | 7040 | 9800 |
| 2026-04-30 15:00 | 5.63 | 2340 | 11600 (2013) | 72 (2000) | 2690 | 78 | 102 | 178 | 316 | 1920 | 3830 | 4050 | 7040 | 9800 |
| 2026-04-30 14:30 | 5.66 | 2370 | 11600 (2013) | 72 (2000) | 2690 | 78 | 102 | 178 | 316 | 1920 | 3830 | 4050 | 7040 | 9800 |
| 2026-04-30 14:00 | 5.72 | 2430 | 11600 (2013) | 72 (2000) | 2690 | 78 | 102 | 178 | 316 | 1920 | 3830 | 4050 | 7040 | 9800 |
| 2026-04-30 13:30 | 5.78 | 2490 | 11600 (2013) | 72 (2000) | 2690 | 78 | 102 | 178 | 316 | 1920 | 3830 | 4050 | 7040 | 9800 |
| 2026-04-30 13:00 | 5.80 | 2510 | 11600 (2013) | 72 (2000) | 2690 | 78 | 102 | 178 | 316 | 1920 | 3830 | 4050 | 7040 | 9800 |
| 2026-04-30 12:30 | 5.85 | 2560 | 11600 (2013) | 72 (2000) | 2690 | 78 | 102 | 178 | 316 | 1920 | 3830 | 4050 | 7040 | 9800 |
| 2026-04-30 12:00 | 5.87 | 2580 | 11600 (2013) | 72 (2000) | 2690 | 78 | 102 | 178 | 316 | 1920 | 3830 | 4050 | 7040 | 9800 |
| 2026-04-30 11:30 | 5.90 | 2610 | 11600 (2013) | 72 (2000) | 2690 | 78 | 102 | 178 | 316 | 1920 | 3830 | 4050 | 7040 | 9800 |
| 2026-04-30 11:00 | 5.91 | 2620 | 11600 (2013) | 72 (2000) | 2690 | 78 | 102 | 178 | 316 | 1920 | 3830 | 4050 | 7040 | 9800 |
| 2026-04-30 10:30 | 5.93 | 2650 | 11600 (2013) | 72 (2000) | 2690 | 78 | 102 | 178 | 316 | 1920 | 3830 | 4050 | 7040 | 9800 |
| 2026-04-30 10:00 | 5.97 | 2690 | 11600 (2013) | 72 (2000) | 2690 | 78 | 102 | 178 | 316 | 1920 | 3830 | 4050 | 7040 | 9800 |
| 2026-04-30 09:30 | 6.00 | 2720 | 11600 (2013) | 72 (2000) | 2690 | 78 | 102 | 178 | 316 | 1920 | 3830 | 4050 | 7040 | 9800 |
| 2026-04-30 09:00 | 6.01 | 2730 | 11600 (2013) | 72 (2000) | 2690 | 78 | 102 | 178 | 316 | 1920 | 3830 | 4050 | 7040 | 9800 |
| 2026-04-30 08:30 | 6.04 | 2760 | 11600 (2013) | 72 (2000) | 2690 | 78 | 102 | 178 | 316 | 1920 | 3830 | 4050 | 7040 | 9800 |
| 2026-04-30 08:00 | 6.08 | 2810 | 11600 (2013) | 72 (2000) | 2690 | 78 | 102 | 178 | 316 | 1920 | 3830 | 4050 | 7040 | 9800 |
| 2026-04-30 07:30 | 6.12 | 2850 | 11600 (2013) | 72 (2000) | 2690 | 78 | 102 | 178 | 316 | 1920 | 3830 | 4050 | 7040 | 9800 |
| 2026-04-30 07:00 | 6.17 | 2910 | 11600 (2013) | 72 (2000) | 2690 | 78 | 102 | 178 | 316 | 1920 | 3830 | 4050 | 7040 | 9800 |
| 2026-04-30 06:30 | 6.24 | 2980 | 11600 (2013) | 72 (2000) | 2690 | 78 | 102 | 178 | 316 | 1920 | 3830 | 4050 | 7040 | 9800 |
| 2026-04-30 06:00 | 6.31 | 3060 | 11600 (2013) | 72 (2000) | 2690 | 78 | 102 | 178 | 316 | 1920 | 3830 | 4050 | 7040 | 9800 |
| 2026-04-30 05:30 | 6.40 | 3160 | 11600 (2013) | 72 (2000) | 2690 | 78 | 102 | 178 | 316 | 1920 | 3830 | 4050 | 7040 | 9800 |
| 2026-04-30 05:00 | 6.49 | 3270 | 11600 (2013) | 72 (2000) | 2690 | 78 | 102 | 178 | 316 | 1920 | 3830 | 4050 | 7040 | 9800 |
| 2026-04-30 04:30 | 6.60 | 3400 | 11600 (2013) | 72 (2000) | 2690 | 78 | 102 | 178 | 316 | 1920 | 3830 | 4050 | 7040 | 9800 |
| 2026-04-30 04:00 | 6.72 | 3540 | 11600 (2013) | 72 (2000) | 2690 | 78 | 102 | 178 | 316 | 1920 | 3830 | 4050 | 7040 | 9800 |
| 2026-04-30 03:30 | 6.87 | 3720 | 11600 (2013) | 72 (2000) | 2690 | 78 | 102 | 178 | 316 | 1920 | 3830 | 4050 | 7040 | 9800 |
| 2026-04-30 03:00 | 6.98 | 3860 | 11600 (2013) | 72 (2000) | 2690 | 78 | 102 | 178 | 316 | 1920 | 3830 | 4050 | 7040 | 9800 |
| 2026-04-30 02:30 | 7.13 | 4050 | 11600 (2013) | 72 (2000) | 2690 | 78 | 102 | 178 | 316 | 1920 | 3830 | 4050 | 7040 | 9800 |
| 2026-04-30 02:00 | 7.27 | 4230 | 11600 (2013) | 72 (2000) | 2690 | 78 | 102 | 178 | 316 | 1920 | 3830 | 4050 | 7040 | 9800 |
| 2026-04-30 01:30 | 7.36 | 4350 | 11600 (2013) | 72 (2000) | 2690 | 78 | 102 | 178 | 316 | 1920 | 3830 | 4050 | 7040 | 9800 |
| 2026-04-30 01:00 | 7.45 | 4460 | 11600 (2013) | 72 (2000) | 2690 | 78 | 102 | 178 | 316 | 1920 | 3830 | 4050 | 7040 | 9800 |
| 2026-04-30 00:30 | 7.47 | 4480 | 11600 (2013) | 72 (2000) | 2690 | 78 | 102 | 178 | 316 | 1920 | 3830 | 4050 | 7040 | 9800 |
| 2026-04-30 00:00 | 7.43 | 4430 | 11600 (2013) | 72 (2000) | 2690 | 78 | 102 | 178 | 316 | 1920 | 3830 | 4050 | 7040 | 9800 |
| 2026-04-29 23:30 | 7.31 | 4280 | 11600 (2013) | 72 (2000) | 2690 | 78 | 102 | 178 | 316 | 1920 | 3830 | 4050 | 7040 | 9800 |
| 2026-04-29 23:00 | 7.06 | 3960 | 11600 (2013) | 72 (2000) | 2690 | 78 | 102 | 178 | 316 | 1920 | 3830 | 4050 | 7040 | 9800 |
| 2026-04-29 22:30 | 6.80 | 3640 | 8880 (2013) | 67 (1989) | 2310 | 77 | 90 | 144 | 191 | 1760 | 3760 | 4450 | 5440 | 8100 |
| 2026-04-29 22:00 | 6.50 | 3280 | 8880 (2013) | 67 (1989) | 2310 | 77 | 90 | 144 | 191 | 1760 | 3760 | 4450 | 5440 | 8100 |
| 2026-04-29 21:30 | 6.24 | 2980 | 8880 (2013) | 67 (1989) | 2310 | 77 | 90 | 144 | 191 | 1760 | 3760 | 4450 | 5440 | 8100 |
| 2026-04-29 21:00 | 6.08 | 2810 | 8880 (2013) | 67 (1989) | 2310 | 77 | 90 | 144 | 191 | 1760 | 3760 | 4450 | 5440 | 8100 |
| 2026-04-29 20:30 | 5.99 | 2710 | 8880 (2013) | 67 (1989) | 2310 | 77 | 90 | 144 | 191 | 1760 | 3760 | 4450 | 5440 | 8100 |
| 2026-04-29 20:00 | 5.96 | 2680 | 8880 (2013) | 67 (1989) | 2310 | 77 | 90 | 144 | 191 | 1760 | 3760 | 4450 | 5440 | 8100 |
| 2026-04-29 19:30 | 5.95 | 2670 | 8880 (2013) | 67 (1989) | 2310 | 77 | 90 | 144 | 191 | 1760 | 3760 | 4450 | 5440 | 8100 |
| 2026-04-29 19:00 | 5.92 | 2630 | 8880 (2013) | 67 (1989) | 2310 | 77 | 90 | 144 | 191 | 1760 | 3760 | 4450 | 5440 | 8100 |
| 2026-04-29 18:30 | 5.89 | 2600 | 8880 (2013) | 67 (1989) | 2310 | 77 | 90 | 144 | 191 | 1760 | 3760 | 4450 | 5440 | 8100 |
| 2026-04-29 18:00 | 5.85 | 2560 | 8880 (2013) | 67 (1989) | 2310 | 77 | 90 | 144 | 191 | 1760 | 3760 | 4450 | 5440 | 8100 |
| 2026-04-29 17:30 | 5.83 | 2540 | 8880 (2013) | 67 (1989) | 2310 | 77 | 90 | 144 | 191 | 1760 | 3760 | 4450 | 5440 | 8100 |
| 2026-04-29 17:00 | 5.79 | 2500 | 8880 (2013) | 67 (1989) | 2310 | 77 | 90 | 144 | 191 | 1760 | 3760 | 4450 | 5440 | 8100 |
| 2026-04-29 16:30 | 5.74 | 2450 | 8880 (2013) | 67 (1989) | 2310 | 77 | 90 | 144 | 191 | 1760 | 3760 | 4450 | 5440 | 8100 |
| 2026-04-29 16:00 | 5.68 | 2390 | 8880 (2013) | 67 (1989) | 2310 | 77 | 90 | 144 | 191 | 1760 | 3760 | 4450 | 5440 | 8100 |
| 2026-04-29 15:30 | 5.63 | 2340 | 8880 (2013) | 67 (1989) | 2310 | 77 | 90 | 144 | 191 | 1760 | 3760 | 4450 | 5440 | 8100 |
| 2026-04-29 15:00 | 5.56 | 2270 | 8880 (2013) | 67 (1989) | 2310 | 77 | 90 | 144 | 191 | 1760 | 3760 | 4450 | 5440 | 8100 |
| 2026-04-29 14:30 | 5.48 | 2190 | 8880 (2013) | 67 (1989) | 2310 | 77 | 90 | 144 | 191 | 1760 | 3760 | 4450 | 5440 | 8100 |
| 2026-04-29 14:00 | 5.43 | 2140 | 8880 (2013) | 67 (1989) | 2310 | 77 | 90 | 144 | 191 | 1760 | 3760 | 4450 | 5440 | 8100 |
| 2026-04-29 13:30 | 5.37 | 2070 | 8880 (2013) | 67 (1989) | 2310 | 77 | 90 | 144 | 191 | 1760 | 3760 | 4450 | 5440 | 8100 |
| 2026-04-29 13:00 | 5.33 | 2020 | 8880 (2013) | 67 (1989) | 2310 | 77 | 90 | 144 | 191 | 1760 | 3760 | 4450 | 5440 | 8100 |
| 2026-04-29 12:30 | 5.29 | 1980 | 8880 (2013) | 67 (1989) | 2310 | 77 | 90 | 144 | 191 | 1760 | 3760 | 4450 | 5440 | 8100 |
| 2026-04-29 12:00 | 5.30 | 1990 | 8880 (2013) | 67 (1989) | 2310 | 77 | 90 | 144 | 191 | 1760 | 3760 | 4450 | 5440 | 8100 |
| 2026-04-29 11:30 | 5.30 | 1990 | 8880 (2013) | 67 (1989) | 2310 | 77 | 90 | 144 | 191 | 1760 | 3760 | 4450 | 5440 | 8100 |
| 2026-04-29 11:00 | 5.31 | 2000 | 8880 (2013) | 67 (1989) | 2310 | 77 | 90 | 144 | 191 | 1760 | 3760 | 4450 | 5440 | 8100 |
| 2026-04-29 10:30 | 5.34 | 2270 | 8880 (2013) | 67 (1989) | 2310 | 77 | 90 | 144 | 191 | 1760 | 3760 | 4450 | 5440 | 8100 |
| 2026-04-29 10:00 | 5.36 | 2290 | 8880 (2013) | 67 (1989) | 2310 | 77 | 90 | 144 | 191 | 1760 | 3760 | 4450 | 5440 | 8100 |
| 2026-04-29 09:30 | 5.37 | 2300 | 8880 (2013) | 67 (1989) | 2310 | 77 | 90 | 144 | 191 | 1760 | 3760 | 4450 | 5440 | 8100 |
| 2026-04-29 09:00 | 5.40 | 2330 | 8880 (2013) | 67 (1989) | 2310 | 77 | 90 | 144 | 191 | 1760 | 3760 | 4450 | 5440 | 8100 |
| 2026-04-29 08:30 | 5.44 | 2370 | 8880 (2013) | 67 (1989) | 2310 | 77 | 90 | 144 | 191 | 1760 | 3760 | 4450 | 5440 | 8100 |
| 2026-04-29 08:00 | 5.47 | 2400 | 8880 (2013) | 67 (1989) | 2310 | 77 | 90 | 144 | 191 | 1760 | 3760 | 4450 | 5440 | 8100 |
| 2026-04-29 07:30 | 5.51 | 2430 | 8880 (2013) | 67 (1989) | 2310 | 77 | 90 | 144 | 191 | 1760 | 3760 | 4450 | 5440 | 8100 |
| 2026-04-29 07:00 | 5.56 | 2480 | 8880 (2013) | 67 (1989) | 2310 | 77 | 90 | 144 | 191 | 1760 | 3760 | 4450 | 5440 | 8100 |
| 2026-04-29 06:30 | 5.61 | 2530 | 8880 (2013) | 67 (1989) | 2310 | 77 | 90 | 144 | 191 | 1760 | 3760 | 4450 | 5440 | 8100 |
| 2026-04-29 06:00 | 5.69 | 2610 | 8880 (2013) | 67 (1989) | 2310 | 77 | 90 | 144 | 191 | 1760 | 3760 | 4450 | 5440 | 8100 |
| 2026-04-29 05:30 | 5.76 | 2680 | 8880 (2013) | 67 (1989) | 2310 | 77 | 90 | 144 | 191 | 1760 | 3760 | 4450 | 5440 | 8100 |
| 2026-04-29 05:00 | 5.87 | 2790 | 8880 (2013) | 67 (1989) | 2310 | 77 | 90 | 144 | 191 | 1760 | 3760 | 4450 | 5440 | 8100 |
| 2026-04-29 04:30 | 5.96 | 2880 | 8880 (2013) | 67 (1989) | 2310 | 77 | 90 | 144 | 191 | 1760 | 3760 | 4450 | 5440 | 8100 |
| 2026-04-29 04:00 | 6.08 | 3010 | 8880 (2013) | 67 (1989) | 2310 | 77 | 90 | 144 | 191 | 1760 | 3760 | 4450 | 5440 | 8100 |
| 2026-04-29 03:30 | 6.22 | 3160 | 8880 (2013) | 67 (1989) | 2310 | 77 | 90 | 144 | 191 | 1760 | 3760 | 4450 | 5440 | 8100 |
| 2026-04-29 03:00 | 6.34 | 3290 | 8880 (2013) | 67 (1989) | 2310 | 77 | 90 | 144 | 191 | 1760 | 3760 | 4450 | 5440 | 8100 |
| 2026-04-29 02:30 | 6.46 | 3420 | 8880 (2013) | 67 (1989) | 2310 | 77 | 90 | 144 | 191 | 1760 | 3760 | 4450 | 5440 | 8100 |
| 2026-04-29 02:00 | 6.58 | 3550 | 8880 (2013) | 67 (1989) | 2310 | 77 | 90 | 144 | 191 | 1760 | 3760 | 4450 | 5440 | 8100 |
| 2026-04-29 01:30 | 6.66 | 3650 | 8880 (2013) | 67 (1989) | 2310 | 77 | 90 | 144 | 191 | 1760 | 3760 | 4450 | 5440 | 8100 |
| 2026-04-29 01:00 | 6.70 | 3690 | 8880 (2013) | 67 (1989) | 2310 | 77 | 90 | 144 | 191 | 1760 | 3760 | 4450 | 5440 | 8100 |
| 2026-04-29 00:30 | 6.69 | 3680 | 8880 (2013) | 67 (1989) | 2310 | 77 | 90 | 144 | 191 | 1760 | 3760 | 4450 | 5440 | 8100 |
| 2026-04-29 00:00 | 6.57 | 3540 | 8880 (2013) | 67 (1989) | 2310 | 77 | 90 | 144 | 191 | 1760 | 3760 | 4450 | 5440 | 8100 |
| 2026-04-28 23:30 | 6.38 | 3330 | 8880 (2013) | 67 (1989) | 2310 | 77 | 90 | 144 | 191 | 1760 | 3760 | 4450 | 5440 | 8100 |
| 2026-04-28 23:00 | 6.07 | 3000 | 8880 (2013) | 67 (1989) | 2310 | 77 | 90 | 144 | 191 | 1760 | 3760 | 4450 | 5440 | 8100 |
| 2026-04-28 22:30 | 5.74 | 2660 | 8260 (2013) | 69 (2006) | 2160 | 76 | 93 | 173 | 218 | 1350 | 3810 | 4080 | 7050 | 7770 |
| 2026-04-28 22:00 | 5.50 | 2430 | 8260 (2013) | 69 (2006) | 2160 | 76 | 93 | 173 | 218 | 1350 | 3810 | 4080 | 7050 | 7770 |
| 2026-04-28 21:30 | 5.40 | 2330 | 8260 (2013) | 69 (2006) | 2160 | 76 | 93 | 173 | 218 | 1350 | 3810 | 4080 | 7050 | 7770 |
| 2026-04-28 21:00 | 5.37 | 2300 | 8260 (2013) | 69 (2006) | 2160 | 76 | 93 | 173 | 218 | 1350 | 3810 | 4080 | 7050 | 7770 |
| 2026-04-28 20:30 | 5.37 | 2300 | 8260 (2013) | 69 (2006) | 2160 | 76 | 93 | 173 | 218 | 1350 | 3810 | 4080 | 7050 | 7770 |
| 2026-04-28 20:00 | 5.37 | 2300 | 8260 (2013) | 69 (2006) | 2160 | 76 | 93 | 173 | 218 | 1350 | 3810 | 4080 | 7050 | 7770 |
| 2026-04-28 19:30 | 5.38 | 2310 | 8260 (2013) | 69 (2006) | 2160 | 76 | 93 | 173 | 218 | 1350 | 3810 | 4080 | 7050 | 7770 |
| 2026-04-28 19:00 | 5.38 | 2310 | 8260 (2013) | 69 (2006) | 2160 | 76 | 93 | 173 | 218 | 1350 | 3810 | 4080 | 7050 | 7770 |
| 2026-04-28 18:30 | 5.40 | 2330 | 8260 (2013) | 69 (2006) | 2160 | 76 | 93 | 173 | 218 | 1350 | 3810 | 4080 | 7050 | 7770 |
| 2026-04-28 18:00 | 5.43 | 2360 | 8260 (2013) | 69 (2006) | 2160 | 76 | 93 | 173 | 218 | 1350 | 3810 | 4080 | 7050 | 7770 |
| 2026-04-28 17:30 | 5.44 | 2370 | 8260 (2013) | 69 (2006) | 2160 | 76 | 93 | 173 | 218 | 1350 | 3810 | 4080 | 7050 | 7770 |
| 2026-04-28 17:00 | 5.46 | 2390 | 8260 (2013) | 69 (2006) | 2160 | 76 | 93 | 173 | 218 | 1350 | 3810 | 4080 | 7050 | 7770 |
| 2026-04-28 16:30 | 5.48 | 2410 | 8260 (2013) | 69 (2006) | 2160 | 76 | 93 | 173 | 218 | 1350 | 3810 | 4080 | 7050 | 7770 |
| 2026-04-28 16:00 | 5.51 | 2430 | 8260 (2013) | 69 (2006) | 2160 | 76 | 93 | 173 | 218 | 1350 | 3810 | 4080 | 7050 | 7770 |
| 2026-04-28 15:30 | 5.53 | 2450 | 8260 (2013) | 69 (2006) | 2160 | 76 | 93 | 173 | 218 | 1350 | 3810 | 4080 | 7050 | 7770 |
| 2026-04-28 15:00 | 5.55 | 2470 | 8260 (2013) | 69 (2006) | 2160 | 76 | 93 | 173 | 218 | 1350 | 3810 | 4080 | 7050 | 7770 |
| 2026-04-28 14:30 | 5.58 | 2500 | 8260 (2013) | 69 (2006) | 2160 | 76 | 93 | 173 | 218 | 1350 | 3810 | 4080 | 7050 | 7770 |
| 2026-04-28 14:00 | 5.60 | 2520 | 8260 (2013) | 69 (2006) | 2160 | 76 | 93 | 173 | 218 | 1350 | 3810 | 4080 | 7050 | 7770 |
| 2026-04-28 13:30 | 5.63 | 2550 | 8260 (2013) | 69 (2006) | 2160 | 76 | 93 | 173 | 218 | 1350 | 3810 | 4080 | 7050 | 7770 |
| 2026-04-28 13:00 | 5.67 | 2590 | 8260 (2013) | 69 (2006) | 2160 | 76 | 93 | 173 | 218 | 1350 | 3810 | 4080 | 7050 | 7770 |
| 2026-04-28 12:30 | 5.70 | 2620 | 8260 (2013) | 69 (2006) | 2160 | 76 | 93 | 173 | 218 | 1350 | 3810 | 4080 | 7050 | 7770 |
| 2026-04-28 12:00 | 5.73 | 2650 | 8260 (2013) | 69 (2006) | 2160 | 76 | 93 | 173 | 218 | 1350 | 3810 | 4080 | 7050 | 7770 |
| 2026-04-28 11:30 | 5.78 | 2700 | 8260 (2013) | 69 (2006) | 2160 | 76 | 93 | 173 | 218 | 1350 | 3810 | 4080 | 7050 | 7770 |
| 2026-04-28 11:00 | 5.81 | 2730 | 8260 (2013) | 69 (2006) | 2160 | 76 | 93 | 173 | 218 | 1350 | 3810 | 4080 | 7050 | 7770 |
| 2026-04-28 10:30 | 5.86 | 2780 | 8260 (2013) | 69 (2006) | 2160 | 76 | 93 | 173 | 218 | 1350 | 3810 | 4080 | 7050 | 7770 |
| 2026-04-28 10:00 | 5.91 | 2830 | 8260 (2013) | 69 (2006) | 2160 | 76 | 93 | 173 | 218 | 1350 | 3810 | 4080 | 7050 | 7770 |
| 2026-04-28 09:30 | 5.97 | 2890 | 8260 (2013) | 69 (2006) | 2160 | 76 | 93 | 173 | 218 | 1350 | 3810 | 4080 | 7050 | 7770 |
| 2026-04-28 09:00 | 6.03 | 2960 | 8260 (2013) | 69 (2006) | 2160 | 76 | 93 | 173 | 218 | 1350 | 3810 | 4080 | 7050 | 7770 |
| 2026-04-28 08:30 | 6.09 | 3020 | 8260 (2013) | 69 (2006) | 2160 | 76 | 93 | 173 | 218 | 1350 | 3810 | 4080 | 7050 | 7770 |
| 2026-04-28 08:00 | 6.17 | 3100 | 8260 (2013) | 69 (2006) | 2160 | 76 | 93 | 173 | 218 | 1350 | 3810 | 4080 | 7050 | 7770 |
| 2026-04-28 07:30 | 6.23 | 3170 | 8260 (2013) | 69 (2006) | 2160 | 76 | 93 | 173 | 218 | 1350 | 3810 | 4080 | 7050 | 7770 |
| 2026-04-28 07:00 | 6.31 | 3250 | 8260 (2013) | 69 (2006) | 2160 | 76 | 93 | 173 | 218 | 1350 | 3810 | 4080 | 7050 | 7770 |
| 2026-04-28 06:30 | 6.42 | 3380 | 8260 (2013) | 69 (2006) | 2160 | 76 | 93 | 173 | 218 | 1350 | 3810 | 4080 | 7050 | 7770 |
| 2026-04-28 06:00 | 6.53 | 3500 | 8260 (2013) | 69 (2006) | 2160 | 76 | 93 | 173 | 218 | 1350 | 3810 | 4080 | 7050 | 7770 |
| 2026-04-28 05:30 | 6.63 | 3610 | 8260 (2013) | 69 (2006) | 2160 | 76 | 93 | 173 | 218 | 1350 | 3810 | 4080 | 7050 | 7770 |
| 2026-04-28 05:00 | 6.74 | 3740 | 8260 (2013) | 69 (2006) | 2160 | 76 | 93 | 173 | 218 | 1350 | 3810 | 4080 | 7050 | 7770 |
| 2026-04-28 04:30 | 6.83 | 3840 | 8260 (2013) | 69 (2006) | 2160 | 76 | 93 | 173 | 218 | 1350 | 3810 | 4080 | 7050 | 7770 |
| 2026-04-28 04:00 | 6.97 | 4010 | 8260 (2013) | 69 (2006) | 2160 | 76 | 93 | 173 | 218 | 1350 | 3810 | 4080 | 7050 | 7770 |
| 2026-04-28 03:30 | 7.10 | 4160 | 8260 (2013) | 69 (2006) | 2160 | 76 | 93 | 173 | 218 | 1350 | 3810 | 4080 | 7050 | 7770 |
| 2026-04-28 03:00 | 7.21 | 4300 | 8260 (2013) | 69 (2006) | 2160 | 76 | 93 | 173 | 218 | 1350 | 3810 | 4080 | 7050 | 7770 |
| 2026-04-28 02:30 | 7.33 | 4440 | 8260 (2013) | 69 (2006) | 2160 | 76 | 93 | 173 | 218 | 1350 | 3810 | 4080 | 7050 | 7770 |
| 2026-04-28 02:00 | 7.44 | 4560 | 8260 (2013) | 69 (2006) | 2160 | 76 | 93 | 173 | 218 | 1350 | 3810 | 4080 | 7050 | 7770 |
| 2026-04-28 01:30 | 7.56 | 4690 | 8260 (2013) | 69 (2006) | 2160 | 76 | 93 | 173 | 218 | 1350 | 3810 | 4080 | 7050 | 7770 |
| 2026-04-28 01:00 | 7.62 | 4760 | 8260 (2013) | 69 (2006) | 2160 | 76 | 93 | 173 | 218 | 1350 | 3810 | 4080 | 7050 | 7770 |
| 2026-04-28 00:30 | 7.70 | 4840 | 8260 (2013) | 69 (2006) | 2160 | 76 | 93 | 173 | 218 | 1350 | 3810 | 4080 | 7050 | 7770 |
| 2026-04-28 00:00 | 7.71 | 4860 | 8260 (2013) | 69 (2006) | 2160 | 76 | 93 | 173 | 218 | 1350 | 3810 | 4080 | 7050 | 7770 |
| 2026-04-27 23:30 | 7.65 | 4790 | 8260 (2013) | 69 (2006) | 2160 | 76 | 93 | 173 | 218 | 1350 | 3810 | 4080 | 7050 | 7770 |
| 2026-04-27 23:00 | 7.57 | 4700 | 8260 (2013) | 69 (2006) | 2160 | 76 | 93 | 173 | 218 | 1350 | 3810 | 4080 | 7050 | 7770 |
| 2026-04-27 22:00 | 7.22 | 4310 | 8770 (2009) | 70 (2006) | 2010 | 84 | 100 | 178 | 244 | 996 | 2560 | 4180 | 6310 | 7450 |
| 2026-04-27 21:30 | 7.02 | 4070 | 8770 (2009) | 70 (2006) | 2010 | 84 | 100 | 178 | 244 | 996 | 2560 | 4180 | 6310 | 7450 |
| 2026-04-27 21:00 | 6.80 | 3810 | 8770 (2009) | 70 (2006) | 2010 | 84 | 100 | 178 | 244 | 996 | 2560 | 4180 | 6310 | 7450 |
| 2026-04-27 20:30 | 6.65 | 3630 | 8770 (2009) | 70 (2006) | 2010 | 84 | 100 | 178 | 244 | 996 | 2560 | 4180 | 6310 | 7450 |
| 2026-04-27 20:00 | 6.56 | 3530 | 8770 (2009) | 70 (2006) | 2010 | 84 | 100 | 178 | 244 | 996 | 2560 | 4180 | 6310 | 7450 |
| 2026-04-27 19:30 | 6.52 | 3490 | 8770 (2009) | 70 (2006) | 2010 | 84 | 100 | 178 | 244 | 996 | 2560 | 4180 | 6310 | 7450 |
| 2026-04-27 19:00 | 6.53 | 3500 | 8770 (2009) | 70 (2006) | 2010 | 84 | 100 | 178 | 244 | 996 | 2560 | 4180 | 6310 | 7450 |
| 2026-04-27 18:30 | 6.53 | 3500 | 8770 (2009) | 70 (2006) | 2010 | 84 | 100 | 178 | 244 | 996 | 2560 | 4180 | 6310 | 7450 |
| 2026-04-27 18:00 | 6.54 | 3510 | 8770 (2009) | 70 (2006) | 2010 | 84 | 100 | 178 | 244 | 996 | 2560 | 4180 | 6310 | 7450 |
| 2026-04-27 17:30 | 6.53 | 3500 | 8770 (2009) | 70 (2006) | 2010 | 84 | 100 | 178 | 244 | 996 | 2560 | 4180 | 6310 | 7450 |
| 2026-04-27 17:00 | 6.52 | 3490 | 8770 (2009) | 70 (2006) | 2010 | 84 | 100 | 178 | 244 | 996 | 2560 | 4180 | 6310 | 7450 |
| 2026-04-27 16:30 | 6.52 | 3490 | 8770 (2009) | 70 (2006) | 2010 | 84 | 100 | 178 | 244 | 996 | 2560 | 4180 | 6310 | 7450 |
| 2026-04-27 16:00 | 6.50 | 3460 | 8770 (2009) | 70 (2006) | 2010 | 84 | 100 | 178 | 244 | 996 | 2560 | 4180 | 6310 | 7450 |
| 2026-04-27 15:30 | 6.44 | 3400 | 8770 (2009) | 70 (2006) | 2010 | 84 | 100 | 178 | 244 | 996 | 2560 | 4180 | 6310 | 7450 |
| 2026-04-27 15:00 | 6.39 | 3340 | 8770 (2009) | 70 (2006) | 2010 | 84 | 100 | 178 | 244 | 996 | 2560 | 4180 | 6310 | 7450 |
| 2026-04-27 14:30 | 6.32 | 3270 | 8770 (2009) | 70 (2006) | 2010 | 84 | 100 | 178 | 244 | 996 | 2560 | 4180 | 6310 | 7450 |
| 2026-04-27 14:00 | 6.22 | 3160 | 8770 (2009) | 70 (2006) | 2010 | 84 | 100 | 178 | 244 | 996 | 2560 | 4180 | 6310 | 7450 |
| 2026-04-27 13:30 | 6.12 | 3050 | 8770 (2009) | 70 (2006) | 2010 | 84 | 100 | 178 | 244 | 996 | 2560 | 4180 | 6310 | 7450 |
| 2026-04-27 13:00 | 6.00 | 2920 | 8770 (2009) | 70 (2006) | 2010 | 84 | 100 | 178 | 244 | 996 | 2560 | 4180 | 6310 | 7450 |
| 2026-04-27 12:30 | 5.88 | 2800 | 8770 (2009) | 70 (2006) | 2010 | 84 | 100 | 178 | 244 | 996 | 2560 | 4180 | 6310 | 7450 |
| 2026-04-27 12:00 | 5.74 | 2660 | 8770 (2009) | 70 (2006) | 2010 | 84 | 100 | 178 | 244 | 996 | 2560 | 4180 | 6310 | 7450 |
| 2026-04-27 11:30 | 5.56 | 2480 | 8770 (2009) | 70 (2006) | 2010 | 84 | 100 | 178 | 244 | 996 | 2560 | 4180 | 6310 | 7450 |
| 2026-04-27 11:00 | 5.44 | 2370 | 8770 (2009) | 70 (2006) | 2010 | 84 | 100 | 178 | 244 | 996 | 2560 | 4180 | 6310 | 7450 |
| 2026-04-27 10:30 | 5.35 | 2280 | 8770 (2009) | 70 (2006) | 2010 | 84 | 100 | 178 | 244 | 996 | 2560 | 4180 | 6310 | 7450 |
| 2026-04-27 10:00 | 5.30 | 2240 | 8770 (2009) | 70 (2006) | 2010 | 84 | 100 | 178 | 244 | 996 | 2560 | 4180 | 6310 | 7450 |
| 2026-04-27 09:30 | 5.28 | 2220 | 8770 (2009) | 70 (2006) | 2010 | 84 | 100 | 178 | 244 | 996 | 2560 | 4180 | 6310 | 7450 |
| 2026-04-27 09:00 | 5.27 | 2210 | 8770 (2009) | 70 (2006) | 2010 | 84 | 100 | 178 | 244 | 996 | 2560 | 4180 | 6310 | 7450 |
| 2026-04-27 08:30 | 5.21 | 2150 | 8770 (2009) | 70 (2006) | 2010 | 84 | 100 | 178 | 244 | 996 | 2560 | 4180 | 6310 | 7450 |
| 2026-04-27 08:00 | 5.22 | 2160 | 8770 (2009) | 70 (2006) | 2010 | 84 | 100 | 178 | 244 | 996 | 2560 | 4180 | 6310 | 7450 |
| 2026-04-27 07:30 | 5.24 | 2180 | 8770 (2009) | 70 (2006) | 2010 | 84 | 100 | 178 | 244 | 996 | 2560 | 4180 | 6310 | 7450 |
| 2026-04-27 07:00 | 5.24 | 2180 | 8770 (2009) | 70 (2006) | 2010 | 84 | 100 | 178 | 244 | 996 | 2560 | 4180 | 6310 | 7450 |
| 2026-04-27 06:30 | 5.22 | 2160 | 8770 (2009) | 70 (2006) | 2010 | 84 | 100 | 178 | 244 | 996 | 2560 | 4180 | 6310 | 7450 |
| 2026-04-27 06:00 | 5.22 | 2160 | 8770 (2009) | 70 (2006) | 2010 | 84 | 100 | 178 | 244 | 996 | 2560 | 4180 | 6310 | 7450 |
| 2026-04-27 05:30 | 5.22 | 2160 | 8770 (2009) | 70 (2006) | 2010 | 84 | 100 | 178 | 244 | 996 | 2560 | 4180 | 6310 | 7450 |
| 2026-04-27 05:00 | 5.22 | 2160 | 8770 (2009) | 70 (2006) | 2010 | 84 | 100 | 178 | 244 | 996 | 2560 | 4180 | 6310 | 7450 |
| 2026-04-27 04:30 | 5.21 | 2150 | 8770 (2009) | 70 (2006) | 2010 | 84 | 100 | 178 | 244 | 996 | 2560 | 4180 | 6310 | 7450 |
| 2026-04-27 04:00 | 5.22 | 2160 | 8770 (2009) | 70 (2006) | 2010 | 84 | 100 | 178 | 244 | 996 | 2560 | 4180 | 6310 | 7450 |
| 2026-04-27 03:30 | 5.21 | 2150 | 8770 (2009) | 70 (2006) | 2010 | 84 | 100 | 178 | 244 | 996 | 2560 | 4180 | 6310 | 7450 |
| 2026-04-27 03:00 | 5.19 | 2140 | 8770 (2009) | 70 (2006) | 2010 | 84 | 100 | 178 | 244 | 996 | 2560 | 4180 | 6310 | 7450 |
| 2026-04-27 02:30 | 5.19 | 2140 | 8770 (2009) | 70 (2006) | 2010 | 84 | 100 | 178 | 244 | 996 | 2560 | 4180 | 6310 | 7450 |
| 2026-04-27 02:00 | 5.19 | 2140 | 8770 (2009) | 70 (2006) | 2010 | 84 | 100 | 178 | 244 | 996 | 2560 | 4180 | 6310 | 7450 |
| 2026-04-27 01:30 | 5.16 | 2100 | 8770 (2009) | 70 (2006) | 2010 | 84 | 100 | 178 | 244 | 996 | 2560 | 4180 | 6310 | 7450 |
| 2026-04-27 01:00 | 5.14 | 2080 | 8770 (2009) | 70 (2006) | 2010 | 84 | 100 | 178 | 244 | 996 | 2560 | 4180 | 6310 | 7450 |
| 2026-04-27 00:30 | 5.14 | 2080 | 8770 (2009) | 70 (2006) | 2010 | 84 | 100 | 178 | 244 | 996 | 2560 | 4180 | 6310 | 7450 |
| 2026-04-27 00:00 | 5.13 | 2070 | 8770 (2009) | 70 (2006) | 2010 | 84 | 100 | 178 | 244 | 996 | 2560 | 4180 | 6310 | 7450 |
| 2026-04-26 23:30 | 5.12 | 2060 | 8770 (2009) | 70 (2006) | 2010 | 84 | 100 | 178 | 244 | 996 | 2560 | 4180 | 6310 | 7450 |
| 2026-04-26 23:00 | 5.11 | 2050 | 8770 (2009) | 70 (2006) | 2010 | 84 | 100 | 178 | 244 | 996 | 2560 | 4180 | 6310 | 7450 |
| 2026-04-26 22:30 | 5.10 | 2040 | 8470 (2021) | 58 (1989) | 2080 | 64 | 111 | 162 | 286 | 1270 | 2800 | 4210 | 6890 | 7620 |
| 2026-04-26 22:00 | 5.11 | 2050 | 8470 (2021) | 58 (1989) | 2080 | 64 | 111 | 162 | 286 | 1270 | 2800 | 4210 | 6890 | 7620 |
| 2026-04-26 21:30 | 5.11 | 2050 | 8470 (2021) | 58 (1989) | 2080 | 64 | 111 | 162 | 286 | 1270 | 2800 | 4210 | 6890 | 7620 |
| 2026-04-26 21:00 | 5.12 | 2060 | 8470 (2021) | 58 (1989) | 2080 | 64 | 111 | 162 | 286 | 1270 | 2800 | 4210 | 6890 | 7620 |
| 2026-04-26 20:30 | 5.13 | 2070 | 8470 (2021) | 58 (1989) | 2080 | 64 | 111 | 162 | 286 | 1270 | 2800 | 4210 | 6890 | 7620 |
| 2026-04-26 20:00 | 5.16 | 2100 | 8470 (2021) | 58 (1989) | 2080 | 64 | 111 | 162 | 286 | 1270 | 2800 | 4210 | 6890 | 7620 |
| 2026-04-26 19:30 | 5.19 | 2140 | 8470 (2021) | 58 (1989) | 2080 | 64 | 111 | 162 | 286 | 1270 | 2800 | 4210 | 6890 | 7620 |
| 2026-04-26 19:00 | 5.22 | 2160 | 8470 (2021) | 58 (1989) | 2080 | 64 | 111 | 162 | 286 | 1270 | 2800 | 4210 | 6890 | 7620 |
| 2026-04-26 18:30 | 5.26 | 2200 | 8470 (2021) | 58 (1989) | 2080 | 64 | 111 | 162 | 286 | 1270 | 2800 | 4210 | 6890 | 7620 |
| 2026-04-26 18:00 | 5.30 | 2240 | 8470 (2021) | 58 (1989) | 2080 | 64 | 111 | 162 | 286 | 1270 | 2800 | 4210 | 6890 | 7620 |
| 2026-04-26 17:30 | 5.33 | 2260 | 8470 (2021) | 58 (1989) | 2080 | 64 | 111 | 162 | 286 | 1270 | 2800 | 4210 | 6890 | 7620 |
| 2026-04-26 17:00 | 5.36 | 2290 | 8470 (2021) | 58 (1989) | 2080 | 64 | 111 | 162 | 286 | 1270 | 2800 | 4210 | 6890 | 7620 |
| 2026-04-26 16:30 | 5.38 | 2310 | 8470 (2021) | 58 (1989) | 2080 | 64 | 111 | 162 | 286 | 1270 | 2800 | 4210 | 6890 | 7620 |
| 2026-04-26 16:00 | 5.39 | 2320 | 8470 (2021) | 58 (1989) | 2080 | 64 | 111 | 162 | 286 | 1270 | 2800 | 4210 | 6890 | 7620 |
| 2026-04-26 15:30 | 5.39 | 2320 | 8470 (2021) | 58 (1989) | 2080 | 64 | 111 | 162 | 286 | 1270 | 2800 | 4210 | 6890 | 7620 |
| 2026-04-26 15:00 | 5.37 | 2300 | 8470 (2021) | 58 (1989) | 2080 | 64 | 111 | 162 | 286 | 1270 | 2800 | 4210 | 6890 | 7620 |
| 2026-04-26 14:30 | 5.34 | 2270 | 8470 (2021) | 58 (1989) | 2080 | 64 | 111 | 162 | 286 | 1270 | 2800 | 4210 | 6890 | 7620 |
| 2026-04-26 14:00 | 5.33 | 2260 | 8470 (2021) | 58 (1989) | 2080 | 64 | 111 | 162 | 286 | 1270 | 2800 | 4210 | 6890 | 7620 |
| 2026-04-26 13:30 | 5.29 | 2230 | 8470 (2021) | 58 (1989) | 2080 | 64 | 111 | 162 | 286 | 1270 | 2800 | 4210 | 6890 | 7620 |
| 2026-04-26 13:00 | 5.25 | 2190 | 8470 (2021) | 58 (1989) | 2080 | 64 | 111 | 162 | 286 | 1270 | 2800 | 4210 | 6890 | 7620 |
| 2026-04-26 12:30 | 5.24 | 2180 | 8470 (2021) | 58 (1989) | 2080 | 64 | 111 | 162 | 286 | 1270 | 2800 | 4210 | 6890 | 7620 |
| 2026-04-26 12:00 | 5.21 | 2150 | 8470 (2021) | 58 (1989) | 2080 | 64 | 111 | 162 | 286 | 1270 | 2800 | 4210 | 6890 | 7620 |
| 2026-04-26 11:30 | 5.20 | 2150 | 8470 (2021) | 58 (1989) | 2080 | 64 | 111 | 162 | 286 | 1270 | 2800 | 4210 | 6890 | 7620 |
| 2026-04-26 11:00 | 5.19 | 2140 | 8470 (2021) | 58 (1989) | 2080 | 64 | 111 | 162 | 286 | 1270 | 2800 | 4210 | 6890 | 7620 |
| 2026-04-26 10:30 | 5.22 | 2160 | 8470 (2021) | 58 (1989) | 2080 | 64 | 111 | 162 | 286 | 1270 | 2800 | 4210 | 6890 | 7620 |
| 2026-04-26 10:00 | 5.23 | 2170 | 8470 (2021) | 58 (1989) | 2080 | 64 | 111 | 162 | 286 | 1270 | 2800 | 4210 | 6890 | 7620 |
| 2026-04-26 09:30 | 5.25 | 2190 | 8470 (2021) | 58 (1989) | 2080 | 64 | 111 | 162 | 286 | 1270 | 2800 | 4210 | 6890 | 7620 |
| 2026-04-26 09:00 | 5.27 | 2210 | 8470 (2021) | 58 (1989) | 2080 | 64 | 111 | 162 | 286 | 1270 | 2800 | 4210 | 6890 | 7620 |
| 2026-04-26 08:30 | 5.30 | 2240 | 8470 (2021) | 58 (1989) | 2080 | 64 | 111 | 162 | 286 | 1270 | 2800 | 4210 | 6890 | 7620 |
| 2026-04-26 08:00 | 5.33 | 2260 | 8470 (2021) | 58 (1989) | 2080 | 64 | 111 | 162 | 286 | 1270 | 2800 | 4210 | 6890 | 7620 |
| 2026-04-26 07:30 | 5.38 | 2310 | 8470 (2021) | 58 (1989) | 2080 | 64 | 111 | 162 | 286 | 1270 | 2800 | 4210 | 6890 | 7620 |
| 2026-04-26 07:00 | 5.43 | 2360 | 8470 (2021) | 58 (1989) | 2080 | 64 | 111 | 162 | 286 | 1270 | 2800 | 4210 | 6890 | 7620 |
| 2026-04-26 06:30 | 5.50 | 2430 | 8470 (2021) | 58 (1989) | 2080 | 64 | 111 | 162 | 286 | 1270 | 2800 | 4210 | 6890 | 7620 |
| 2026-04-26 06:00 | 5.58 | 2500 | 8470 (2021) | 58 (1989) | 2080 | 64 | 111 | 162 | 286 | 1270 | 2800 | 4210 | 6890 | 7620 |
| 2026-04-26 05:30 | 5.67 | 2590 | 8470 (2021) | 58 (1989) | 2080 | 64 | 111 | 162 | 286 | 1270 | 2800 | 4210 | 6890 | 7620 |
| 2026-04-26 05:00 | 5.79 | 2710 | 8470 (2021) | 58 (1989) | 2080 | 64 | 111 | 162 | 286 | 1270 | 2800 | 4210 | 6890 | 7620 |
| 2026-04-26 04:30 | 5.92 | 2840 | 8470 (2021) | 58 (1989) | 2080 | 64 | 111 | 162 | 286 | 1270 | 2800 | 4210 | 6890 | 7620 |
| 2026-04-26 04:00 | 6.07 | 3000 | 8470 (2021) | 58 (1989) | 2080 | 64 | 111 | 162 | 286 | 1270 | 2800 | 4210 | 6890 | 7620 |
| 2026-04-26 03:30 | 6.24 | 3180 | 8470 (2021) | 58 (1989) | 2080 | 64 | 111 | 162 | 286 | 1270 | 2800 | 4210 | 6890 | 7620 |
| 2026-04-26 03:00 | 6.43 | 3390 | 8470 (2021) | 58 (1989) | 2080 | 64 | 111 | 162 | 286 | 1270 | 2800 | 4210 | 6890 | 7620 |
| 2026-04-26 02:30 | 6.63 | 3610 | 8470 (2021) | 58 (1989) | 2080 | 64 | 111 | 162 | 286 | 1270 | 2800 | 4210 | 6890 | 7620 |
| 2026-04-26 02:00 | 6.82 | 3830 | 8470 (2021) | 58 (1989) | 2080 | 64 | 111 | 162 | 286 | 1270 | 2800 | 4210 | 6890 | 7620 |
| 2026-04-26 01:30 | 7.06 | 4120 | 8470 (2021) | 58 (1989) | 2080 | 64 | 111 | 162 | 286 | 1270 | 2800 | 4210 | 6890 | 7620 |
| 2026-04-26 01:00 | 7.23 | 4320 | 8470 (2021) | 58 (1989) | 2080 | 64 | 111 | 162 | 286 | 1270 | 2800 | 4210 | 6890 | 7620 |
| 2026-04-26 00:30 | 7.41 | 4520 | 8470 (2021) | 58 (1989) | 2080 | 64 | 111 | 162 | 286 | 1270 | 2800 | 4210 | 6890 | 7620 |
| 2026-04-26 00:00 | 7.57 | 4700 | 8470 (2021) | 58 (1989) | 2080 | 64 | 111 | 162 | 286 | 1270 | 2800 | 4210 | 6890 | 7620 |
| 2026-04-25 23:30 | 7.66 | 4800 | 8470 (2021) | 58 (1989) | 2080 | 64 | 111 | 162 | 286 | 1270 | 2800 | 4210 | 6890 | 7620 |
| 2026-04-25 23:00 | 7.75 | 4900 | 8470 (2021) | 58 (1989) | 2080 | 64 | 111 | 162 | 286 | 1270 | 2800 | 4210 | 6890 | 7620 |
| 2026-04-25 22:30 | 7.74 | 4890 | 13100 (2010) | 52 (1989) | 2590 | 73 | 107 | 261 | 470 | 1930 | 3170 | 3470 | 7470 | 8910 |
| 2026-04-25 22:00 | 7.75 | 4900 | 13100 (2010) | 52 (1989) | 2590 | 73 | 107 | 261 | 470 | 1930 | 3170 | 3470 | 7470 | 8910 |
| 2026-04-25 21:30 | 7.75 | 4900 | 13100 (2010) | 52 (1989) | 2590 | 73 | 107 | 261 | 470 | 1930 | 3170 | 3470 | 7470 | 8910 |
| 2026-04-25 21:00 | 7.74 | 4890 | 13100 (2010) | 52 (1989) | 2590 | 73 | 107 | 261 | 470 | 1930 | 3170 | 3470 | 7470 | 8910 |
| 2026-04-25 20:30 | 7.73 | 4880 | 13100 (2010) | 52 (1989) | 2590 | 73 | 107 | 261 | 470 | 1930 | 3170 | 3470 | 7470 | 8910 |
| 2026-04-25 20:00 | 7.71 | 4860 | 13100 (2010) | 52 (1989) | 2590 | 73 | 107 | 261 | 470 | 1930 | 3170 | 3470 | 7470 | 8910 |
| 2026-04-25 19:30 | 7.76 | 4910 | 13100 (2010) | 52 (1989) | 2590 | 73 | 107 | 261 | 470 | 1930 | 3170 | 3470 | 7470 | 8910 |
| 2026-04-25 19:00 | 7.73 | 4880 | 13100 (2010) | 52 (1989) | 2590 | 73 | 107 | 261 | 470 | 1930 | 3170 | 3470 | 7470 | 8910 |
| 2026-04-25 18:30 | 7.75 | 4900 | 13100 (2010) | 52 (1989) | 2590 | 73 | 107 | 261 | 470 | 1930 | 3170 | 3470 | 7470 | 8910 |
| 2026-04-25 18:00 | 7.75 | 4900 | 13100 (2010) | 52 (1989) | 2590 | 73 | 107 | 261 | 470 | 1930 | 3170 | 3470 | 7470 | 8910 |
| 2026-04-25 17:30 | 7.76 | 4910 | 13100 (2010) | 52 (1989) | 2590 | 73 | 107 | 261 | 470 | 1930 | 3170 | 3470 | 7470 | 8910 |
| 2026-04-25 17:00 | 7.74 | 4890 | 13100 (2010) | 52 (1989) | 2590 | 73 | 107 | 261 | 470 | 1930 | 3170 | 3470 | 7470 | 8910 |
| 2026-04-25 16:30 | 7.72 | 4870 | 13100 (2010) | 52 (1989) | 2590 | 73 | 107 | 261 | 470 | 1930 | 3170 | 3470 | 7470 | 8910 |
| 2026-04-25 16:00 | 7.73 | 4880 | 13100 (2010) | 52 (1989) | 2590 | 73 | 107 | 261 | 470 | 1930 | 3170 | 3470 | 7470 | 8910 |
| 2026-04-25 15:30 | 7.71 | 4860 | 13100 (2010) | 52 (1989) | 2590 | 73 | 107 | 261 | 470 | 1930 | 3170 | 3470 | 7470 | 8910 |
| 2026-04-25 15:00 | 7.72 | 4870 | 13100 (2010) | 52 (1989) | 2590 | 73 | 107 | 261 | 470 | 1930 | 3170 | 3470 | 7470 | 8910 |
| 2026-04-25 14:30 | 7.72 | 4870 | 13100 (2010) | 52 (1989) | 2590 | 73 | 107 | 261 | 470 | 1930 | 3170 | 3470 | 7470 | 8910 |
| 2026-04-25 14:00 | 7.74 | 4890 | 13100 (2010) | 52 (1989) | 2590 | 73 | 107 | 261 | 470 | 1930 | 3170 | 3470 | 7470 | 8910 |
| 2026-04-25 13:30 | 7.73 | 4880 | 13100 (2010) | 52 (1989) | 2590 | 73 | 107 | 261 | 470 | 1930 | 3170 | 3470 | 7470 | 8910 |
| 2026-04-25 13:00 | 7.70 | 4840 | 13100 (2010) | 52 (1989) | 2590 | 73 | 107 | 261 | 470 | 1930 | 3170 | 3470 | 7470 | 8910 |
| 2026-04-25 12:30 | 7.74 | 4890 | 13100 (2010) | 52 (1989) | 2590 | 73 | 107 | 261 | 470 | 1930 | 3170 | 3470 | 7470 | 8910 |
| 2026-04-25 12:00 | 7.74 | 4890 | 13100 (2010) | 52 (1989) | 2590 | 73 | 107 | 261 | 470 | 1930 | 3170 | 3470 | 7470 | 8910 |
| 2026-04-25 11:30 | 7.74 | 4890 | 13100 (2010) | 52 (1989) | 2590 | 73 | 107 | 261 | 470 | 1930 | 3170 | 3470 | 7470 | 8910 |
| 2026-04-25 11:00 | 7.75 | 4900 | 13100 (2010) | 52 (1989) | 2590 | 73 | 107 | 261 | 470 | 1930 | 3170 | 3470 | 7470 | 8910 |
| 2026-04-25 10:30 | 7.74 | 4890 | 13100 (2010) | 52 (1989) | 2590 | 73 | 107 | 261 | 470 | 1930 | 3170 | 3470 | 7470 | 8910 |
| 2026-04-25 10:00 | 7.74 | 4890 | 13100 (2010) | 52 (1989) | 2590 | 73 | 107 | 261 | 470 | 1930 | 3170 | 3470 | 7470 | 8910 |
| 2026-04-25 09:30 | 7.73 | 4880 | 13100 (2010) | 52 (1989) | 2590 | 73 | 107 | 261 | 470 | 1930 | 3170 | 3470 | 7470 | 8910 |
| 2026-04-25 09:00 | 7.73 | 4880 | 13100 (2010) | 52 (1989) | 2590 | 73 | 107 | 261 | 470 | 1930 | 3170 | 3470 | 7470 | 8910 |
| 2026-04-25 08:30 | 7.74 | 4890 | 13100 (2010) | 52 (1989) | 2590 | 73 | 107 | 261 | 470 | 1930 | 3170 | 3470 | 7470 | 8910 |
| 2026-04-25 08:00 | 7.73 | 4880 | 13100 (2010) | 52 (1989) | 2590 | 73 | 107 | 261 | 470 | 1930 | 3170 | 3470 | 7470 | 8910 |
| 2026-04-25 07:30 | 7.75 | 4900 | 13100 (2010) | 52 (1989) | 2590 | 73 | 107 | 261 | 470 | 1930 | 3170 | 3470 | 7470 | 8910 |
| 2026-04-25 07:00 | 7.74 | 4890 | 13100 (2010) | 52 (1989) | 2590 | 73 | 107 | 261 | 470 | 1930 | 3170 | 3470 | 7470 | 8910 |
| 2026-04-25 06:30 | 7.75 | 4900 | 13100 (2010) | 52 (1989) | 2590 | 73 | 107 | 261 | 470 | 1930 | 3170 | 3470 | 7470 | 8910 |
| 2026-04-25 06:00 | 7.72 | 4870 | 13100 (2010) | 52 (1989) | 2590 | 73 | 107 | 261 | 470 | 1930 | 3170 | 3470 | 7470 | 8910 |
| 2026-04-25 05:30 | 7.71 | 4860 | 13100 (2010) | 52 (1989) | 2590 | 73 | 107 | 261 | 470 | 1930 | 3170 | 3470 | 7470 | 8910 |
| 2026-04-25 05:00 | 7.71 | 4860 | 13100 (2010) | 52 (1989) | 2590 | 73 | 107 | 261 | 470 | 1930 | 3170 | 3470 | 7470 | 8910 |
| 2026-04-25 04:30 | 7.72 | 4870 | 13100 (2010) | 52 (1989) | 2590 | 73 | 107 | 261 | 470 | 1930 | 3170 | 3470 | 7470 | 8910 |
| 2026-04-25 04:00 | 7.72 | 4870 | 13100 (2010) | 52 (1989) | 2590 | 73 | 107 | 261 | 470 | 1930 | 3170 | 3470 | 7470 | 8910 |
| 2026-04-25 03:30 | 7.73 | 4880 | 13100 (2010) | 52 (1989) | 2590 | 73 | 107 | 261 | 470 | 1930 | 3170 | 3470 | 7470 | 8910 |
| 2026-04-25 03:00 | 7.75 | 4900 | 13100 (2010) | 52 (1989) | 2590 | 73 | 107 | 261 | 470 | 1930 | 3170 | 3470 | 7470 | 8910 |
| 2026-04-25 02:30 | 7.72 | 4870 | 13100 (2010) | 52 (1989) | 2590 | 73 | 107 | 261 | 470 | 1930 | 3170 | 3470 | 7470 | 8910 |
| 2026-04-25 02:00 | 7.71 | 4860 | 13100 (2010) | 52 (1989) | 2590 | 73 | 107 | 261 | 470 | 1930 | 3170 | 3470 | 7470 | 8910 |
| 2026-04-25 01:30 | 7.74 | 4890 | 13100 (2010) | 52 (1989) | 2590 | 73 | 107 | 261 | 470 | 1930 | 3170 | 3470 | 7470 | 8910 |
| 2026-04-25 01:00 | 7.71 | 4860 | 13100 (2010) | 52 (1989) | 2590 | 73 | 107 | 261 | 470 | 1930 | 3170 | 3470 | 7470 | 8910 |
| 2026-04-25 00:30 | 7.74 | 4890 | 13100 (2010) | 52 (1989) | 2590 | 73 | 107 | 261 | 470 | 1930 | 3170 | 3470 | 7470 | 8910 |
| 2026-04-25 00:00 | 7.72 | 4870 | 13100 (2010) | 52 (1989) | 2590 | 73 | 107 | 261 | 470 | 1930 | 3170 | 3470 | 7470 | 8910 |
| 2026-04-24 23:30 | 7.72 | 4870 | 13100 (2010) | 52 (1989) | 2590 | 73 | 107 | 261 | 470 | 1930 | 3170 | 3470 | 7470 | 8910 |
| 2026-04-24 23:00 | 7.71 | 4860 | 13100 (2010) | 52 (1989) | 2590 | 73 | 107 | 261 | 470 | 1930 | 3170 | 3470 | 7470 | 8910 |
| 2026-04-24 22:30 | 7.72 | 4870 | 8980 (1994) | 64 (1989) | 2200 | 77 | 87 | 170 | 394 | 1720 | 2810 | 3520 | 6130 | 8810 |
| 2026-04-24 22:00 | 7.71 | 4860 | 8980 (1994) | 64 (1989) | 2200 | 77 | 87 | 170 | 394 | 1720 | 2810 | 3520 | 6130 | 8810 |
| 2026-04-24 21:30 | 7.72 | 4870 | 8980 (1994) | 64 (1989) | 2200 | 77 | 87 | 170 | 394 | 1720 | 2810 | 3520 | 6130 | 8810 |
| 2026-04-24 21:00 | 7.71 | 4860 | 8980 (1994) | 64 (1989) | 2200 | 77 | 87 | 170 | 394 | 1720 | 2810 | 3520 | 6130 | 8810 |
| 2026-04-24 20:30 | 7.72 | 4870 | 8980 (1994) | 64 (1989) | 2200 | 77 | 87 | 170 | 394 | 1720 | 2810 | 3520 | 6130 | 8810 |
| 2026-04-24 20:00 | 7.70 | 4840 | 8980 (1994) | 64 (1989) | 2200 | 77 | 87 | 170 | 394 | 1720 | 2810 | 3520 | 6130 | 8810 |
| 2026-04-24 19:30 | 7.72 | 4870 | 8980 (1994) | 64 (1989) | 2200 | 77 | 87 | 170 | 394 | 1720 | 2810 | 3520 | 6130 | 8810 |
| 2026-04-24 19:00 | 7.73 | 4880 | 8980 (1994) | 64 (1989) | 2200 | 77 | 87 | 170 | 394 | 1720 | 2810 | 3520 | 6130 | 8810 |
| 2026-04-24 18:30 | 7.72 | 4870 | 8980 (1994) | 64 (1989) | 2200 | 77 | 87 | 170 | 394 | 1720 | 2810 | 3520 | 6130 | 8810 |
| 2026-04-24 18:00 | 7.71 | 4860 | 8980 (1994) | 64 (1989) | 2200 | 77 | 87 | 170 | 394 | 1720 | 2810 | 3520 | 6130 | 8810 |
| 2026-04-24 17:30 | 7.74 | 4890 | 8980 (1994) | 64 (1989) | 2200 | 77 | 87 | 170 | 394 | 1720 | 2810 | 3520 | 6130 | 8810 |
| 2026-04-24 17:00 | 7.72 | 4870 | 8980 (1994) | 64 (1989) | 2200 | 77 | 87 | 170 | 394 | 1720 | 2810 | 3520 | 6130 | 8810 |
| 2026-04-24 16:30 | 7.70 | 4840 | 8980 (1994) | 64 (1989) | 2200 | 77 | 87 | 170 | 394 | 1720 | 2810 | 3520 | 6130 | 8810 |
| 2026-04-24 16:00 | 7.71 | 4860 | 8980 (1994) | 64 (1989) | 2200 | 77 | 87 | 170 | 394 | 1720 | 2810 | 3520 | 6130 | 8810 |
| 2026-04-24 15:30 | 7.70 | 4840 | 8980 (1994) | 64 (1989) | 2200 | 77 | 87 | 170 | 394 | 1720 | 2810 | 3520 | 6130 | 8810 |
| 2026-04-24 15:00 | 7.73 | 4880 | 8980 (1994) | 64 (1989) | 2200 | 77 | 87 | 170 | 394 | 1720 | 2810 | 3520 | 6130 | 8810 |
| 2026-04-24 14:30 | 7.72 | 4870 | 8980 (1994) | 64 (1989) | 2200 | 77 | 87 | 170 | 394 | 1720 | 2810 | 3520 | 6130 | 8810 |
| 2026-04-24 14:00 | 7.74 | 4890 | 8980 (1994) | 64 (1989) | 2200 | 77 | 87 | 170 | 394 | 1720 | 2810 | 3520 | 6130 | 8810 |
| 2026-04-24 13:30 | 7.73 | 4880 | 8980 (1994) | 64 (1989) | 2200 | 77 | 87 | 170 | 394 | 1720 | 2810 | 3520 | 6130 | 8810 |
| 2026-04-24 13:00 | 7.72 | 4870 | 8980 (1994) | 64 (1989) | 2200 | 77 | 87 | 170 | 394 | 1720 | 2810 | 3520 | 6130 | 8810 |
| 2026-04-24 12:30 | 7.75 | 4900 | 8980 (1994) | 64 (1989) | 2200 | 77 | 87 | 170 | 394 | 1720 | 2810 | 3520 | 6130 | 8810 |
| 2026-04-24 12:00 | 7.75 | 4900 | 8980 (1994) | 64 (1989) | 2200 | 77 | 87 | 170 | 394 | 1720 | 2810 | 3520 | 6130 | 8810 |
| 2026-04-24 11:30 | 7.76 | 4910 | 8980 (1994) | 64 (1989) | 2200 | 77 | 87 | 170 | 394 | 1720 | 2810 | 3520 | 6130 | 8810 |
| 2026-04-24 11:00 | 7.72 | 4870 | 8980 (1994) | 64 (1989) | 2200 | 77 | 87 | 170 | 394 | 1720 | 2810 | 3520 | 6130 | 8810 |
| 2026-04-24 10:30 | 7.77 | 4920 | 8980 (1994) | 64 (1989) | 2200 | 77 | 87 | 170 | 394 | 1720 | 2810 | 3520 | 6130 | 8810 |
| 2026-04-24 10:00 | 7.77 | 4920 | 8980 (1994) | 64 (1989) | 2200 | 77 | 87 | 170 | 394 | 1720 | 2810 | 3520 | 6130 | 8810 |
| 2026-04-24 09:30 | 7.78 | 4930 | 8980 (1994) | 64 (1989) | 2200 | 77 | 87 | 170 | 394 | 1720 | 2810 | 3520 | 6130 | 8810 |
| 2026-04-24 09:00 | 7.87 | 5040 | 8980 (1994) | 64 (1989) | 2200 | 77 | 87 | 170 | 394 | 1720 | 2810 | 3520 | 6130 | 8810 |
| 2026-04-24 08:30 | 7.88 | 5050 | 8980 (1994) | 64 (1989) | 2200 | 77 | 87 | 170 | 394 | 1720 | 2810 | 3520 | 6130 | 8810 |
| 2026-04-24 08:00 | 7.91 | 5080 | 8980 (1994) | 64 (1989) | 2200 | 77 | 87 | 170 | 394 | 1720 | 2810 | 3520 | 6130 | 8810 |
| 2026-04-24 07:30 | 7.92 | 5090 | 8980 (1994) | 64 (1989) | 2200 | 77 | 87 | 170 | 394 | 1720 | 2810 | 3520 | 6130 | 8810 |
| 2026-04-24 07:00 | 7.93 | 5100 | 8980 (1994) | 64 (1989) | 2200 | 77 | 87 | 170 | 394 | 1720 | 2810 | 3520 | 6130 | 8810 |
| 2026-04-24 06:30 | 7.96 | 5140 | 8980 (1994) | 64 (1989) | 2200 | 77 | 87 | 170 | 394 | 1720 | 2810 | 3520 | 6130 | 8810 |
| 2026-04-24 06:00 | 7.98 | 5160 | 8980 (1994) | 64 (1989) | 2200 | 77 | 87 | 170 | 394 | 1720 | 2810 | 3520 | 6130 | 8810 |
| 2026-04-24 05:30 | 7.99 | 5170 | 8980 (1994) | 64 (1989) | 2200 | 77 | 87 | 170 | 394 | 1720 | 2810 | 3520 | 6130 | 8810 |
| 2026-04-24 05:00 | 8.02 | 5210 | 8980 (1994) | 64 (1989) | 2200 | 77 | 87 | 170 | 394 | 1720 | 2810 | 3520 | 6130 | 8810 |
| 2026-04-24 04:30 | 8.01 | 5190 | 8980 (1994) | 64 (1989) | 2200 | 77 | 87 | 170 | 394 | 1720 | 2810 | 3520 | 6130 | 8810 |
| 2026-04-24 04:00 | 8.01 | 5190 | 8980 (1994) | 64 (1989) | 2200 | 77 | 87 | 170 | 394 | 1720 | 2810 | 3520 | 6130 | 8810 |
| 2026-04-24 03:30 | 8.03 | 5220 | 8980 (1994) | 64 (1989) | 2200 | 77 | 87 | 170 | 394 | 1720 | 2810 | 3520 | 6130 | 8810 |
| 2026-04-24 03:00 | 8.03 | 5220 | 8980 (1994) | 64 (1989) | 2200 | 77 | 87 | 170 | 394 | 1720 | 2810 | 3520 | 6130 | 8810 |
| 2026-04-24 02:30 | 8.04 | 5230 | 8980 (1994) | 64 (1989) | 2200 | 77 | 87 | 170 | 394 | 1720 | 2810 | 3520 | 6130 | 8810 |
| 2026-04-24 02:00 | 8.02 | 5210 | 8980 (1994) | 64 (1989) | 2200 | 77 | 87 | 170 | 394 | 1720 | 2810 | 3520 | 6130 | 8810 |
| 2026-04-24 01:30 | 8.01 | 5190 | 8980 (1994) | 64 (1989) | 2200 | 77 | 87 | 170 | 394 | 1720 | 2810 | 3520 | 6130 | 8810 |
| 2026-04-24 01:00 | 8.04 | 5230 | 8980 (1994) | 64 (1989) | 2200 | 77 | 87 | 170 | 394 | 1720 | 2810 | 3520 | 6130 | 8810 |
| 2026-04-24 00:30 | 8.06 | 5250 | 8980 (1994) | 64 (1989) | 2200 | 77 | 87 | 170 | 394 | 1720 | 2810 | 3520 | 6130 | 8810 |
| 2026-04-24 00:00 | 8.06 | 5250 | 8980 (1994) | 64 (1989) | 2200 | 77 | 87 | 170 | 394 | 1720 | 2810 | 3520 | 6130 | 8810 |
| 2026-04-23 23:30 | 8.05 | 5240 | 8980 (1994) | 64 (1989) | 2200 | 77 | 87 | 170 | 394 | 1720 | 2810 | 3520 | 6130 | 8810 |
| 2026-04-23 23:00 | 8.07 | 5260 | 8980 (1994) | 64 (1989) | 2200 | 77 | 87 | 170 | 394 | 1720 | 2810 | 3520 | 6130 | 8810 |
| 2026-04-23 22:30 | 8.08 | 5270 | 9240 (1998) | 65 (2003) | 2300 | 77 | 84 | 109 | 231 | 1440 | 2980 | 3730 | 6930 | 9050 |
| 2026-04-23 22:00 | 8.09 | 5290 | 9240 (1998) | 65 (2003) | 2300 | 77 | 84 | 109 | 231 | 1440 | 2980 | 3730 | 6930 | 9050 |
| 2026-04-23 21:30 | 8.11 | 5310 | 9240 (1998) | 65 (2003) | 2300 | 77 | 84 | 109 | 231 | 1440 | 2980 | 3730 | 6930 | 9050 |
| 2026-04-23 21:00 | 8.12 | 5320 | 9240 (1998) | 65 (2003) | 2300 | 77 | 84 | 109 | 231 | 1440 | 2980 | 3730 | 6930 | 9050 |
| 2026-04-23 20:30 | 8.14 | 5340 | 9240 (1998) | 65 (2003) | 2300 | 77 | 84 | 109 | 231 | 1440 | 2980 | 3730 | 6930 | 9050 |
| 2026-04-23 20:00 | 8.15 | 5360 | 9240 (1998) | 65 (2003) | 2300 | 77 | 84 | 109 | 231 | 1440 | 2980 | 3730 | 6930 | 9050 |
| 2026-04-23 19:30 | 8.16 | 5370 | 9240 (1998) | 65 (2003) | 2300 | 77 | 84 | 109 | 231 | 1440 | 2980 | 3730 | 6930 | 9050 |
| 2026-04-23 19:00 | 8.19 | 5400 | 9240 (1998) | 65 (2003) | 2300 | 77 | 84 | 109 | 231 | 1440 | 2980 | 3730 | 6930 | 9050 |
| 2026-04-23 18:30 | 8.20 | 5410 | 9240 (1998) | 65 (2003) | 2300 | 77 | 84 | 109 | 231 | 1440 | 2980 | 3730 | 6930 | 9050 |
| 2026-04-23 18:00 | 8.22 | 5440 | 9240 (1998) | 65 (2003) | 2300 | 77 | 84 | 109 | 231 | 1440 | 2980 | 3730 | 6930 | 9050 |
| 2026-04-23 17:30 | 8.22 | 5440 | 9240 (1998) | 65 (2003) | 2300 | 77 | 84 | 109 | 231 | 1440 | 2980 | 3730 | 6930 | 9050 |
| 2026-04-23 17:00 | 8.24 | 5460 | 9240 (1998) | 65 (2003) | 2300 | 77 | 84 | 109 | 231 | 1440 | 2980 | 3730 | 6930 | 9050 |
| 2026-04-23 16:30 | 8.22 | 5440 | 9240 (1998) | 65 (2003) | 2300 | 77 | 84 | 109 | 231 | 1440 | 2980 | 3730 | 6930 | 9050 |
| 2026-04-23 16:00 | 8.20 | 5410 | 9240 (1998) | 65 (2003) | 2300 | 77 | 84 | 109 | 231 | 1440 | 2980 | 3730 | 6930 | 9050 |
| 2026-04-23 15:30 | 8.16 | 5370 | 9240 (1998) | 65 (2003) | 2300 | 77 | 84 | 109 | 231 | 1440 | 2980 | 3730 | 6930 | 9050 |
| 2026-04-23 15:00 | 8.00 | 5180 | 9240 (1998) | 65 (2003) | 2300 | 77 | 84 | 109 | 231 | 1440 | 2980 | 3730 | 6930 | 9050 |
| 2026-04-23 14:30 | 7.81 | 4970 | 9240 (1998) | 65 (2003) | 2300 | 77 | 84 | 109 | 231 | 1440 | 2980 | 3730 | 6930 | 9050 |
| 2026-04-23 14:00 | 7.60 | 4730 | 9240 (1998) | 65 (2003) | 2300 | 77 | 84 | 109 | 231 | 1440 | 2980 | 3730 | 6930 | 9050 |
| 2026-04-23 13:30 | 7.30 | 4410 | 9240 (1998) | 65 (2003) | 2300 | 77 | 84 | 109 | 231 | 1440 | 2980 | 3730 | 6930 | 9050 |
| 2026-04-23 13:00 | 6.93 | 3960 | 9240 (1998) | 65 (2003) | 2300 | 77 | 84 | 109 | 231 | 1440 | 2980 | 3730 | 6930 | 9050 |
| 2026-04-23 12:30 | 6.53 | 3500 | 9240 (1998) | 65 (2003) | 2300 | 77 | 84 | 109 | 231 | 1440 | 2980 | 3730 | 6930 | 9050 |
| 2026-04-23 12:00 | 6.07 | 3000 | 9240 (1998) | 65 (2003) | 2300 | 77 | 84 | 109 | 231 | 1440 | 2980 | 3730 | 6930 | 9050 |
| 2026-04-23 11:30 | 5.67 | 2590 | 9240 (1998) | 65 (2003) | 2300 | 77 | 84 | 109 | 231 | 1440 | 2980 | 3730 | 6930 | 9050 |
| 2026-04-23 11:00 | 5.42 | 2350 | 9240 (1998) | 65 (2003) | 2300 | 77 | 84 | 109 | 231 | 1440 | 2980 | 3730 | 6930 | 9050 |
| 2026-04-23 10:30 | 5.34 | 2270 | 9240 (1998) | 65 (2003) | 2300 | 77 | 84 | 109 | 231 | 1440 | 2980 | 3730 | 6930 | 9050 |
| 2026-04-23 10:00 | 5.36 | 2290 | 9240 (1998) | 65 (2003) | 2300 | 77 | 84 | 109 | 231 | 1440 | 2980 | 3730 | 6930 | 9050 |
| 2026-04-23 09:30 | 5.46 | 2390 | 9240 (1998) | 65 (2003) | 2300 | 77 | 84 | 109 | 231 | 1440 | 2980 | 3730 | 6930 | 9050 |
| 2026-04-23 09:00 | 5.60 | 2520 | 9240 (1998) | 65 (2003) | 2300 | 77 | 84 | 109 | 231 | 1440 | 2980 | 3730 | 6930 | 9050 |
| 2026-04-23 08:30 | 5.76 | 2680 | 9240 (1998) | 65 (2003) | 2300 | 77 | 84 | 109 | 231 | 1440 | 2980 | 3730 | 6930 | 9050 |
| 2026-04-23 08:00 | 5.96 | 2880 | 9240 (1998) | 65 (2003) | 2300 | 77 | 84 | 109 | 231 | 1440 | 2980 | 3730 | 6930 | 9050 |
| 2026-04-23 07:30 | 6.17 | 3100 | 9240 (1998) | 65 (2003) | 2300 | 77 | 84 | 109 | 231 | 1440 | 2980 | 3730 | 6930 | 9050 |
| 2026-04-23 07:00 | 6.41 | 3360 | 9240 (1998) | 65 (2003) | 2300 | 77 | 84 | 109 | 231 | 1440 | 2980 | 3730 | 6930 | 9050 |
| 2026-04-23 06:30 | 6.66 | 3650 | 9240 (1998) | 65 (2003) | 2300 | 77 | 84 | 109 | 231 | 1440 | 2980 | 3730 | 6930 | 9050 |
| 2026-04-23 06:00 | 6.93 | 3960 | 9240 (1998) | 65 (2003) | 2300 | 77 | 84 | 109 | 231 | 1440 | 2980 | 3730 | 6930 | 9050 |
| 2026-04-23 05:30 | 7.21 | 4300 | 9240 (1998) | 65 (2003) | 2300 | 77 | 84 | 109 | 231 | 1440 | 2980 | 3730 | 6930 | 9050 |
| 2026-04-23 05:00 | 7.50 | 4620 | 9240 (1998) | 65 (2003) | 2300 | 77 | 84 | 109 | 231 | 1440 | 2980 | 3730 | 6930 | 9050 |
| 2026-04-23 04:30 | 7.80 | 4960 | 9240 (1998) | 65 (2003) | 2300 | 77 | 84 | 109 | 231 | 1440 | 2980 | 3730 | 6930 | 9050 |
| 2026-04-23 04:00 | 8.09 | 5290 | 9240 (1998) | 65 (2003) | 2300 | 77 | 84 | 109 | 231 | 1440 | 2980 | 3730 | 6930 | 9050 |
| 2026-04-23 03:30 | 8.37 | 5610 | 9240 (1998) | 65 (2003) | 2300 | 77 | 84 | 109 | 231 | 1440 | 2980 | 3730 | 6930 | 9050 |
| 2026-04-23 03:00 | 8.67 | 5970 | 9240 (1998) | 65 (2003) | 2300 | 77 | 84 | 109 | 231 | 1440 | 2980 | 3730 | 6930 | 9050 |
| 2026-04-23 02:30 | 8.93 | 6280 | 9240 (1998) | 65 (2003) | 2300 | 77 | 84 | 109 | 231 | 1440 | 2980 | 3730 | 6930 | 9050 |
| 2026-04-23 02:00 | 9.20 | 6630 | 9240 (1998) | 65 (2003) | 2300 | 77 | 84 | 109 | 231 | 1440 | 2980 | 3730 | 6930 | 9050 |
| 2026-04-23 01:30 | 9.43 | 6940 | 9240 (1998) | 65 (2003) | 2300 | 77 | 84 | 109 | 231 | 1440 | 2980 | 3730 | 6930 | 9050 |
| 2026-04-23 01:00 | 9.63 | 7210 | 9240 (1998) | 65 (2003) | 2300 | 77 | 84 | 109 | 231 | 1440 | 2980 | 3730 | 6930 | 9050 |
| 2026-04-23 00:30 | 9.77 | 7410 | 9240 (1998) | 65 (2003) | 2300 | 77 | 84 | 109 | 231 | 1440 | 2980 | 3730 | 6930 | 9050 |
| 2026-04-23 00:00 | 9.82 | 7470 | 9240 (1998) | 65 (2003) | 2300 | 77 | 84 | 109 | 231 | 1440 | 2980 | 3730 | 6930 | 9050 |
| 2026-04-22 23:30 | 9.82 | 7470 | 9240 (1998) | 65 (2003) | 2300 | 77 | 84 | 109 | 231 | 1440 | 2980 | 3730 | 6930 | 9050 |
| 2026-04-22 23:00 | 9.80 | 7450 | 9240 (1998) | 65 (2003) | 2300 | 77 | 84 | 109 | 231 | 1440 | 2980 | 3730 | 6930 | 9050 |
| 2026-04-22 22:30 | 9.69 | 7290 | 9580 (1998) | 73 (1985) | 2460 | 74 | 82 | 123 | 203 | 1750 | 3440 | 4170 | 6660 | 9190 |
| 2026-04-22 22:00 | 9.62 | 7200 | 9580 (1998) | 73 (1985) | 2460 | 74 | 82 | 123 | 203 | 1750 | 3440 | 4170 | 6660 | 9190 |
| 2026-04-22 21:30 | 9.52 | 7060 | 9580 (1998) | 73 (1985) | 2460 | 74 | 82 | 123 | 203 | 1750 | 3440 | 4170 | 6660 | 9190 |
| 2026-04-22 21:00 | 9.38 | 6870 | 9580 (1998) | 73 (1985) | 2460 | 74 | 82 | 123 | 203 | 1750 | 3440 | 4170 | 6660 | 9190 |
| 2026-04-22 20:30 | 9.20 | 6630 | 9580 (1998) | 73 (1985) | 2460 | 74 | 82 | 123 | 203 | 1750 | 3440 | 4170 | 6660 | 9190 |
| 2026-04-22 20:00 | 9.04 | 6420 | 9580 (1998) | 73 (1985) | 2460 | 74 | 82 | 123 | 203 | 1750 | 3440 | 4170 | 6660 | 9190 |
| 2026-04-22 19:30 | 8.85 | 6190 | 9580 (1998) | 73 (1985) | 2460 | 74 | 82 | 123 | 203 | 1750 | 3440 | 4170 | 6660 | 9190 |
| 2026-04-22 19:00 | 8.65 | 5940 | 9580 (1998) | 73 (1985) | 2460 | 74 | 82 | 123 | 203 | 1750 | 3440 | 4170 | 6660 | 9190 |
| 2026-04-22 18:30 | 8.43 | 5680 | 9580 (1998) | 73 (1985) | 2460 | 74 | 82 | 123 | 203 | 1750 | 3440 | 4170 | 6660 | 9190 |
| 2026-04-22 18:00 | 8.23 | 5450 | 9580 (1998) | 73 (1985) | 2460 | 74 | 82 | 123 | 203 | 1750 | 3440 | 4170 | 6660 | 9190 |
| 2026-04-22 17:30 | 8.07 | 5260 | 9580 (1998) | 73 (1985) | 2460 | 74 | 82 | 123 | 203 | 1750 | 3440 | 4170 | 6660 | 9190 |
| 2026-04-22 17:00 | 7.96 | 5140 | 9580 (1998) | 73 (1985) | 2460 | 74 | 82 | 123 | 203 | 1750 | 3440 | 4170 | 6660 | 9190 |
| 2026-04-22 16:30 | 7.89 | 5060 | 9580 (1998) | 73 (1985) | 2460 | 74 | 82 | 123 | 203 | 1750 | 3440 | 4170 | 6660 | 9190 |
| 2026-04-22 16:00 | 7.80 | 4960 | 9580 (1998) | 73 (1985) | 2460 | 74 | 82 | 123 | 203 | 1750 | 3440 | 4170 | 6660 | 9190 |
| 2026-04-22 15:30 | 7.70 | 4840 | 9580 (1998) | 73 (1985) | 2460 | 74 | 82 | 123 | 203 | 1750 | 3440 | 4170 | 6660 | 9190 |
| 2026-04-22 15:00 | 7.58 | 4710 | 9580 (1998) | 73 (1985) | 2460 | 74 | 82 | 123 | 203 | 1750 | 3440 | 4170 | 6660 | 9190 |
| 2026-04-22 14:30 | 7.45 | 4570 | 9580 (1998) | 73 (1985) | 2460 | 74 | 82 | 123 | 203 | 1750 | 3440 | 4170 | 6660 | 9190 |
| 2026-04-22 14:00 | 7.28 | 4380 | 9580 (1998) | 73 (1985) | 2460 | 74 | 82 | 123 | 203 | 1750 | 3440 | 4170 | 6660 | 9190 |
| 2026-04-22 13:30 | 7.08 | 4140 | 9580 (1998) | 73 (1985) | 2460 | 74 | 82 | 123 | 203 | 1750 | 3440 | 4170 | 6660 | 9190 |
| 2026-04-22 13:00 | 6.86 | 3880 | 9580 (1998) | 73 (1985) | 2460 | 74 | 82 | 123 | 203 | 1750 | 3440 | 4170 | 6660 | 9190 |
| 2026-04-22 12:30 | 6.60 | 3580 | 9580 (1998) | 73 (1985) | 2460 | 74 | 82 | 123 | 203 | 1750 | 3440 | 4170 | 6660 | 9190 |
| 2026-04-22 12:00 | 6.36 | 3310 | 9580 (1998) | 73 (1985) | 2460 | 74 | 82 | 123 | 203 | 1750 | 3440 | 4170 | 6660 | 9190 |
| 2026-04-22 11:30 | 6.13 | 3060 | 9580 (1998) | 73 (1985) | 2460 | 74 | 82 | 123 | 203 | 1750 | 3440 | 4170 | 6660 | 9190 |
| 2026-04-22 11:00 | 5.99 | 2910 | 9580 (1998) | 73 (1985) | 2460 | 74 | 82 | 123 | 203 | 1750 | 3440 | 4170 | 6660 | 9190 |
| 2026-04-22 10:30 | 5.93 | 2850 | 9580 (1998) | 73 (1985) | 2460 | 74 | 82 | 123 | 203 | 1750 | 3440 | 4170 | 6660 | 9190 |
| 2026-04-22 10:00 | 5.98 | 2900 | 9580 (1998) | 73 (1985) | 2460 | 74 | 82 | 123 | 203 | 1750 | 3440 | 4170 | 6660 | 9190 |
| 2026-04-22 09:30 | 6.09 | 3020 | 9580 (1998) | 73 (1985) | 2460 | 74 | 82 | 123 | 203 | 1750 | 3440 | 4170 | 6660 | 9190 |
| 2026-04-22 09:00 | 6.26 | 3200 | 9580 (1998) | 73 (1985) | 2460 | 74 | 82 | 123 | 203 | 1750 | 3440 | 4170 | 6660 | 9190 |
| 2026-04-22 08:30 | 6.47 | 3430 | 9580 (1998) | 73 (1985) | 2460 | 74 | 82 | 123 | 203 | 1750 | 3440 | 4170 | 6660 | 9190 |
| 2026-04-22 08:00 | 6.71 | 3700 | 9580 (1998) | 73 (1985) | 2460 | 74 | 82 | 123 | 203 | 1750 | 3440 | 4170 | 6660 | 9190 |
| 2026-04-22 07:30 | 6.98 | 4020 | 9580 (1998) | 73 (1985) | 2460 | 74 | 82 | 123 | 203 | 1750 | 3440 | 4170 | 6660 | 9190 |
| 2026-04-22 07:00 | 7.25 | 4350 | 9580 (1998) | 73 (1985) | 2460 | 74 | 82 | 123 | 203 | 1750 | 3440 | 4170 | 6660 | 9190 |
| 2026-04-22 06:30 | 7.55 | 4680 | 9580 (1998) | 73 (1985) | 2460 | 74 | 82 | 123 | 203 | 1750 | 3440 | 4170 | 6660 | 9190 |
| 2026-04-22 06:00 | 7.83 | 4990 | 9580 (1998) | 73 (1985) | 2460 | 74 | 82 | 123 | 203 | 1750 | 3440 | 4170 | 6660 | 9190 |
| 2026-04-22 05:30 | 8.14 | 5340 | 9580 (1998) | 73 (1985) | 2460 | 74 | 82 | 123 | 203 | 1750 | 3440 | 4170 | 6660 | 9190 |
| 2026-04-22 05:00 | 8.43 | 5680 | 9580 (1998) | 73 (1985) | 2460 | 74 | 82 | 123 | 203 | 1750 | 3440 | 4170 | 6660 | 9190 |
| 2026-04-22 04:30 | 8.74 | 6050 | 9580 (1998) | 73 (1985) | 2460 | 74 | 82 | 123 | 203 | 1750 | 3440 | 4170 | 6660 | 9190 |
| 2026-04-22 04:00 | 9.00 | 6370 | 9580 (1998) | 73 (1985) | 2460 | 74 | 82 | 123 | 203 | 1750 | 3440 | 4170 | 6660 | 9190 |
| 2026-04-22 03:30 | 9.30 | 6770 | 9580 (1998) | 73 (1985) | 2460 | 74 | 82 | 123 | 203 | 1750 | 3440 | 4170 | 6660 | 9190 |
| 2026-04-22 03:00 | 9.51 | 7050 | 9580 (1998) | 73 (1985) | 2460 | 74 | 82 | 123 | 203 | 1750 | 3440 | 4170 | 6660 | 9190 |
| 2026-04-22 02:30 | 9.70 | 7310 | 9580 (1998) | 73 (1985) | 2460 | 74 | 82 | 123 | 203 | 1750 | 3440 | 4170 | 6660 | 9190 |
| 2026-04-22 02:00 | 9.78 | 7420 | 9580 (1998) | 73 (1985) | 2460 | 74 | 82 | 123 | 203 | 1750 | 3440 | 4170 | 6660 | 9190 |
| 2026-04-22 01:30 | 9.85 | 7520 | 9580 (1998) | 73 (1985) | 2460 | 74 | 82 | 123 | 203 | 1750 | 3440 | 4170 | 6660 | 9190 |
| 2026-04-22 01:00 | 9.84 | 7500 | 9580 (1998) | 73 (1985) | 2460 | 74 | 82 | 123 | 203 | 1750 | 3440 | 4170 | 6660 | 9190 |
| 2026-04-22 00:30 | 9.79 | 7430 | 9580 (1998) | 73 (1985) | 2460 | 74 | 82 | 123 | 203 | 1750 | 3440 | 4170 | 6660 | 9190 |
| 2026-04-22 00:00 | 9.74 | 7360 | 9580 (1998) | 73 (1985) | 2460 | 74 | 82 | 123 | 203 | 1750 | 3440 | 4170 | 6660 | 9190 |
| 2026-04-21 23:30 | 9.65 | 7240 | 9580 (1998) | 73 (1985) | 2460 | 74 | 82 | 123 | 203 | 1750 | 3440 | 4170 | 6660 | 9190 |
| 2026-04-21 23:00 | 9.52 | 7060 | 9580 (1998) | 73 (1985) | 2460 | 74 | 82 | 123 | 203 | 1750 | 3440 | 4170 | 6660 | 9190 |
| 2026-04-21 22:30 | 9.38 | 6870 | 10000 (1998) | 68 (1985) | 2710 | 76 | 82 | 173 | 298 | 2030 | 4680 | 5360 | 6520 | 8840 |
| 2026-04-21 22:00 | 9.26 | 6710 | 10000 (1998) | 68 (1985) | 2710 | 76 | 82 | 173 | 298 | 2030 | 4680 | 5360 | 6520 | 8840 |
| 2026-04-21 21:30 | 9.08 | 6470 | 10000 (1998) | 68 (1985) | 2710 | 76 | 82 | 173 | 298 | 2030 | 4680 | 5360 | 6520 | 8840 |
| 2026-04-21 21:00 | 8.81 | 6140 | 10000 (1998) | 68 (1985) | 2710 | 76 | 82 | 173 | 298 | 2030 | 4680 | 5360 | 6520 | 8840 |
| 2026-04-21 20:30 | 8.58 | 5860 | 10000 (1998) | 68 (1985) | 2710 | 76 | 82 | 173 | 298 | 2030 | 4680 | 5360 | 6520 | 8840 |
| 2026-04-21 20:00 | 8.32 | 5550 | 10000 (1998) | 68 (1985) | 2710 | 76 | 82 | 173 | 298 | 2030 | 4680 | 5360 | 6520 | 8840 |
| 2026-04-21 19:30 | 8.06 | 5250 | 10000 (1998) | 68 (1985) | 2710 | 76 | 82 | 173 | 298 | 2030 | 4680 | 5360 | 6520 | 8840 |
| 2026-04-21 19:00 | 7.82 | 4980 | 10000 (1998) | 68 (1985) | 2710 | 76 | 82 | 173 | 298 | 2030 | 4680 | 5360 | 6520 | 8840 |
| 2026-04-21 18:30 | 7.66 | 4800 | 10000 (1998) | 68 (1985) | 2710 | 76 | 82 | 173 | 298 | 2030 | 4680 | 5360 | 6520 | 8840 |
| 2026-04-21 18:00 | 7.52 | 4640 | 10000 (1998) | 68 (1985) | 2710 | 76 | 82 | 173 | 298 | 2030 | 4680 | 5360 | 6520 | 8840 |
| 2026-04-21 17:30 | 7.32 | 4430 | 10000 (1998) | 68 (1985) | 2710 | 76 | 82 | 173 | 298 | 2030 | 4680 | 5360 | 6520 | 8840 |
| 2026-04-21 17:00 | 7.17 | 4250 | 10000 (1998) | 68 (1985) | 2710 | 76 | 82 | 173 | 298 | 2030 | 4680 | 5360 | 6520 | 8840 |
| 2026-04-21 16:30 | 6.99 | 4030 | 10000 (1998) | 68 (1985) | 2710 | 76 | 82 | 173 | 298 | 2030 | 4680 | 5360 | 6520 | 8840 |
| 2026-04-21 16:00 | 6.83 | 3840 | 10000 (1998) | 68 (1985) | 2710 | 76 | 82 | 173 | 298 | 2030 | 4680 | 5360 | 6520 | 8840 |
| 2026-04-21 15:30 | 6.71 | 3700 | 10000 (1998) | 68 (1985) | 2710 | 76 | 82 | 173 | 298 | 2030 | 4680 | 5360 | 6520 | 8840 |
| 2026-04-21 15:00 | 6.64 | 3620 | 10000 (1998) | 68 (1985) | 2710 | 76 | 82 | 173 | 298 | 2030 | 4680 | 5360 | 6520 | 8840 |
| 2026-04-21 14:30 | 6.61 | 3590 | 10000 (1998) | 68 (1985) | 2710 | 76 | 82 | 173 | 298 | 2030 | 4680 | 5360 | 6520 | 8840 |
| 2026-04-21 14:00 | 6.59 | 3570 | 10000 (1998) | 68 (1985) | 2710 | 76 | 82 | 173 | 298 | 2030 | 4680 | 5360 | 6520 | 8840 |
| 2026-04-21 13:30 | 6.59 | 3570 | 10000 (1998) | 68 (1985) | 2710 | 76 | 82 | 173 | 298 | 2030 | 4680 | 5360 | 6520 | 8840 |
| 2026-04-21 13:00 | 6.58 | 3550 | 10000 (1998) | 68 (1985) | 2710 | 76 | 82 | 173 | 298 | 2030 | 4680 | 5360 | 6520 | 8840 |
| 2026-04-21 12:30 | 6.58 | 3550 | 10000 (1998) | 68 (1985) | 2710 | 76 | 82 | 173 | 298 | 2030 | 4680 | 5360 | 6520 | 8840 |
| 2026-04-21 12:00 | 6.59 | 3570 | 10000 (1998) | 68 (1985) | 2710 | 76 | 82 | 173 | 298 | 2030 | 4680 | 5360 | 6520 | 8840 |
| 2026-04-21 11:30 | 6.59 | 3570 | 10000 (1998) | 68 (1985) | 2710 | 76 | 82 | 173 | 298 | 2030 | 4680 | 5360 | 6520 | 8840 |
| 2026-04-21 11:00 | 6.61 | 3590 | 10000 (1998) | 68 (1985) | 2710 | 76 | 82 | 173 | 298 | 2030 | 4680 | 5360 | 6520 | 8840 |
| 2026-04-21 10:30 | 6.62 | 3600 | 10000 (1998) | 68 (1985) | 2710 | 76 | 82 | 173 | 298 | 2030 | 4680 | 5360 | 6520 | 8840 |
| 2026-04-21 10:00 | 6.62 | 3600 | 10000 (1998) | 68 (1985) | 2710 | 76 | 82 | 173 | 298 | 2030 | 4680 | 5360 | 6520 | 8840 |
| 2026-04-21 09:30 | 6.66 | 3650 | 10000 (1998) | 68 (1985) | 2710 | 76 | 82 | 173 | 298 | 2030 | 4680 | 5360 | 6520 | 8840 |
| 2026-04-21 09:00 | 6.67 | 3660 | 10000 (1998) | 68 (1985) | 2710 | 76 | 82 | 173 | 298 | 2030 | 4680 | 5360 | 6520 | 8840 |
| 2026-04-21 08:30 | 6.69 | 3680 | 10000 (1998) | 68 (1985) | 2710 | 76 | 82 | 173 | 298 | 2030 | 4680 | 5360 | 6520 | 8840 |
| 2026-04-21 08:00 | 6.71 | 3700 | 10000 (1998) | 68 (1985) | 2710 | 76 | 82 | 173 | 298 | 2030 | 4680 | 5360 | 6520 | 8840 |
| 2026-04-21 07:30 | 6.74 | 3740 | 10000 (1998) | 68 (1985) | 2710 | 76 | 82 | 173 | 298 | 2030 | 4680 | 5360 | 6520 | 8840 |
| 2026-04-21 07:00 | 6.74 | 3740 | 10000 (1998) | 68 (1985) | 2710 | 76 | 82 | 173 | 298 | 2030 | 4680 | 5360 | 6520 | 8840 |
| 2026-04-21 06:30 | 6.76 | 3760 | 10000 (1998) | 68 (1985) | 2710 | 76 | 82 | 173 | 298 | 2030 | 4680 | 5360 | 6520 | 8840 |
| 2026-04-21 06:00 | 6.75 | 3750 | 10000 (1998) | 68 (1985) | 2710 | 76 | 82 | 173 | 298 | 2030 | 4680 | 5360 | 6520 | 8840 |
| 2026-04-21 05:30 | 6.76 | 3760 | 10000 (1998) | 68 (1985) | 2710 | 76 | 82 | 173 | 298 | 2030 | 4680 | 5360 | 6520 | 8840 |
| 2026-04-21 05:00 | 6.77 | 3770 | 10000 (1998) | 68 (1985) | 2710 | 76 | 82 | 173 | 298 | 2030 | 4680 | 5360 | 6520 | 8840 |
| 2026-04-21 04:30 | 6.75 | 3750 | 10000 (1998) | 68 (1985) | 2710 | 76 | 82 | 173 | 298 | 2030 | 4680 | 5360 | 6520 | 8840 |
| 2026-04-21 04:00 | 6.76 | 3760 | 10000 (1998) | 68 (1985) | 2710 | 76 | 82 | 173 | 298 | 2030 | 4680 | 5360 | 6520 | 8840 |
| 2026-04-21 03:30 | 6.75 | 3750 | 10000 (1998) | 68 (1985) | 2710 | 76 | 82 | 173 | 298 | 2030 | 4680 | 5360 | 6520 | 8840 |
| 2026-04-21 03:00 | 6.73 | 3730 | 10000 (1998) | 68 (1985) | 2710 | 76 | 82 | 173 | 298 | 2030 | 4680 | 5360 | 6520 | 8840 |
| 2026-04-21 02:30 | 6.73 | 3730 | 10000 (1998) | 68 (1985) | 2710 | 76 | 82 | 173 | 298 | 2030 | 4680 | 5360 | 6520 | 8840 |
| 2026-04-21 02:00 | 6.73 | 3730 | 10000 (1998) | 68 (1985) | 2710 | 76 | 82 | 173 | 298 | 2030 | 4680 | 5360 | 6520 | 8840 |
| 2026-04-21 01:30 | 6.70 | 3690 | 10000 (1998) | 68 (1985) | 2710 | 76 | 82 | 173 | 298 | 2030 | 4680 | 5360 | 6520 | 8840 |
| 2026-04-21 01:00 | 6.69 | 3680 | 10000 (1998) | 68 (1985) | 2710 | 76 | 82 | 173 | 298 | 2030 | 4680 | 5360 | 6520 | 8840 |
| 2026-04-21 00:30 | 6.67 | 3660 | 10000 (1998) | 68 (1985) | 2710 | 76 | 82 | 173 | 298 | 2030 | 4680 | 5360 | 6520 | 8840 |
| 2026-04-21 00:00 | 6.67 | 3660 | 10000 (1998) | 68 (1985) | 2710 | 76 | 82 | 173 | 298 | 2030 | 4680 | 5360 | 6520 | 8840 |
| 2026-04-20 23:30 | 6.65 | 3630 | 10000 (1998) | 68 (1985) | 2710 | 76 | 82 | 173 | 298 | 2030 | 4680 | 5360 | 6520 | 8840 |
| 2026-04-20 23:00 | 6.64 | 3620 | 10000 (1998) | 68 (1985) | 2710 | 76 | 82 | 173 | 298 | 2030 | 4680 | 5360 | 6520 | 8840 |
| 2026-04-20 22:30 | 6.63 | 3610 | 8940 (1998) | 76 (1996) | 2470 | 89 | 105 | 138 | 257 | 1720 | 3750 | 4490 | 6880 | 8280 |
| 2026-04-20 22:00 | 6.59 | 3570 | 8940 (1998) | 76 (1996) | 2470 | 89 | 105 | 138 | 257 | 1720 | 3750 | 4490 | 6880 | 8280 |
| 2026-04-20 21:30 | 6.59 | 3570 | 8940 (1998) | 76 (1996) | 2470 | 89 | 105 | 138 | 257 | 1720 | 3750 | 4490 | 6880 | 8280 |
| 2026-04-20 21:00 | 6.56 | 3530 | 8940 (1998) | 76 (1996) | 2470 | 89 | 105 | 138 | 257 | 1720 | 3750 | 4490 | 6880 | 8280 |
| 2026-04-20 20:30 | 6.52 | 3490 | 8940 (1998) | 76 (1996) | 2470 | 89 | 105 | 138 | 257 | 1720 | 3750 | 4490 | 6880 | 8280 |
| 2026-04-20 20:00 | 6.49 | 3450 | 8940 (1998) | 76 (1996) | 2470 | 89 | 105 | 138 | 257 | 1720 | 3750 | 4490 | 6880 | 8280 |
| 2026-04-20 19:30 | 6.46 | 3420 | 8940 (1998) | 76 (1996) | 2470 | 89 | 105 | 138 | 257 | 1720 | 3750 | 4490 | 6880 | 8280 |
| 2026-04-20 19:00 | 6.41 | 3360 | 8940 (1998) | 76 (1996) | 2470 | 89 | 105 | 138 | 257 | 1720 | 3750 | 4490 | 6880 | 8280 |
| 2026-04-20 18:30 | 6.36 | 3310 | 8940 (1998) | 76 (1996) | 2470 | 89 | 105 | 138 | 257 | 1720 | 3750 | 4490 | 6880 | 8280 |
| 2026-04-20 18:00 | 6.31 | 3250 | 8940 (1998) | 76 (1996) | 2470 | 89 | 105 | 138 | 257 | 1720 | 3750 | 4490 | 6880 | 8280 |
| 2026-04-20 17:30 | 6.25 | 3190 | 8940 (1998) | 76 (1996) | 2470 | 89 | 105 | 138 | 257 | 1720 | 3750 | 4490 | 6880 | 8280 |
| 2026-04-20 17:00 | 6.16 | 3090 | 8940 (1998) | 76 (1996) | 2470 | 89 | 105 | 138 | 257 | 1720 | 3750 | 4490 | 6880 | 8280 |
| 2026-04-20 16:30 | 6.07 | 3000 | 8940 (1998) | 76 (1996) | 2470 | 89 | 105 | 138 | 257 | 1720 | 3750 | 4490 | 6880 | 8280 |
| 2026-04-20 16:00 | 5.96 | 2880 | 8940 (1998) | 76 (1996) | 2470 | 89 | 105 | 138 | 257 | 1720 | 3750 | 4490 | 6880 | 8280 |
| 2026-04-20 15:30 | 5.83 | 2750 | 8940 (1998) | 76 (1996) | 2470 | 89 | 105 | 138 | 257 | 1720 | 3750 | 4490 | 6880 | 8280 |
| 2026-04-20 15:00 | 5.70 | 2620 | 8940 (1998) | 76 (1996) | 2470 | 89 | 105 | 138 | 257 | 1720 | 3750 | 4490 | 6880 | 8280 |
| 2026-04-20 14:30 | 5.58 | 2500 | 8940 (1998) | 76 (1996) | 2470 | 89 | 105 | 138 | 257 | 1720 | 3750 | 4490 | 6880 | 8280 |
| 2026-04-20 14:00 | 5.46 | 2390 | 8940 (1998) | 76 (1996) | 2470 | 89 | 105 | 138 | 257 | 1720 | 3750 | 4490 | 6880 | 8280 |
| 2026-04-20 13:30 | 5.38 | 2310 | 8940 (1998) | 76 (1996) | 2470 | 89 | 105 | 138 | 257 | 1720 | 3750 | 4490 | 6880 | 8280 |
| 2026-04-20 13:00 | 5.34 | 2270 | 8940 (1998) | 76 (1996) | 2470 | 89 | 105 | 138 | 257 | 1720 | 3750 | 4490 | 6880 | 8280 |
| 2026-04-20 12:30 | 5.32 | 2260 | 8940 (1998) | 76 (1996) | 2470 | 89 | 105 | 138 | 257 | 1720 | 3750 | 4490 | 6880 | 8280 |
| 2026-04-20 12:00 | 5.35 | 2280 | 8940 (1998) | 76 (1996) | 2470 | 89 | 105 | 138 | 257 | 1720 | 3750 | 4490 | 6880 | 8280 |
| 2026-04-20 11:30 | 5.35 | 2280 | 8940 (1998) | 76 (1996) | 2470 | 89 | 105 | 138 | 257 | 1720 | 3750 | 4490 | 6880 | 8280 |
| 2026-04-20 11:00 | 5.36 | 2290 | 8940 (1998) | 76 (1996) | 2470 | 89 | 105 | 138 | 257 | 1720 | 3750 | 4490 | 6880 | 8280 |
| 2026-04-20 10:30 | 5.37 | 2300 | 8940 (1998) | 76 (1996) | 2470 | 89 | 105 | 138 | 257 | 1720 | 3750 | 4490 | 6880 | 8280 |
| 2026-04-20 10:00 | 5.38 | 2310 | 8940 (1998) | 76 (1996) | 2470 | 89 | 105 | 138 | 257 | 1720 | 3750 | 4490 | 6880 | 8280 |
| 2026-04-20 09:30 | 5.38 | 2310 | 8940 (1998) | 76 (1996) | 2470 | 89 | 105 | 138 | 257 | 1720 | 3750 | 4490 | 6880 | 8280 |
| 2026-04-20 09:00 | 5.39 | 2320 | 8940 (1998) | 76 (1996) | 2470 | 89 | 105 | 138 | 257 | 1720 | 3750 | 4490 | 6880 | 8280 |
| 2026-04-20 08:30 | 5.39 | 2320 | 8940 (1998) | 76 (1996) | 2470 | 89 | 105 | 138 | 257 | 1720 | 3750 | 4490 | 6880 | 8280 |
| 2026-04-20 08:00 | 5.40 | 2330 | 8940 (1998) | 76 (1996) | 2470 | 89 | 105 | 138 | 257 | 1720 | 3750 | 4490 | 6880 | 8280 |
| 2026-04-20 07:30 | 5.40 | 2330 | 8940 (1998) | 76 (1996) | 2470 | 89 | 105 | 138 | 257 | 1720 | 3750 | 4490 | 6880 | 8280 |
| 2026-04-20 07:00 | 5.41 | 2340 | 8940 (1998) | 76 (1996) | 2470 | 89 | 105 | 138 | 257 | 1720 | 3750 | 4490 | 6880 | 8280 |
| 2026-04-20 06:30 | 5.40 | 2330 | 8940 (1998) | 76 (1996) | 2470 | 89 | 105 | 138 | 257 | 1720 | 3750 | 4490 | 6880 | 8280 |
| 2026-04-20 06:00 | 5.40 | 2330 | 8940 (1998) | 76 (1996) | 2470 | 89 | 105 | 138 | 257 | 1720 | 3750 | 4490 | 6880 | 8280 |
| 2026-04-20 05:30 | 5.40 | 2330 | 8940 (1998) | 76 (1996) | 2470 | 89 | 105 | 138 | 257 | 1720 | 3750 | 4490 | 6880 | 8280 |
| 2026-04-20 05:00 | 5.38 | 2310 | 8940 (1998) | 76 (1996) | 2470 | 89 | 105 | 138 | 257 | 1720 | 3750 | 4490 | 6880 | 8280 |
| 2026-04-20 04:30 | 5.35 | 2280 | 8940 (1998) | 76 (1996) | 2470 | 89 | 105 | 138 | 257 | 1720 | 3750 | 4490 | 6880 | 8280 |
| 2026-04-20 04:00 | 5.33 | 2260 | 8940 (1998) | 76 (1996) | 2470 | 89 | 105 | 138 | 257 | 1720 | 3750 | 4490 | 6880 | 8280 |
| 2026-04-20 03:30 | 5.29 | 2230 | 8940 (1998) | 76 (1996) | 2470 | 89 | 105 | 138 | 257 | 1720 | 3750 | 4490 | 6880 | 8280 |
| 2026-04-20 03:00 | 5.24 | 2180 | 8940 (1998) | 76 (1996) | 2470 | 89 | 105 | 138 | 257 | 1720 | 3750 | 4490 | 6880 | 8280 |
| 2026-04-20 02:30 | 5.19 | 2140 | 8940 (1998) | 76 (1996) | 2470 | 89 | 105 | 138 | 257 | 1720 | 3750 | 4490 | 6880 | 8280 |
| 2026-04-20 02:00 | 5.13 | 2070 | 8940 (1998) | 76 (1996) | 2470 | 89 | 105 | 138 | 257 | 1720 | 3750 | 4490 | 6880 | 8280 |
| 2026-04-20 01:30 | 5.07 | 2010 | 8940 (1998) | 76 (1996) | 2470 | 89 | 105 | 138 | 257 | 1720 | 3750 | 4490 | 6880 | 8280 |
| 2026-04-20 01:00 | 5.02 | 1950 | 8940 (1998) | 76 (1996) | 2470 | 89 | 105 | 138 | 257 | 1720 | 3750 | 4490 | 6880 | 8280 |
| 2026-04-20 00:30 | 4.93 | 1850 | 8940 (1998) | 76 (1996) | 2470 | 89 | 105 | 138 | 257 | 1720 | 3750 | 4490 | 6880 | 8280 |
| 2026-04-20 00:00 | 4.86 | 1770 | 8940 (1998) | 76 (1996) | 2470 | 89 | 105 | 138 | 257 | 1720 | 3750 | 4490 | 6880 | 8280 |
| 2026-04-19 23:30 | 4.78 | 1690 | 8940 (1998) | 76 (1996) | 2470 | 89 | 105 | 138 | 257 | 1720 | 3750 | 4490 | 6880 | 8280 |
| 2026-04-19 23:00 | 4.69 | 1590 | 8940 (1998) | 76 (1996) | 2470 | 89 | 105 | 138 | 257 | 1720 | 3750 | 4490 | 6880 | 8280 |
| 2026-04-19 22:30 | 4.58 | 1480 | 8640 (1994) | 75 (2003) | 2430 | 83 | 112 | 403 | 593 | 1890 | 3280 | 3950 | 6960 | 8470 |
| 2026-04-19 22:00 | 4.45 | 1360 | 8640 (1994) | 75 (2003) | 2430 | 83 | 112 | 403 | 593 | 1890 | 3280 | 3950 | 6960 | 8470 |
| 2026-04-19 21:30 | 4.30 | 1220 | 8640 (1994) | 75 (2003) | 2430 | 83 | 112 | 403 | 593 | 1890 | 3280 | 3950 | 6960 | 8470 |
| 2026-04-19 21:00 | 4.15 | 1090 | 8640 (1994) | 75 (2003) | 2430 | 83 | 112 | 403 | 593 | 1890 | 3280 | 3950 | 6960 | 8470 |
| 2026-04-19 20:30 | 3.99 | 964 | 8640 (1994) | 75 (2003) | 2430 | 83 | 112 | 403 | 593 | 1890 | 3280 | 3950 | 6960 | 8470 |
| 2026-04-19 20:00 | 3.84 | 851 | 8640 (1994) | 75 (2003) | 2430 | 83 | 112 | 403 | 593 | 1890 | 3280 | 3950 | 6960 | 8470 |
| 2026-04-19 19:30 | 3.72 | 766 | 8640 (1994) | 75 (2003) | 2430 | 83 | 112 | 403 | 593 | 1890 | 3280 | 3950 | 6960 | 8470 |
| 2026-04-19 19:00 | 3.64 | 712 | 8640 (1994) | 75 (2003) | 2430 | 83 | 112 | 403 | 593 | 1890 | 3280 | 3950 | 6960 | 8470 |
| 2026-04-19 18:30 | 3.60 | 686 | 8640 (1994) | 75 (2003) | 2430 | 83 | 112 | 403 | 593 | 1890 | 3280 | 3950 | 6960 | 8470 |
| 2026-04-19 18:00 | 3.58 | 673 | 8640 (1994) | 75 (2003) | 2430 | 83 | 112 | 403 | 593 | 1890 | 3280 | 3950 | 6960 | 8470 |
| 2026-04-19 17:30 | 3.58 | 673 | 8640 (1994) | 75 (2003) | 2430 | 83 | 112 | 403 | 593 | 1890 | 3280 | 3950 | 6960 | 8470 |
| 2026-04-19 17:00 | 3.58 | 673 | 8640 (1994) | 75 (2003) | 2430 | 83 | 112 | 403 | 593 | 1890 | 3280 | 3950 | 6960 | 8470 |
| 2026-04-19 16:30 | 3.59 | 680 | 8640 (1994) | 75 (2003) | 2430 | 83 | 112 | 403 | 593 | 1890 | 3280 | 3950 | 6960 | 8470 |
| 2026-04-19 16:00 | 3.59 | 680 | 8640 (1994) | 75 (2003) | 2430 | 83 | 112 | 403 | 593 | 1890 | 3280 | 3950 | 6960 | 8470 |
| 2026-04-19 15:30 | 3.59 | 680 | 8640 (1994) | 75 (2003) | 2430 | 83 | 112 | 403 | 593 | 1890 | 3280 | 3950 | 6960 | 8470 |
| 2026-04-19 15:00 | 3.60 | 686 | 8640 (1994) | 75 (2003) | 2430 | 83 | 112 | 403 | 593 | 1890 | 3280 | 3950 | 6960 | 8470 |
| 2026-04-19 14:30 | 3.59 | 680 | 8640 (1994) | 75 (2003) | 2430 | 83 | 112 | 403 | 593 | 1890 | 3280 | 3950 | 6960 | 8470 |
| 2026-04-19 14:00 | 3.60 | 686 | 8640 (1994) | 75 (2003) | 2430 | 83 | 112 | 403 | 593 | 1890 | 3280 | 3950 | 6960 | 8470 |
| 2026-04-19 13:30 | 3.61 | 692 | 8640 (1994) | 75 (2003) | 2430 | 83 | 112 | 403 | 593 | 1890 | 3280 | 3950 | 6960 | 8470 |
| 2026-04-19 13:00 | 3.61 | 692 | 8640 (1994) | 75 (2003) | 2430 | 83 | 112 | 403 | 593 | 1890 | 3280 | 3950 | 6960 | 8470 |
| 2026-04-19 12:30 | 3.61 | 692 | 8640 (1994) | 75 (2003) | 2430 | 83 | 112 | 403 | 593 | 1890 | 3280 | 3950 | 6960 | 8470 |
| 2026-04-19 12:00 | 3.61 | 692 | 8640 (1994) | 75 (2003) | 2430 | 83 | 112 | 403 | 593 | 1890 | 3280 | 3950 | 6960 | 8470 |
| 2026-04-19 11:30 | 3.62 | 699 | 8640 (1994) | 75 (2003) | 2430 | 83 | 112 | 403 | 593 | 1890 | 3280 | 3950 | 6960 | 8470 |
| 2026-04-19 11:00 | 3.63 | 706 | 8640 (1994) | 75 (2003) | 2430 | 83 | 112 | 403 | 593 | 1890 | 3280 | 3950 | 6960 | 8470 |
| 2026-04-19 10:30 | 3.63 | 706 | 8640 (1994) | 75 (2003) | 2430 | 83 | 112 | 403 | 593 | 1890 | 3280 | 3950 | 6960 | 8470 |
| 2026-04-19 10:00 | 3.63 | 706 | 8640 (1994) | 75 (2003) | 2430 | 83 | 112 | 403 | 593 | 1890 | 3280 | 3950 | 6960 | 8470 |
| 2026-04-19 09:30 | 3.63 | 706 | 8640 (1994) | 75 (2003) | 2430 | 83 | 112 | 403 | 593 | 1890 | 3280 | 3950 | 6960 | 8470 |
| 2026-04-19 09:00 | 3.64 | 712 | 8640 (1994) | 75 (2003) | 2430 | 83 | 112 | 403 | 593 | 1890 | 3280 | 3950 | 6960 | 8470 |
| 2026-04-19 08:30 | 3.64 | 712 | 8640 (1994) | 75 (2003) | 2430 | 83 | 112 | 403 | 593 | 1890 | 3280 | 3950 | 6960 | 8470 |
| 2026-04-19 08:00 | 3.63 | 706 | 8640 (1994) | 75 (2003) | 2430 | 83 | 112 | 403 | 593 | 1890 | 3280 | 3950 | 6960 | 8470 |
| 2026-04-19 07:30 | 3.64 | 712 | 8640 (1994) | 75 (2003) | 2430 | 83 | 112 | 403 | 593 | 1890 | 3280 | 3950 | 6960 | 8470 |
| 2026-04-19 07:00 | 3.63 | 706 | 8640 (1994) | 75 (2003) | 2430 | 83 | 112 | 403 | 593 | 1890 | 3280 | 3950 | 6960 | 8470 |
| 2026-04-19 06:30 | 3.63 | 706 | 8640 (1994) | 75 (2003) | 2430 | 83 | 112 | 403 | 593 | 1890 | 3280 | 3950 | 6960 | 8470 |
| 2026-04-19 06:00 | 3.64 | 712 | 8640 (1994) | 75 (2003) | 2430 | 83 | 112 | 403 | 593 | 1890 | 3280 | 3950 | 6960 | 8470 |
| 2026-04-19 05:30 | 3.64 | 712 | 8640 (1994) | 75 (2003) | 2430 | 83 | 112 | 403 | 593 | 1890 | 3280 | 3950 | 6960 | 8470 |
| 2026-04-19 05:00 | 3.65 | 719 | 8640 (1994) | 75 (2003) | 2430 | 83 | 112 | 403 | 593 | 1890 | 3280 | 3950 | 6960 | 8470 |
| 2026-04-19 04:30 | 3.66 | 725 | 8640 (1994) | 75 (2003) | 2430 | 83 | 112 | 403 | 593 | 1890 | 3280 | 3950 | 6960 | 8470 |
| 2026-04-19 04:00 | 3.67 | 732 | 8640 (1994) | 75 (2003) | 2430 | 83 | 112 | 403 | 593 | 1890 | 3280 | 3950 | 6960 | 8470 |
| 2026-04-19 03:30 | 3.68 | 739 | 8640 (1994) | 75 (2003) | 2430 | 83 | 112 | 403 | 593 | 1890 | 3280 | 3950 | 6960 | 8470 |
| 2026-04-19 03:00 | 3.70 | 752 | 8640 (1994) | 75 (2003) | 2430 | 83 | 112 | 403 | 593 | 1890 | 3280 | 3950 | 6960 | 8470 |
| 2026-04-19 02:30 | 3.72 | 766 | 8640 (1994) | 75 (2003) | 2430 | 83 | 112 | 403 | 593 | 1890 | 3280 | 3950 | 6960 | 8470 |
| 2026-04-19 02:00 | 3.75 | 787 | 8640 (1994) | 75 (2003) | 2430 | 83 | 112 | 403 | 593 | 1890 | 3280 | 3950 | 6960 | 8470 |
| 2026-04-19 01:30 | 3.79 | 815 | 8640 (1994) | 75 (2003) | 2430 | 83 | 112 | 403 | 593 | 1890 | 3280 | 3950 | 6960 | 8470 |
| 2026-04-19 01:00 | 3.83 | 843 | 8640 (1994) | 75 (2003) | 2430 | 83 | 112 | 403 | 593 | 1890 | 3280 | 3950 | 6960 | 8470 |
| 2026-04-19 00:30 | 3.86 | 865 | 8640 (1994) | 75 (2003) | 2430 | 83 | 112 | 403 | 593 | 1890 | 3280 | 3950 | 6960 | 8470 |
| 2026-04-19 00:00 | 3.92 | 910 | 8640 (1994) | 75 (2003) | 2430 | 83 | 112 | 403 | 593 | 1890 | 3280 | 3950 | 6960 | 8470 |
| 2026-04-18 23:30 | 3.97 | 948 | 8640 (1994) | 75 (2003) | 2430 | 83 | 112 | 403 | 593 | 1890 | 3280 | 3950 | 6960 | 8470 |
| 2026-04-18 23:00 | 4.03 | 995 | 8640 (1994) | 75 (2003) | 2430 | 83 | 112 | 403 | 593 | 1890 | 3280 | 3950 | 6960 | 8470 |
| 2026-04-18 22:30 | 4.10 | 1050 | 9250 (2013) | 90 (2014) | 2550 | 96 | 113 | 222 | 372 | 1620 | 4470 | 4930 | 7200 | 8790 |
| 2026-04-18 22:00 | 4.17 | 1110 | 9250 (2013) | 90 (2014) | 2550 | 96 | 113 | 222 | 372 | 1620 | 4470 | 4930 | 7200 | 8790 |
| 2026-04-18 21:30 | 4.25 | 1180 | 9250 (2013) | 90 (2014) | 2550 | 96 | 113 | 222 | 372 | 1620 | 4470 | 4930 | 7200 | 8790 |
| 2026-04-18 21:00 | 4.33 | 1250 | 9250 (2013) | 90 (2014) | 2550 | 96 | 113 | 222 | 372 | 1620 | 4470 | 4930 | 7200 | 8790 |
| 2026-04-18 20:30 | 4.43 | 1340 | 9250 (2013) | 90 (2014) | 2550 | 96 | 113 | 222 | 372 | 1620 | 4470 | 4930 | 7200 | 8790 |
| 2026-04-18 20:00 | 4.52 | 1430 | 9250 (2013) | 90 (2014) | 2550 | 96 | 113 | 222 | 372 | 1620 | 4470 | 4930 | 7200 | 8790 |
| 2026-04-18 19:30 | 4.62 | 1520 | 9250 (2013) | 90 (2014) | 2550 | 96 | 113 | 222 | 372 | 1620 | 4470 | 4930 | 7200 | 8790 |
| 2026-04-18 19:00 | 4.73 | 1640 | 9250 (2013) | 90 (2014) | 2550 | 96 | 113 | 222 | 372 | 1620 | 4470 | 4930 | 7200 | 8790 |
| 2026-04-18 18:30 | 4.84 | 1750 | 9250 (2013) | 90 (2014) | 2550 | 96 | 113 | 222 | 372 | 1620 | 4470 | 4930 | 7200 | 8790 |
| 2026-04-18 18:00 | 4.94 | 1860 | 9250 (2013) | 90 (2014) | 2550 | 96 | 113 | 222 | 372 | 1620 | 4470 | 4930 | 7200 | 8790 |
| 2026-04-18 17:30 | 5.07 | 2010 | 9250 (2013) | 90 (2014) | 2550 | 96 | 113 | 222 | 372 | 1620 | 4470 | 4930 | 7200 | 8790 |
| 2026-04-18 17:00 | 5.20 | 2150 | 9250 (2013) | 90 (2014) | 2550 | 96 | 113 | 222 | 372 | 1620 | 4470 | 4930 | 7200 | 8790 |
| 2026-04-18 16:30 | 5.34 | 2270 | 9250 (2013) | 90 (2014) | 2550 | 96 | 113 | 222 | 372 | 1620 | 4470 | 4930 | 7200 | 8790 |
| 2026-04-18 16:00 | 5.49 | 2420 | 9250 (2013) | 90 (2014) | 2550 | 96 | 113 | 222 | 372 | 1620 | 4470 | 4930 | 7200 | 8790 |
| 2026-04-18 15:30 | 5.66 | 2580 | 9250 (2013) | 90 (2014) | 2550 | 96 | 113 | 222 | 372 | 1620 | 4470 | 4930 | 7200 | 8790 |
| 2026-04-18 15:00 | 5.84 | 2760 | 9250 (2013) | 90 (2014) | 2550 | 96 | 113 | 222 | 372 | 1620 | 4470 | 4930 | 7200 | 8790 |
| 2026-04-18 14:30 | 6.01 | 2940 | 9250 (2013) | 90 (2014) | 2550 | 96 | 113 | 222 | 372 | 1620 | 4470 | 4930 | 7200 | 8790 |
| 2026-04-18 14:00 | 6.22 | 3160 | 9250 (2013) | 90 (2014) | 2550 | 96 | 113 | 222 | 372 | 1620 | 4470 | 4930 | 7200 | 8790 |
| 2026-04-18 13:30 | 6.45 | 3410 | 9250 (2013) | 90 (2014) | 2550 | 96 | 113 | 222 | 372 | 1620 | 4470 | 4930 | 7200 | 8790 |
| 2026-04-18 13:00 | 6.64 | 3620 | 9250 (2013) | 90 (2014) | 2550 | 96 | 113 | 222 | 372 | 1620 | 4470 | 4930 | 7200 | 8790 |
| 2026-04-18 12:30 | 6.87 | 3890 | 9250 (2013) | 90 (2014) | 2550 | 96 | 113 | 222 | 372 | 1620 | 4470 | 4930 | 7200 | 8790 |
| 2026-04-18 12:00 | 7.07 | 4130 | 9250 (2013) | 90 (2014) | 2550 | 96 | 113 | 222 | 372 | 1620 | 4470 | 4930 | 7200 | 8790 |
| 2026-04-18 11:30 | 7.25 | 4350 | 9250 (2013) | 90 (2014) | 2550 | 96 | 113 | 222 | 372 | 1620 | 4470 | 4930 | 7200 | 8790 |
| 2026-04-18 11:00 | 7.46 | 4580 | 9250 (2013) | 90 (2014) | 2550 | 96 | 113 | 222 | 372 | 1620 | 4470 | 4930 | 7200 | 8790 |
| 2026-04-18 10:30 | 7.61 | 4740 | 9250 (2013) | 90 (2014) | 2550 | 96 | 113 | 222 | 372 | 1620 | 4470 | 4930 | 7200 | 8790 |
| 2026-04-18 10:00 | 7.74 | 4890 | 9250 (2013) | 90 (2014) | 2550 | 96 | 113 | 222 | 372 | 1620 | 4470 | 4930 | 7200 | 8790 |
| 2026-04-18 09:30 | 7.86 | 5020 | 9250 (2013) | 90 (2014) | 2550 | 96 | 113 | 222 | 372 | 1620 | 4470 | 4930 | 7200 | 8790 |
| 2026-04-18 09:00 | 7.90 | 5070 | 9250 (2013) | 90 (2014) | 2550 | 96 | 113 | 222 | 372 | 1620 | 4470 | 4930 | 7200 | 8790 |
| 2026-04-18 08:30 | 7.96 | 5140 | 9250 (2013) | 90 (2014) | 2550 | 96 | 113 | 222 | 372 | 1620 | 4470 | 4930 | 7200 | 8790 |
| 2026-04-18 08:00 | 7.98 | 5160 | 9250 (2013) | 90 (2014) | 2550 | 96 | 113 | 222 | 372 | 1620 | 4470 | 4930 | 7200 | 8790 |
| 2026-04-18 07:30 | 7.99 | 5170 | 9250 (2013) | 90 (2014) | 2550 | 96 | 113 | 222 | 372 | 1620 | 4470 | 4930 | 7200 | 8790 |
| 2026-04-18 07:00 | 7.98 | 5160 | 9250 (2013) | 90 (2014) | 2550 | 96 | 113 | 222 | 372 | 1620 | 4470 | 4930 | 7200 | 8790 |
| 2026-04-18 06:30 | 7.98 | 5160 | 9250 (2013) | 90 (2014) | 2550 | 96 | 113 | 222 | 372 | 1620 | 4470 | 4930 | 7200 | 8790 |
| 2026-04-18 06:00 | 7.97 | 5150 | 9250 (2013) | 90 (2014) | 2550 | 96 | 113 | 222 | 372 | 1620 | 4470 | 4930 | 7200 | 8790 |
| 2026-04-18 05:30 | 7.97 | 5150 | 9250 (2013) | 90 (2014) | 2550 | 96 | 113 | 222 | 372 | 1620 | 4470 | 4930 | 7200 | 8790 |
| 2026-04-18 05:00 | 7.97 | 5150 | 9250 (2013) | 90 (2014) | 2550 | 96 | 113 | 222 | 372 | 1620 | 4470 | 4930 | 7200 | 8790 |
| 2026-04-18 04:30 | 7.95 | 5130 | 9250 (2013) | 90 (2014) | 2550 | 96 | 113 | 222 | 372 | 1620 | 4470 | 4930 | 7200 | 8790 |
| 2026-04-18 04:00 | 7.93 | 5100 | 9250 (2013) | 90 (2014) | 2550 | 96 | 113 | 222 | 372 | 1620 | 4470 | 4930 | 7200 | 8790 |
| 2026-04-18 03:30 | 7.91 | 5080 | 9250 (2013) | 90 (2014) | 2550 | 96 | 113 | 222 | 372 | 1620 | 4470 | 4930 | 7200 | 8790 |
| 2026-04-18 03:00 | 7.91 | 5080 | 9250 (2013) | 90 (2014) | 2550 | 96 | 113 | 222 | 372 | 1620 | 4470 | 4930 | 7200 | 8790 |
| 2026-04-18 02:30 | 7.89 | 5060 | 9250 (2013) | 90 (2014) | 2550 | 96 | 113 | 222 | 372 | 1620 | 4470 | 4930 | 7200 | 8790 |
| 2026-04-18 02:00 | 7.86 | 5020 | 9250 (2013) | 90 (2014) | 2550 | 96 | 113 | 222 | 372 | 1620 | 4470 | 4930 | 7200 | 8790 |
| 2026-04-18 01:30 | 7.84 | 5000 | 9250 (2013) | 90 (2014) | 2550 | 96 | 113 | 222 | 372 | 1620 | 4470 | 4930 | 7200 | 8790 |
| 2026-04-18 01:00 | 7.85 | 5010 | 9250 (2013) | 90 (2014) | 2550 | 96 | 113 | 222 | 372 | 1620 | 4470 | 4930 | 7200 | 8790 |
| 2026-04-18 00:30 | 7.84 | 5000 | 9250 (2013) | 90 (2014) | 2550 | 96 | 113 | 222 | 372 | 1620 | 4470 | 4930 | 7200 | 8790 |
| 2026-04-18 00:00 | 7.82 | 4980 | 9250 (2013) | 90 (2014) | 2550 | 96 | 113 | 222 | 372 | 1620 | 4470 | 4930 | 7200 | 8790 |
| 2026-04-17 23:30 | 7.84 | 5000 | 9250 (2013) | 90 (2014) | 2550 | 96 | 113 | 222 | 372 | 1620 | 4470 | 4930 | 7200 | 8790 |
| 2026-04-17 23:00 | 7.82 | 4980 | 9250 (2013) | 90 (2014) | 2550 | 96 | 113 | 222 | 372 | 1620 | 4470 | 4930 | 7200 | 8790 |
| 2026-04-17 22:30 | 7.83 | 4990 | 8630 (1994) | 79 (2006) | 2350 | 95 | 119 | 168 | 500 | 1580 | 3530 | 4360 | 6630 | 8130 |
| 2026-04-17 22:00 | 7.82 | 4980 | 8630 (1994) | 79 (2006) | 2350 | 95 | 119 | 168 | 500 | 1580 | 3530 | 4360 | 6630 | 8130 |
| 2026-04-17 21:30 | 7.80 | 4960 | 8630 (1994) | 79 (2006) | 2350 | 95 | 119 | 168 | 500 | 1580 | 3530 | 4360 | 6630 | 8130 |
| 2026-04-17 21:00 | 7.81 | 4970 | 8630 (1994) | 79 (2006) | 2350 | 95 | 119 | 168 | 500 | 1580 | 3530 | 4360 | 6630 | 8130 |
| 2026-04-17 20:30 | 7.78 | 4930 | 8630 (1994) | 79 (2006) | 2350 | 95 | 119 | 168 | 500 | 1580 | 3530 | 4360 | 6630 | 8130 |
| 2026-04-17 20:00 | 7.78 | 4930 | 8630 (1994) | 79 (2006) | 2350 | 95 | 119 | 168 | 500 | 1580 | 3530 | 4360 | 6630 | 8130 |
| 2026-04-17 19:30 | 7.77 | 4920 | 8630 (1994) | 79 (2006) | 2350 | 95 | 119 | 168 | 500 | 1580 | 3530 | 4360 | 6630 | 8130 |
| 2026-04-17 19:00 | 7.78 | 4930 | 8630 (1994) | 79 (2006) | 2350 | 95 | 119 | 168 | 500 | 1580 | 3530 | 4360 | 6630 | 8130 |
| 2026-04-17 18:30 | 7.79 | 4940 | 8630 (1994) | 79 (2006) | 2350 | 95 | 119 | 168 | 500 | 1580 | 3530 | 4360 | 6630 | 8130 |
| 2026-04-17 18:00 | 7.78 | 4930 | 8630 (1994) | 79 (2006) | 2350 | 95 | 119 | 168 | 500 | 1580 | 3530 | 4360 | 6630 | 8130 |
| 2026-04-17 17:30 | 7.80 | 4960 | 8630 (1994) | 79 (2006) | 2350 | 95 | 119 | 168 | 500 | 1580 | 3530 | 4360 | 6630 | 8130 |
| 2026-04-17 17:00 | 7.78 | 4930 | 8630 (1994) | 79 (2006) | 2350 | 95 | 119 | 168 | 500 | 1580 | 3530 | 4360 | 6630 | 8130 |
| 2026-04-17 16:30 | 7.78 | 4930 | 8630 (1994) | 79 (2006) | 2350 | 95 | 119 | 168 | 500 | 1580 | 3530 | 4360 | 6630 | 8130 |
| 2026-04-17 16:00 | 7.80 | 4960 | 8630 (1994) | 79 (2006) | 2350 | 95 | 119 | 168 | 500 | 1580 | 3530 | 4360 | 6630 | 8130 |
| 2026-04-17 15:30 | 7.76 | 4910 | 8630 (1994) | 79 (2006) | 2350 | 95 | 119 | 168 | 500 | 1580 | 3530 | 4360 | 6630 | 8130 |
| 2026-04-17 15:00 | 7.79 | 4940 | 8630 (1994) | 79 (2006) | 2350 | 95 | 119 | 168 | 500 | 1580 | 3530 | 4360 | 6630 | 8130 |
| 2026-04-17 14:30 | 7.79 | 4940 | 8630 (1994) | 79 (2006) | 2350 | 95 | 119 | 168 | 500 | 1580 | 3530 | 4360 | 6630 | 8130 |
| 2026-04-17 14:00 | 7.80 | 4960 | 8630 (1994) | 79 (2006) | 2350 | 95 | 119 | 168 | 500 | 1580 | 3530 | 4360 | 6630 | 8130 |
| 2026-04-17 13:30 | 7.80 | 4960 | 8630 (1994) | 79 (2006) | 2350 | 95 | 119 | 168 | 500 | 1580 | 3530 | 4360 | 6630 | 8130 |
| 2026-04-17 13:00 | 7.78 | 4930 | 8630 (1994) | 79 (2006) | 2350 | 95 | 119 | 168 | 500 | 1580 | 3530 | 4360 | 6630 | 8130 |
| 2026-04-17 12:30 | 7.78 | 4930 | 8630 (1994) | 79 (2006) | 2350 | 95 | 119 | 168 | 500 | 1580 | 3530 | 4360 | 6630 | 8130 |
| 2026-04-17 12:00 | 7.80 | 4960 | 8630 (1994) | 79 (2006) | 2350 | 95 | 119 | 168 | 500 | 1580 | 3530 | 4360 | 6630 | 8130 |
| 2026-04-17 11:30 | 7.78 | 4930 | 8630 (1994) | 79 (2006) | 2350 | 95 | 119 | 168 | 500 | 1580 | 3530 | 4360 | 6630 | 8130 |
| 2026-04-17 11:00 | 7.79 | 4940 | 8630 (1994) | 79 (2006) | 2350 | 95 | 119 | 168 | 500 | 1580 | 3530 | 4360 | 6630 | 8130 |
| 2026-04-17 10:30 | 7.78 | 4930 | 8630 (1994) | 79 (2006) | 2350 | 95 | 119 | 168 | 500 | 1580 | 3530 | 4360 | 6630 | 8130 |
| 2026-04-17 10:00 | 7.78 | 4930 | 8630 (1994) | 79 (2006) | 2350 | 95 | 119 | 168 | 500 | 1580 | 3530 | 4360 | 6630 | 8130 |
| 2026-04-17 09:30 | 7.79 | 4940 | 8630 (1994) | 79 (2006) | 2350 | 95 | 119 | 168 | 500 | 1580 | 3530 | 4360 | 6630 | 8130 |
| 2026-04-17 09:00 | 7.80 | 4960 | 8630 (1994) | 79 (2006) | 2350 | 95 | 119 | 168 | 500 | 1580 | 3530 | 4360 | 6630 | 8130 |
| 2026-04-17 08:30 | 7.77 | 4920 | 8630 (1994) | 79 (2006) | 2350 | 95 | 119 | 168 | 500 | 1580 | 3530 | 4360 | 6630 | 8130 |
| 2026-04-17 08:00 | 7.78 | 4930 | 8630 (1994) | 79 (2006) | 2350 | 95 | 119 | 168 | 500 | 1580 | 3530 | 4360 | 6630 | 8130 |
| 2026-04-17 07:30 | 7.78 | 4930 | 8630 (1994) | 79 (2006) | 2350 | 95 | 119 | 168 | 500 | 1580 | 3530 | 4360 | 6630 | 8130 |
| 2026-04-17 07:00 | 7.78 | 4930 | 8630 (1994) | 79 (2006) | 2350 | 95 | 119 | 168 | 500 | 1580 | 3530 | 4360 | 6630 | 8130 |
| 2026-04-17 06:30 | 7.78 | 4930 | 8630 (1994) | 79 (2006) | 2350 | 95 | 119 | 168 | 500 | 1580 | 3530 | 4360 | 6630 | 8130 |
| 2026-04-17 06:00 | 7.78 | 4930 | 8630 (1994) | 79 (2006) | 2350 | 95 | 119 | 168 | 500 | 1580 | 3530 | 4360 | 6630 | 8130 |
| 2026-04-17 05:30 | 7.77 | 4920 | 8630 (1994) | 79 (2006) | 2350 | 95 | 119 | 168 | 500 | 1580 | 3530 | 4360 | 6630 | 8130 |
| 2026-04-17 05:00 | 7.78 | 4930 | 8630 (1994) | 79 (2006) | 2350 | 95 | 119 | 168 | 500 | 1580 | 3530 | 4360 | 6630 | 8130 |
| 2026-04-17 04:30 | 7.77 | 4920 | 8630 (1994) | 79 (2006) | 2350 | 95 | 119 | 168 | 500 | 1580 | 3530 | 4360 | 6630 | 8130 |
| 2026-04-17 04:00 | 7.74 | 4890 | 8630 (1994) | 79 (2006) | 2350 | 95 | 119 | 168 | 500 | 1580 | 3530 | 4360 | 6630 | 8130 |
| 2026-04-17 03:30 | 7.76 | 4910 | 8630 (1994) | 79 (2006) | 2350 | 95 | 119 | 168 | 500 | 1580 | 3530 | 4360 | 6630 | 8130 |
| 2026-04-17 03:00 | 7.77 | 4920 | 8630 (1994) | 79 (2006) | 2350 | 95 | 119 | 168 | 500 | 1580 | 3530 | 4360 | 6630 | 8130 |
| 2026-04-17 02:30 | 7.78 | 4930 | 8630 (1994) | 79 (2006) | 2350 | 95 | 119 | 168 | 500 | 1580 | 3530 | 4360 | 6630 | 8130 |
| 2026-04-17 02:00 | 7.78 | 4930 | 8630 (1994) | 79 (2006) | 2350 | 95 | 119 | 168 | 500 | 1580 | 3530 | 4360 | 6630 | 8130 |
| 2026-04-17 01:30 | 7.78 | 4930 | 8630 (1994) | 79 (2006) | 2350 | 95 | 119 | 168 | 500 | 1580 | 3530 | 4360 | 6630 | 8130 |
| 2026-04-17 01:00 | 7.76 | 4910 | 8630 (1994) | 79 (2006) | 2350 | 95 | 119 | 168 | 500 | 1580 | 3530 | 4360 | 6630 | 8130 |
| 2026-04-17 00:30 | 7.75 | 4900 | 8630 (1994) | 79 (2006) | 2350 | 95 | 119 | 168 | 500 | 1580 | 3530 | 4360 | 6630 | 8130 |
| 2026-04-17 00:00 | 7.78 | 4930 | 8630 (1994) | 79 (2006) | 2350 | 95 | 119 | 168 | 500 | 1580 | 3530 | 4360 | 6630 | 8130 |
| 2026-04-16 23:30 | 7.76 | 4910 | 8630 (1994) | 79 (2006) | 2350 | 95 | 119 | 168 | 500 | 1580 | 3530 | 4360 | 6630 | 8130 |
| 2026-04-16 23:00 | 7.78 | 4930 | 8630 (1994) | 79 (2006) | 2350 | 95 | 119 | 168 | 500 | 1580 | 3530 | 4360 | 6630 | 8130 |
| 2026-04-16 22:30 | 7.79 | 4940 | 8380 (2021) | 53 (2003) | 2160 | 87 | 93 | 222 | 435 | 1550 | 3290 | 3540 | 6070 | 7370 |
| 2026-04-16 22:00 | 7.78 | 4930 | 8380 (2021) | 53 (2003) | 2160 | 87 | 93 | 222 | 435 | 1550 | 3290 | 3540 | 6070 | 7370 |
| 2026-04-16 21:30 | 7.78 | 4930 | 8380 (2021) | 53 (2003) | 2160 | 87 | 93 | 222 | 435 | 1550 | 3290 | 3540 | 6070 | 7370 |
| 2026-04-16 21:00 | 7.77 | 4920 | 8380 (2021) | 53 (2003) | 2160 | 87 | 93 | 222 | 435 | 1550 | 3290 | 3540 | 6070 | 7370 |
| 2026-04-16 20:30 | 7.79 | 4940 | 8380 (2021) | 53 (2003) | 2160 | 87 | 93 | 222 | 435 | 1550 | 3290 | 3540 | 6070 | 7370 |
| 2026-04-16 20:00 | 7.77 | 4920 | 8380 (2021) | 53 (2003) | 2160 | 87 | 93 | 222 | 435 | 1550 | 3290 | 3540 | 6070 | 7370 |
| 2026-04-16 19:30 | 7.78 | 4930 | 8380 (2021) | 53 (2003) | 2160 | 87 | 93 | 222 | 435 | 1550 | 3290 | 3540 | 6070 | 7370 |
| 2026-04-16 19:00 | 7.78 | 4930 | 8380 (2021) | 53 (2003) | 2160 | 87 | 93 | 222 | 435 | 1550 | 3290 | 3540 | 6070 | 7370 |
| 2026-04-16 18:30 | 7.77 | 4920 | 8380 (2021) | 53 (2003) | 2160 | 87 | 93 | 222 | 435 | 1550 | 3290 | 3540 | 6070 | 7370 |
| 2026-04-16 18:00 | 7.78 | 4930 | 8380 (2021) | 53 (2003) | 2160 | 87 | 93 | 222 | 435 | 1550 | 3290 | 3540 | 6070 | 7370 |
| 2026-04-16 17:30 | 7.77 | 4920 | 8380 (2021) | 53 (2003) | 2160 | 87 | 93 | 222 | 435 | 1550 | 3290 | 3540 | 6070 | 7370 |
| 2026-04-16 17:00 | 7.79 | 4940 | 8380 (2021) | 53 (2003) | 2160 | 87 | 93 | 222 | 435 | 1550 | 3290 | 3540 | 6070 | 7370 |
| 2026-04-16 16:30 | 7.78 | 4930 | 8380 (2021) | 53 (2003) | 2160 | 87 | 93 | 222 | 435 | 1550 | 3290 | 3540 | 6070 | 7370 |
| 2026-04-16 16:00 | 7.78 | 4930 | 8380 (2021) | 53 (2003) | 2160 | 87 | 93 | 222 | 435 | 1550 | 3290 | 3540 | 6070 | 7370 |
| 2026-04-16 15:30 | 7.79 | 4940 | 8380 (2021) | 53 (2003) | 2160 | 87 | 93 | 222 | 435 | 1550 | 3290 | 3540 | 6070 | 7370 |
| 2026-04-16 15:00 | 7.79 | 4940 | 8380 (2021) | 53 (2003) | 2160 | 87 | 93 | 222 | 435 | 1550 | 3290 | 3540 | 6070 | 7370 |
| 2026-04-16 14:30 | 7.78 | 4930 | 8380 (2021) | 53 (2003) | 2160 | 87 | 93 | 222 | 435 | 1550 | 3290 | 3540 | 6070 | 7370 |
| 2026-04-16 14:00 | 7.76 | 4910 | 8380 (2021) | 53 (2003) | 2160 | 87 | 93 | 222 | 435 | 1550 | 3290 | 3540 | 6070 | 7370 |
| 2026-04-16 13:30 | 7.78 | 4930 | 8380 (2021) | 53 (2003) | 2160 | 87 | 93 | 222 | 435 | 1550 | 3290 | 3540 | 6070 | 7370 |
| 2026-04-16 13:00 | 7.78 | 4930 | 8380 (2021) | 53 (2003) | 2160 | 87 | 93 | 222 | 435 | 1550 | 3290 | 3540 | 6070 | 7370 |
| 2026-04-16 12:30 | 7.76 | 4910 | 8380 (2021) | 53 (2003) | 2160 | 87 | 93 | 222 | 435 | 1550 | 3290 | 3540 | 6070 | 7370 |
| 2026-04-16 12:00 | 7.79 | 4940 | 8380 (2021) | 53 (2003) | 2160 | 87 | 93 | 222 | 435 | 1550 | 3290 | 3540 | 6070 | 7370 |
| 2026-04-16 11:30 | 7.78 | 4930 | 8380 (2021) | 53 (2003) | 2160 | 87 | 93 | 222 | 435 | 1550 | 3290 | 3540 | 6070 | 7370 |
| 2026-04-16 11:00 | 7.78 | 4930 | 8380 (2021) | 53 (2003) | 2160 | 87 | 93 | 222 | 435 | 1550 | 3290 | 3540 | 6070 | 7370 |
| 2026-04-16 10:30 | 7.77 | 4920 | 8380 (2021) | 53 (2003) | 2160 | 87 | 93 | 222 | 435 | 1550 | 3290 | 3540 | 6070 | 7370 |
| 2026-04-16 10:00 | 7.80 | 4960 | 8380 (2021) | 53 (2003) | 2160 | 87 | 93 | 222 | 435 | 1550 | 3290 | 3540 | 6070 | 7370 |
| 2026-04-16 09:30 | 7.77 | 4920 | 8380 (2021) | 53 (2003) | 2160 | 87 | 93 | 222 | 435 | 1550 | 3290 | 3540 | 6070 | 7370 |
| 2026-04-16 09:00 | 7.77 | 4920 | 8380 (2021) | 53 (2003) | 2160 | 87 | 93 | 222 | 435 | 1550 | 3290 | 3540 | 6070 | 7370 |
| 2026-04-16 08:30 | 7.79 | 4940 | 8380 (2021) | 53 (2003) | 2160 | 87 | 93 | 222 | 435 | 1550 | 3290 | 3540 | 6070 | 7370 |
| 2026-04-16 08:00 | 7.78 | 4930 | 8380 (2021) | 53 (2003) | 2160 | 87 | 93 | 222 | 435 | 1550 | 3290 | 3540 | 6070 | 7370 |
| 2026-04-16 07:30 | 7.80 | 4960 | 8380 (2021) | 53 (2003) | 2160 | 87 | 93 | 222 | 435 | 1550 | 3290 | 3540 | 6070 | 7370 |
| 2026-04-16 07:00 | 7.80 | 4960 | 8380 (2021) | 53 (2003) | 2160 | 87 | 93 | 222 | 435 | 1550 | 3290 | 3540 | 6070 | 7370 |
| 2026-04-16 06:30 | 7.82 | 4980 | 8380 (2021) | 53 (2003) | 2160 | 87 | 93 | 222 | 435 | 1550 | 3290 | 3540 | 6070 | 7370 |
| 2026-04-16 06:00 | 7.80 | 4960 | 8380 (2021) | 53 (2003) | 2160 | 87 | 93 | 222 | 435 | 1550 | 3290 | 3540 | 6070 | 7370 |
| 2026-04-16 05:30 | 7.81 | 4970 | 8380 (2021) | 53 (2003) | 2160 | 87 | 93 | 222 | 435 | 1550 | 3290 | 3540 | 6070 | 7370 |
| 2026-04-16 05:00 | 7.82 | 4980 | 8380 (2021) | 53 (2003) | 2160 | 87 | 93 | 222 | 435 | 1550 | 3290 | 3540 | 6070 | 7370 |
| 2026-04-16 04:30 | 7.82 | 4980 | 8380 (2021) | 53 (2003) | 2160 | 87 | 93 | 222 | 435 | 1550 | 3290 | 3540 | 6070 | 7370 |
| 2026-04-16 04:00 | 7.81 | 4970 | 8380 (2021) | 53 (2003) | 2160 | 87 | 93 | 222 | 435 | 1550 | 3290 | 3540 | 6070 | 7370 |
| 2026-04-16 03:30 | 7.81 | 4970 | 8380 (2021) | 53 (2003) | 2160 | 87 | 93 | 222 | 435 | 1550 | 3290 | 3540 | 6070 | 7370 |
| 2026-04-16 03:00 | 7.81 | 4970 | 8380 (2021) | 53 (2003) | 2160 | 87 | 93 | 222 | 435 | 1550 | 3290 | 3540 | 6070 | 7370 |
| 2026-04-16 02:30 | 7.82 | 4980 | 8380 (2021) | 53 (2003) | 2160 | 87 | 93 | 222 | 435 | 1550 | 3290 | 3540 | 6070 | 7370 |
| 2026-04-16 02:00 | 7.82 | 4980 | 8380 (2021) | 53 (2003) | 2160 | 87 | 93 | 222 | 435 | 1550 | 3290 | 3540 | 6070 | 7370 |
| 2026-04-16 01:30 | 7.81 | 4970 | 8380 (2021) | 53 (2003) | 2160 | 87 | 93 | 222 | 435 | 1550 | 3290 | 3540 | 6070 | 7370 |
| 2026-04-16 01:00 | 7.79 | 4940 | 8380 (2021) | 53 (2003) | 2160 | 87 | 93 | 222 | 435 | 1550 | 3290 | 3540 | 6070 | 7370 |
| 2026-04-16 00:30 | 7.80 | 4960 | 8380 (2021) | 53 (2003) | 2160 | 87 | 93 | 222 | 435 | 1550 | 3290 | 3540 | 6070 | 7370 |
| 2026-04-16 00:00 | 7.81 | 4970 | 8380 (2021) | 53 (2003) | 2160 | 87 | 93 | 222 | 435 | 1550 | 3290 | 3540 | 6070 | 7370 |
| 2026-04-15 23:30 | 7.80 | 4960 | 8380 (2021) | 53 (2003) | 2160 | 87 | 93 | 222 | 435 | 1550 | 3290 | 3540 | 6070 | 7370 |
| 2026-04-15 23:00 | 7.79 | 4940 | 8380 (2021) | 53 (2003) | 2160 | 87 | 93 | 222 | 435 | 1550 | 3290 | 3540 | 6070 | 7370 |
| 2026-04-15 22:30 | 7.79 | 4940 | 8450 (2021) | 52 (2003) | 2130 | 78 | 135 | 280 | 379 | 1640 | 3510 | 3860 | 5950 | 7310 |
| 2026-04-15 22:00 | 7.81 | 4970 | 8450 (2021) | 52 (2003) | 2130 | 78 | 135 | 280 | 379 | 1640 | 3510 | 3860 | 5950 | 7310 |
| 2026-04-15 21:30 | 7.81 | 4970 | 8450 (2021) | 52 (2003) | 2130 | 78 | 135 | 280 | 379 | 1640 | 3510 | 3860 | 5950 | 7310 |
| 2026-04-15 21:00 | 7.80 | 4960 | 8450 (2021) | 52 (2003) | 2130 | 78 | 135 | 280 | 379 | 1640 | 3510 | 3860 | 5950 | 7310 |
| 2026-04-15 20:30 | 7.79 | 4940 | 8450 (2021) | 52 (2003) | 2130 | 78 | 135 | 280 | 379 | 1640 | 3510 | 3860 | 5950 | 7310 |
| 2026-04-15 20:00 | 7.78 | 4930 | 8450 (2021) | 52 (2003) | 2130 | 78 | 135 | 280 | 379 | 1640 | 3510 | 3860 | 5950 | 7310 |
| 2026-04-15 19:30 | 7.76 | 4910 | 8450 (2021) | 52 (2003) | 2130 | 78 | 135 | 280 | 379 | 1640 | 3510 | 3860 | 5950 | 7310 |
| 2026-04-15 19:00 | 7.78 | 4930 | 8450 (2021) | 52 (2003) | 2130 | 78 | 135 | 280 | 379 | 1640 | 3510 | 3860 | 5950 | 7310 |
| 2026-04-15 18:30 | 7.77 | 4920 | 8450 (2021) | 52 (2003) | 2130 | 78 | 135 | 280 | 379 | 1640 | 3510 | 3860 | 5950 | 7310 |
| 2026-04-15 18:00 | 7.75 | 4900 | 8450 (2021) | 52 (2003) | 2130 | 78 | 135 | 280 | 379 | 1640 | 3510 | 3860 | 5950 | 7310 |
| 2026-04-15 17:30 | 7.75 | 4900 | 8450 (2021) | 52 (2003) | 2130 | 78 | 135 | 280 | 379 | 1640 | 3510 | 3860 | 5950 | 7310 |
| 2026-04-15 17:00 | 7.75 | 4900 | 8450 (2021) | 52 (2003) | 2130 | 78 | 135 | 280 | 379 | 1640 | 3510 | 3860 | 5950 | 7310 |
| 2026-04-15 16:30 | 7.75 | 4900 | 8450 (2021) | 52 (2003) | 2130 | 78 | 135 | 280 | 379 | 1640 | 3510 | 3860 | 5950 | 7310 |
| 2026-04-15 16:00 | 7.75 | 4900 | 8450 (2021) | 52 (2003) | 2130 | 78 | 135 | 280 | 379 | 1640 | 3510 | 3860 | 5950 | 7310 |
| 2026-04-15 15:30 | 7.75 | 4900 | 8450 (2021) | 52 (2003) | 2130 | 78 | 135 | 280 | 379 | 1640 | 3510 | 3860 | 5950 | 7310 |
| 2026-04-15 15:00 | 7.75 | 4900 | 8450 (2021) | 52 (2003) | 2130 | 78 | 135 | 280 | 379 | 1640 | 3510 | 3860 | 5950 | 7310 |
| 2026-04-15 14:30 | 7.75 | 4900 | 8450 (2021) | 52 (2003) | 2130 | 78 | 135 | 280 | 379 | 1640 | 3510 | 3860 | 5950 | 7310 |
| 2026-04-15 14:00 | 7.75 | 4900 | 8450 (2021) | 52 (2003) | 2130 | 78 | 135 | 280 | 379 | 1640 | 3510 | 3860 | 5950 | 7310 |
| 2026-04-15 13:30 | 7.75 | 4900 | 8450 (2021) | 52 (2003) | 2130 | 78 | 135 | 280 | 379 | 1640 | 3510 | 3860 | 5950 | 7310 |
| 2026-04-15 13:00 | 7.73 | 4880 | 8450 (2021) | 52 (2003) | 2130 | 78 | 135 | 280 | 379 | 1640 | 3510 | 3860 | 5950 | 7310 |
| 2026-04-15 12:30 | 7.74 | 4890 | 8450 (2021) | 52 (2003) | 2130 | 78 | 135 | 280 | 379 | 1640 | 3510 | 3860 | 5950 | 7310 |
| 2026-04-15 12:00 | 7.74 | 4890 | 8450 (2021) | 52 (2003) | 2130 | 78 | 135 | 280 | 379 | 1640 | 3510 | 3860 | 5950 | 7310 |
| 2026-04-15 11:30 | 7.76 | 4910 | 8450 (2021) | 52 (2003) | 2130 | 78 | 135 | 280 | 379 | 1640 | 3510 | 3860 | 5950 | 7310 |
| 2026-04-15 11:00 | 7.75 | 4900 | 8450 (2021) | 52 (2003) | 2130 | 78 | 135 | 280 | 379 | 1640 | 3510 | 3860 | 5950 | 7310 |
| 2026-04-15 10:30 | 7.73 | 4880 | 8450 (2021) | 52 (2003) | 2130 | 78 | 135 | 280 | 379 | 1640 | 3510 | 3860 | 5950 | 7310 |
| 2026-04-15 10:00 | 7.74 | 4890 | 8450 (2021) | 52 (2003) | 2130 | 78 | 135 | 280 | 379 | 1640 | 3510 | 3860 | 5950 | 7310 |
| 2026-04-15 09:30 | 7.74 | 4890 | 8450 (2021) | 52 (2003) | 2130 | 78 | 135 | 280 | 379 | 1640 | 3510 | 3860 | 5950 | 7310 |
| 2026-04-15 09:00 | 7.74 | 4890 | 8450 (2021) | 52 (2003) | 2130 | 78 | 135 | 280 | 379 | 1640 | 3510 | 3860 | 5950 | 7310 |
| 2026-04-15 08:30 | 7.74 | 4890 | 8450 (2021) | 52 (2003) | 2130 | 78 | 135 | 280 | 379 | 1640 | 3510 | 3860 | 5950 | 7310 |
| 2026-04-15 08:00 | 7.75 | 4900 | 8450 (2021) | 52 (2003) | 2130 | 78 | 135 | 280 | 379 | 1640 | 3510 | 3860 | 5950 | 7310 |
| 2026-04-15 07:30 | 7.72 | 4870 | 8450 (2021) | 52 (2003) | 2130 | 78 | 135 | 280 | 379 | 1640 | 3510 | 3860 | 5950 | 7310 |
| 2026-04-15 07:00 | 7.73 | 4880 | 8450 (2021) | 52 (2003) | 2130 | 78 | 135 | 280 | 379 | 1640 | 3510 | 3860 | 5950 | 7310 |
| 2026-04-15 06:30 | 7.73 | 4880 | 8450 (2021) | 52 (2003) | 2130 | 78 | 135 | 280 | 379 | 1640 | 3510 | 3860 | 5950 | 7310 |
| 2026-04-15 06:00 | 7.73 | 4880 | 8450 (2021) | 52 (2003) | 2130 | 78 | 135 | 280 | 379 | 1640 | 3510 | 3860 | 5950 | 7310 |
| 2026-04-15 05:30 | 7.72 | 4870 | 8450 (2021) | 52 (2003) | 2130 | 78 | 135 | 280 | 379 | 1640 | 3510 | 3860 | 5950 | 7310 |
| 2026-04-15 05:00 | 7.72 | 4870 | 8450 (2021) | 52 (2003) | 2130 | 78 | 135 | 280 | 379 | 1640 | 3510 | 3860 | 5950 | 7310 |
| 2026-04-15 04:30 | 7.73 | 4880 | 8450 (2021) | 52 (2003) | 2130 | 78 | 135 | 280 | 379 | 1640 | 3510 | 3860 | 5950 | 7310 |
| 2026-04-15 04:00 | 7.72 | 4870 | 8450 (2021) | 52 (2003) | 2130 | 78 | 135 | 280 | 379 | 1640 | 3510 | 3860 | 5950 | 7310 |
| 2026-04-15 03:30 | 7.73 | 4880 | 8450 (2021) | 52 (2003) | 2130 | 78 | 135 | 280 | 379 | 1640 | 3510 | 3860 | 5950 | 7310 |
| 2026-04-15 03:00 | 7.73 | 4880 | 8450 (2021) | 52 (2003) | 2130 | 78 | 135 | 280 | 379 | 1640 | 3510 | 3860 | 5950 | 7310 |
| 2026-04-15 02:30 | 7.73 | 4880 | 8450 (2021) | 52 (2003) | 2130 | 78 | 135 | 280 | 379 | 1640 | 3510 | 3860 | 5950 | 7310 |
| 2026-04-15 02:00 | 7.73 | 4880 | 8450 (2021) | 52 (2003) | 2130 | 78 | 135 | 280 | 379 | 1640 | 3510 | 3860 | 5950 | 7310 |
| 2026-04-15 01:30 | 7.72 | 4870 | 8450 (2021) | 52 (2003) | 2130 | 78 | 135 | 280 | 379 | 1640 | 3510 | 3860 | 5950 | 7310 |
| 2026-04-15 01:00 | 7.73 | 4880 | 8450 (2021) | 52 (2003) | 2130 | 78 | 135 | 280 | 379 | 1640 | 3510 | 3860 | 5950 | 7310 |
| 2026-04-15 00:30 | 7.73 | 4880 | 8450 (2021) | 52 (2003) | 2130 | 78 | 135 | 280 | 379 | 1640 | 3510 | 3860 | 5950 | 7310 |
| 2026-04-15 00:00 | 7.72 | 4870 | 8450 (2021) | 52 (2003) | 2130 | 78 | 135 | 280 | 379 | 1640 | 3510 | 3860 | 5950 | 7310 |
| 2026-04-14 23:30 | 7.73 | 4880 | 8450 (2021) | 52 (2003) | 2130 | 78 | 135 | 280 | 379 | 1640 | 3510 | 3860 | 5950 | 7310 |
| 2026-04-14 23:00 | 7.71 | 4860 | 8450 (2021) | 52 (2003) | 2130 | 78 | 135 | 280 | 379 | 1640 | 3510 | 3860 | 5950 | 7310 |
| 2026-04-14 22:30 | 7.72 | 4870 | 8550 (2021) | 56 (2003) | 2350 | 74 | 105 | 244 | 470 | 1610 | 4010 | 4620 | 5590 | 7410 |
| 2026-04-14 22:00 | 7.72 | 4870 | 8550 (2021) | 56 (2003) | 2350 | 74 | 105 | 244 | 470 | 1610 | 4010 | 4620 | 5590 | 7410 |
| 2026-04-14 21:30 | 7.71 | 4860 | 8550 (2021) | 56 (2003) | 2350 | 74 | 105 | 244 | 470 | 1610 | 4010 | 4620 | 5590 | 7410 |
| 2026-04-14 21:00 | 7.71 | 4860 | 8550 (2021) | 56 (2003) | 2350 | 74 | 105 | 244 | 470 | 1610 | 4010 | 4620 | 5590 | 7410 |
| 2026-04-14 20:30 | 7.70 | 4840 | 8550 (2021) | 56 (2003) | 2350 | 74 | 105 | 244 | 470 | 1610 | 4010 | 4620 | 5590 | 7410 |
| 2026-04-14 20:00 | 7.69 | 4830 | 8550 (2021) | 56 (2003) | 2350 | 74 | 105 | 244 | 470 | 1610 | 4010 | 4620 | 5590 | 7410 |
| 2026-04-14 19:30 | 7.67 | 4810 | 8550 (2021) | 56 (2003) | 2350 | 74 | 105 | 244 | 470 | 1610 | 4010 | 4620 | 5590 | 7410 |
| 2026-04-14 19:00 | 7.66 | 4800 | 8550 (2021) | 56 (2003) | 2350 | 74 | 105 | 244 | 470 | 1610 | 4010 | 4620 | 5590 | 7410 |
| 2026-04-14 18:30 | 7.63 | 4770 | 8550 (2021) | 56 (2003) | 2350 | 74 | 105 | 244 | 470 | 1610 | 4010 | 4620 | 5590 | 7410 |
| 2026-04-14 18:00 | 7.64 | 4780 | 8550 (2021) | 56 (2003) | 2350 | 74 | 105 | 244 | 470 | 1610 | 4010 | 4620 | 5590 | 7410 |
| 2026-04-14 17:30 | 7.63 | 4770 | 8550 (2021) | 56 (2003) | 2350 | 74 | 105 | 244 | 470 | 1610 | 4010 | 4620 | 5590 | 7410 |
| 2026-04-14 17:00 | 7.60 | 4730 | 8550 (2021) | 56 (2003) | 2350 | 74 | 105 | 244 | 470 | 1610 | 4010 | 4620 | 5590 | 7410 |
| 2026-04-14 16:30 | 7.58 | 4710 | 8550 (2021) | 56 (2003) | 2350 | 74 | 105 | 244 | 470 | 1610 | 4010 | 4620 | 5590 | 7410 |
| 2026-04-14 16:00 | 7.57 | 4700 | 8550 (2021) | 56 (2003) | 2350 | 74 | 105 | 244 | 470 | 1610 | 4010 | 4620 | 5590 | 7410 |
| 2026-04-14 15:30 | 7.55 | 4680 | 8550 (2021) | 56 (2003) | 2350 | 74 | 105 | 244 | 470 | 1610 | 4010 | 4620 | 5590 | 7410 |
| 2026-04-14 15:00 | 7.55 | 4680 | 8550 (2021) | 56 (2003) | 2350 | 74 | 105 | 244 | 470 | 1610 | 4010 | 4620 | 5590 | 7410 |
| 2026-04-14 14:30 | 7.52 | 4640 | 8550 (2021) | 56 (2003) | 2350 | 74 | 105 | 244 | 470 | 1610 | 4010 | 4620 | 5590 | 7410 |
| 2026-04-14 14:00 | 7.51 | 4630 | 8550 (2021) | 56 (2003) | 2350 | 74 | 105 | 244 | 470 | 1610 | 4010 | 4620 | 5590 | 7410 |
| 2026-04-14 13:30 | 7.51 | 4630 | 8550 (2021) | 56 (2003) | 2350 | 74 | 105 | 244 | 470 | 1610 | 4010 | 4620 | 5590 | 7410 |
| 2026-04-14 13:00 | 7.51 | 4630 | 8550 (2021) | 56 (2003) | 2350 | 74 | 105 | 244 | 470 | 1610 | 4010 | 4620 | 5590 | 7410 |
| 2026-04-14 12:30 | 7.50 | 4620 | 8550 (2021) | 56 (2003) | 2350 | 74 | 105 | 244 | 470 | 1610 | 4010 | 4620 | 5590 | 7410 |
| 2026-04-14 12:00 | 7.49 | 4610 | 8550 (2021) | 56 (2003) | 2350 | 74 | 105 | 244 | 470 | 1610 | 4010 | 4620 | 5590 | 7410 |
| 2026-04-14 10:00 | 7.50 | 4620 | 8550 (2021) | 56 (2003) | 2350 | 74 | 105 | 244 | 470 | 1610 | 4010 | 4620 | 5590 | 7410 |
| 2026-04-14 09:00 | 7.62 | 4760 | 8550 (2021) | 56 (2003) | 2350 | 74 | 105 | 244 | 470 | 1610 | 4010 | 4620 | 5590 | 7410 |
| 2026-04-14 08:30 | 7.69 | 4830 | 8550 (2021) | 56 (2003) | 2350 | 74 | 105 | 244 | 470 | 1610 | 4010 | 4620 | 5590 | 7410 |
| 2026-04-14 08:00 | 7.78 | 4930 | 8550 (2021) | 56 (2003) | 2350 | 74 | 105 | 244 | 470 | 1610 | 4010 | 4620 | 5590 | 7410 |
| 2026-04-14 07:30 | 7.89 | 5060 | 8550 (2021) | 56 (2003) | 2350 | 74 | 105 | 244 | 470 | 1610 | 4010 | 4620 | 5590 | 7410 |
| 2026-04-14 07:00 | 8.00 | 5180 | 8550 (2021) | 56 (2003) | 2350 | 74 | 105 | 244 | 470 | 1610 | 4010 | 4620 | 5590 | 7410 |
| 2026-04-14 06:30 | 8.13 | 5330 | 8550 (2021) | 56 (2003) | 2350 | 74 | 105 | 244 | 470 | 1610 | 4010 | 4620 | 5590 | 7410 |
| 2026-04-14 06:00 | 8.29 | 5520 | 8550 (2021) | 56 (2003) | 2350 | 74 | 105 | 244 | 470 | 1610 | 4010 | 4620 | 5590 | 7410 |
| 2026-04-14 05:30 | 8.41 | 5660 | 8550 (2021) | 56 (2003) | 2350 | 74 | 105 | 244 | 470 | 1610 | 4010 | 4620 | 5590 | 7410 |
| 2026-04-14 05:00 | 8.57 | 5850 | 8550 (2021) | 56 (2003) | 2350 | 74 | 105 | 244 | 470 | 1610 | 4010 | 4620 | 5590 | 7410 |
| 2026-04-14 04:30 | 8.74 | 6050 | 8550 (2021) | 56 (2003) | 2350 | 74 | 105 | 244 | 470 | 1610 | 4010 | 4620 | 5590 | 7410 |
| 2026-04-14 04:00 | 8.88 | 6220 | 8550 (2021) | 56 (2003) | 2350 | 74 | 105 | 244 | 470 | 1610 | 4010 | 4620 | 5590 | 7410 |
| 2026-04-14 03:30 | 8.99 | 6360 | 8550 (2021) | 56 (2003) | 2350 | 74 | 105 | 244 | 470 | 1610 | 4010 | 4620 | 5590 | 7410 |
| 2026-04-14 03:00 | 9.07 | 6460 | 8550 (2021) | 56 (2003) | 2350 | 74 | 105 | 244 | 470 | 1610 | 4010 | 4620 | 5590 | 7410 |
| 2026-04-14 02:30 | 9.14 | 6550 | 8550 (2021) | 56 (2003) | 2350 | 74 | 105 | 244 | 470 | 1610 | 4010 | 4620 | 5590 | 7410 |
| 2026-04-14 02:00 | 9.20 | 6630 | 8550 (2021) | 56 (2003) | 2350 | 74 | 105 | 244 | 470 | 1610 | 4010 | 4620 | 5590 | 7410 |
| 2026-04-14 01:30 | 9.25 | 6700 | 8550 (2021) | 56 (2003) | 2350 | 74 | 105 | 244 | 470 | 1610 | 4010 | 4620 | 5590 | 7410 |
| 2026-04-14 01:00 | 9.29 | 6750 | 8550 (2021) | 56 (2003) | 2350 | 74 | 105 | 244 | 470 | 1610 | 4010 | 4620 | 5590 | 7410 |
| 2026-04-14 00:30 | 9.34 | 6820 | 8550 (2021) | 56 (2003) | 2350 | 74 | 105 | 244 | 470 | 1610 | 4010 | 4620 | 5590 | 7410 |
| 2026-04-14 00:00 | 9.36 | 6850 | 8550 (2021) | 56 (2003) | 2350 | 74 | 105 | 244 | 470 | 1610 | 4010 | 4620 | 5590 | 7410 |
| 2026-04-13 23:30 | 9.41 | 6910 | 8550 (2021) | 56 (2003) | 2350 | 74 | 105 | 244 | 470 | 1610 | 4010 | 4620 | 5590 | 7410 |
| 2026-04-13 23:00 | 9.42 | 6930 | 8550 (2021) | 56 (2003) | 2350 | 74 | 105 | 244 | 470 | 1610 | 4010 | 4620 | 5590 | 7410 |
| 2026-04-13 22:30 | 9.42 | 6930 | 15600 (1983) | 56 (2003) | 2400 | 73 | 87 | 147 | 244 | 1750 | 3090 | 4020 | 6390 | 7760 |
| 2026-04-13 22:00 | 9.41 | 6910 | 15600 (1983) | 56 (2003) | 2400 | 73 | 87 | 147 | 244 | 1750 | 3090 | 4020 | 6390 | 7760 |
| 2026-04-13 21:30 | 9.38 | 6870 | 15600 (1983) | 56 (2003) | 2400 | 73 | 87 | 147 | 244 | 1750 | 3090 | 4020 | 6390 | 7760 |
| 2026-04-13 21:00 | 9.31 | 6780 | 15600 (1983) | 56 (2003) | 2400 | 73 | 87 | 147 | 244 | 1750 | 3090 | 4020 | 6390 | 7760 |
| 2026-04-13 20:30 | 9.26 | 6710 | 15600 (1983) | 56 (2003) | 2400 | 73 | 87 | 147 | 244 | 1750 | 3090 | 4020 | 6390 | 7760 |
| 2026-04-13 20:00 | 9.16 | 6580 | 15600 (1983) | 56 (2003) | 2400 | 73 | 87 | 147 | 244 | 1750 | 3090 | 4020 | 6390 | 7760 |
| 2026-04-13 19:30 | 9.06 | 6450 | 15600 (1983) | 56 (2003) | 2400 | 73 | 87 | 147 | 244 | 1750 | 3090 | 4020 | 6390 | 7760 |
| 2026-04-13 19:00 | 8.96 | 6320 | 15600 (1983) | 56 (2003) | 2400 | 73 | 87 | 147 | 244 | 1750 | 3090 | 4020 | 6390 | 7760 |
| 2026-04-13 18:30 | 8.81 | 6140 | 15600 (1983) | 56 (2003) | 2400 | 73 | 87 | 147 | 244 | 1750 | 3090 | 4020 | 6390 | 7760 |
| 2026-04-13 18:00 | 8.60 | 5880 | 15600 (1983) | 56 (2003) | 2400 | 73 | 87 | 147 | 244 | 1750 | 3090 | 4020 | 6390 | 7760 |
| 2026-04-13 17:30 | 8.39 | 5640 | 15600 (1983) | 56 (2003) | 2400 | 73 | 87 | 147 | 244 | 1750 | 3090 | 4020 | 6390 | 7760 |
| 2026-04-13 17:00 | 8.17 | 5380 | 15600 (1983) | 56 (2003) | 2400 | 73 | 87 | 147 | 244 | 1750 | 3090 | 4020 | 6390 | 7760 |
| 2026-04-13 16:30 | 7.86 | 5020 | 15600 (1983) | 56 (2003) | 2400 | 73 | 87 | 147 | 244 | 1750 | 3090 | 4020 | 6390 | 7760 |
| 2026-04-13 16:00 | 7.56 | 4690 | 15600 (1983) | 56 (2003) | 2400 | 73 | 87 | 147 | 244 | 1750 | 3090 | 4020 | 6390 | 7760 |
| 2026-04-13 15:30 | 7.24 | 4340 | 15600 (1983) | 56 (2003) | 2400 | 73 | 87 | 147 | 244 | 1750 | 3090 | 4020 | 6390 | 7760 |
| 2026-04-13 15:00 | 6.84 | 3850 | 15600 (1983) | 56 (2003) | 2400 | 73 | 87 | 147 | 244 | 1750 | 3090 | 4020 | 6390 | 7760 |
| 2026-04-13 14:30 | 6.37 | 3320 | 15600 (1983) | 56 (2003) | 2400 | 73 | 87 | 147 | 244 | 1750 | 3090 | 4020 | 6390 | 7760 |
| 2026-04-13 14:00 | 5.91 | 2830 | 15600 (1983) | 56 (2003) | 2400 | 73 | 87 | 147 | 244 | 1750 | 3090 | 4020 | 6390 | 7760 |
| 2026-04-13 13:30 | 5.42 | 2350 | 15600 (1983) | 56 (2003) | 2400 | 73 | 87 | 147 | 244 | 1750 | 3090 | 4020 | 6390 | 7760 |
| 2026-04-13 13:00 | 5.10 | 2040 | 15600 (1983) | 56 (2003) | 2400 | 73 | 87 | 147 | 244 | 1750 | 3090 | 4020 | 6390 | 7760 |
| 2026-04-13 12:30 | 4.95 | 1870 | 15600 (1983) | 56 (2003) | 2400 | 73 | 87 | 147 | 244 | 1750 | 3090 | 4020 | 6390 | 7760 |
| 2026-04-13 12:00 | 4.90 | 1820 | 15600 (1983) | 56 (2003) | 2400 | 73 | 87 | 147 | 244 | 1750 | 3090 | 4020 | 6390 | 7760 |
| 2026-04-13 11:30 | 4.92 | 1840 | 15600 (1983) | 56 (2003) | 2400 | 73 | 87 | 147 | 244 | 1750 | 3090 | 4020 | 6390 | 7760 |
| 2026-04-13 11:00 | 4.91 | 1830 | 15600 (1983) | 56 (2003) | 2400 | 73 | 87 | 147 | 244 | 1750 | 3090 | 4020 | 6390 | 7760 |
| 2026-04-13 10:30 | 4.94 | 1860 | 15600 (1983) | 56 (2003) | 2400 | 73 | 87 | 147 | 244 | 1750 | 3090 | 4020 | 6390 | 7760 |
| 2026-04-13 10:00 | 4.96 | 1880 | 15600 (1983) | 56 (2003) | 2400 | 73 | 87 | 147 | 244 | 1750 | 3090 | 4020 | 6390 | 7760 |
| 2026-04-13 09:30 | 4.97 | 1900 | 15600 (1983) | 56 (2003) | 2400 | 73 | 87 | 147 | 244 | 1750 | 3090 | 4020 | 6390 | 7760 |
| 2026-04-13 09:00 | 4.99 | 1920 | 15600 (1983) | 56 (2003) | 2400 | 73 | 87 | 147 | 244 | 1750 | 3090 | 4020 | 6390 | 7760 |
| 2026-04-13 08:30 | 5.01 | 1940 | 15600 (1983) | 56 (2003) | 2400 | 73 | 87 | 147 | 244 | 1750 | 3090 | 4020 | 6390 | 7760 |
| 2026-04-13 08:00 | 5.05 | 1980 | 15600 (1983) | 56 (2003) | 2400 | 73 | 87 | 147 | 244 | 1750 | 3090 | 4020 | 6390 | 7760 |
| 2026-04-13 07:30 | 5.09 | 2030 | 15600 (1983) | 56 (2003) | 2400 | 73 | 87 | 147 | 244 | 1750 | 3090 | 4020 | 6390 | 7760 |
| 2026-04-13 07:00 | 5.13 | 2070 | 15600 (1983) | 56 (2003) | 2400 | 73 | 87 | 147 | 244 | 1750 | 3090 | 4020 | 6390 | 7760 |
| 2026-04-13 06:30 | 5.18 | 2130 | 15600 (1983) | 56 (2003) | 2400 | 73 | 87 | 147 | 244 | 1750 | 3090 | 4020 | 6390 | 7760 |
| 2026-04-13 06:00 | 5.23 | 2170 | 15600 (1983) | 56 (2003) | 2400 | 73 | 87 | 147 | 244 | 1750 | 3090 | 4020 | 6390 | 7760 |
| 2026-04-13 05:30 | 5.29 | 2230 | 15600 (1983) | 56 (2003) | 2400 | 73 | 87 | 147 | 244 | 1750 | 3090 | 4020 | 6390 | 7760 |
| 2026-04-13 05:00 | 5.37 | 2300 | 15600 (1983) | 56 (2003) | 2400 | 73 | 87 | 147 | 244 | 1750 | 3090 | 4020 | 6390 | 7760 |
| 2026-04-13 04:30 | 5.43 | 2360 | 15600 (1983) | 56 (2003) | 2400 | 73 | 87 | 147 | 244 | 1750 | 3090 | 4020 | 6390 | 7760 |
| 2026-04-13 04:00 | 5.50 | 2430 | 15600 (1983) | 56 (2003) | 2400 | 73 | 87 | 147 | 244 | 1750 | 3090 | 4020 | 6390 | 7760 |
| 2026-04-13 03:30 | 5.56 | 2480 | 15600 (1983) | 56 (2003) | 2400 | 73 | 87 | 147 | 244 | 1750 | 3090 | 4020 | 6390 | 7760 |
| 2026-04-13 03:00 | 5.60 | 2520 | 15600 (1983) | 56 (2003) | 2400 | 73 | 87 | 147 | 244 | 1750 | 3090 | 4020 | 6390 | 7760 |
| 2026-04-13 02:30 | 5.61 | 2530 | 15600 (1983) | 56 (2003) | 2400 | 73 | 87 | 147 | 244 | 1750 | 3090 | 4020 | 6390 | 7760 |
| 2026-04-13 02:00 | 5.59 | 2510 | 15600 (1983) | 56 (2003) | 2400 | 73 | 87 | 147 | 244 | 1750 | 3090 | 4020 | 6390 | 7760 |
| 2026-04-13 01:30 | 5.52 | 2440 | 15600 (1983) | 56 (2003) | 2400 | 73 | 87 | 147 | 244 | 1750 | 3090 | 4020 | 6390 | 7760 |
| 2026-04-13 01:00 | 5.40 | 2330 | 15600 (1983) | 56 (2003) | 2400 | 73 | 87 | 147 | 244 | 1750 | 3090 | 4020 | 6390 | 7760 |
| 2026-04-13 00:30 | 5.25 | 2190 | 15600 (1983) | 56 (2003) | 2400 | 73 | 87 | 147 | 244 | 1750 | 3090 | 4020 | 6390 | 7760 |
| 2026-04-13 00:00 | 5.10 | 2040 | 15600 (1983) | 56 (2003) | 2400 | 73 | 87 | 147 | 244 | 1750 | 3090 | 4020 | 6390 | 7760 |
| 2026-04-12 23:30 | 4.98 | 1910 | 15600 (1983) | 56 (2003) | 2400 | 73 | 87 | 147 | 244 | 1750 | 3090 | 4020 | 6390 | 7760 |
| 2026-04-12 23:00 | 4.92 | 1840 | 15600 (1983) | 56 (2003) | 2400 | 73 | 87 | 147 | 244 | 1750 | 3090 | 4020 | 6390 | 7760 |
| 2026-04-12 22:30 | 4.90 | 1820 | 19700 (1983) | 58 (2003) | 2450 | 81 | 107 | 169 | 356 | 1150 | 3290 | 4910 | 6510 | 7240 |
| 2026-04-12 22:00 | 4.89 | 1810 | 19700 (1983) | 58 (2003) | 2450 | 81 | 107 | 169 | 356 | 1150 | 3290 | 4910 | 6510 | 7240 |
| 2026-04-12 21:30 | 4.88 | 1800 | 19700 (1983) | 58 (2003) | 2450 | 81 | 107 | 169 | 356 | 1150 | 3290 | 4910 | 6510 | 7240 |
| 2026-04-12 21:00 | 4.88 | 1800 | 19700 (1983) | 58 (2003) | 2450 | 81 | 107 | 169 | 356 | 1150 | 3290 | 4910 | 6510 | 7240 |
| 2026-04-12 20:30 | 4.88 | 1800 | 19700 (1983) | 58 (2003) | 2450 | 81 | 107 | 169 | 356 | 1150 | 3290 | 4910 | 6510 | 7240 |
| 2026-04-12 20:00 | 4.88 | 1800 | 19700 (1983) | 58 (2003) | 2450 | 81 | 107 | 169 | 356 | 1150 | 3290 | 4910 | 6510 | 7240 |
| 2026-04-12 19:30 | 4.88 | 1800 | 19700 (1983) | 58 (2003) | 2450 | 81 | 107 | 169 | 356 | 1150 | 3290 | 4910 | 6510 | 7240 |
| 2026-04-12 19:00 | 4.87 | 1780 | 19700 (1983) | 58 (2003) | 2450 | 81 | 107 | 169 | 356 | 1150 | 3290 | 4910 | 6510 | 7240 |
| 2026-04-12 18:30 | 4.88 | 1800 | 19700 (1983) | 58 (2003) | 2450 | 81 | 107 | 169 | 356 | 1150 | 3290 | 4910 | 6510 | 7240 |
| 2026-04-12 18:00 | 4.88 | 1800 | 19700 (1983) | 58 (2003) | 2450 | 81 | 107 | 169 | 356 | 1150 | 3290 | 4910 | 6510 | 7240 |
| 2026-04-12 17:30 | 4.88 | 1800 | 19700 (1983) | 58 (2003) | 2450 | 81 | 107 | 169 | 356 | 1150 | 3290 | 4910 | 6510 | 7240 |
| 2026-04-12 17:00 | 4.90 | 1820 | 19700 (1983) | 58 (2003) | 2450 | 81 | 107 | 169 | 356 | 1150 | 3290 | 4910 | 6510 | 7240 |
| 2026-04-12 16:30 | 4.90 | 1820 | 19700 (1983) | 58 (2003) | 2450 | 81 | 107 | 169 | 356 | 1150 | 3290 | 4910 | 6510 | 7240 |
| 2026-04-12 16:00 | 4.90 | 1820 | 19700 (1983) | 58 (2003) | 2450 | 81 | 107 | 169 | 356 | 1150 | 3290 | 4910 | 6510 | 7240 |
| 2026-04-12 15:30 | 4.91 | 1830 | 19700 (1983) | 58 (2003) | 2450 | 81 | 107 | 169 | 356 | 1150 | 3290 | 4910 | 6510 | 7240 |
| 2026-04-12 15:00 | 4.91 | 1830 | 19700 (1983) | 58 (2003) | 2450 | 81 | 107 | 169 | 356 | 1150 | 3290 | 4910 | 6510 | 7240 |
| 2026-04-12 14:30 | 4.92 | 1840 | 19700 (1983) | 58 (2003) | 2450 | 81 | 107 | 169 | 356 | 1150 | 3290 | 4910 | 6510 | 7240 |
| 2026-04-12 14:00 | 4.91 | 1830 | 19700 (1983) | 58 (2003) | 2450 | 81 | 107 | 169 | 356 | 1150 | 3290 | 4910 | 6510 | 7240 |
| 2026-04-12 13:30 | 4.92 | 1840 | 19700 (1983) | 58 (2003) | 2450 | 81 | 107 | 169 | 356 | 1150 | 3290 | 4910 | 6510 | 7240 |
| 2026-04-12 13:00 | 4.93 | 1850 | 19700 (1983) | 58 (2003) | 2450 | 81 | 107 | 169 | 356 | 1150 | 3290 | 4910 | 6510 | 7240 |
| 2026-04-12 12:30 | 4.93 | 1850 | 19700 (1983) | 58 (2003) | 2450 | 81 | 107 | 169 | 356 | 1150 | 3290 | 4910 | 6510 | 7240 |
| 2026-04-12 12:00 | 4.93 | 1850 | 19700 (1983) | 58 (2003) | 2450 | 81 | 107 | 169 | 356 | 1150 | 3290 | 4910 | 6510 | 7240 |
| 2026-04-12 11:30 | 4.94 | 1860 | 19700 (1983) | 58 (2003) | 2450 | 81 | 107 | 169 | 356 | 1150 | 3290 | 4910 | 6510 | 7240 |
| 2026-04-12 11:00 | 4.93 | 1850 | 19700 (1983) | 58 (2003) | 2450 | 81 | 107 | 169 | 356 | 1150 | 3290 | 4910 | 6510 | 7240 |
| 2026-04-12 10:30 | 4.92 | 1840 | 19700 (1983) | 58 (2003) | 2450 | 81 | 107 | 169 | 356 | 1150 | 3290 | 4910 | 6510 | 7240 |
| 2026-04-12 10:00 | 4.91 | 1830 | 19700 (1983) | 58 (2003) | 2450 | 81 | 107 | 169 | 356 | 1150 | 3290 | 4910 | 6510 | 7240 |
| 2026-04-12 09:30 | 4.90 | 1820 | 19700 (1983) | 58 (2003) | 2450 | 81 | 107 | 169 | 356 | 1150 | 3290 | 4910 | 6510 | 7240 |
| 2026-04-12 09:00 | 4.88 | 1800 | 19700 (1983) | 58 (2003) | 2450 | 81 | 107 | 169 | 356 | 1150 | 3290 | 4910 | 6510 | 7240 |
| 2026-04-12 08:30 | 4.85 | 1760 | 19700 (1983) | 58 (2003) | 2450 | 81 | 107 | 169 | 356 | 1150 | 3290 | 4910 | 6510 | 7240 |
| 2026-04-12 08:00 | 4.82 | 1730 | 19700 (1983) | 58 (2003) | 2450 | 81 | 107 | 169 | 356 | 1150 | 3290 | 4910 | 6510 | 7240 |
| 2026-04-12 07:30 | 4.78 | 1690 | 19700 (1983) | 58 (2003) | 2450 | 81 | 107 | 169 | 356 | 1150 | 3290 | 4910 | 6510 | 7240 |
| 2026-04-12 07:00 | 4.74 | 1650 | 19700 (1983) | 58 (2003) | 2450 | 81 | 107 | 169 | 356 | 1150 | 3290 | 4910 | 6510 | 7240 |
| 2026-04-12 06:30 | 4.69 | 1590 | 19700 (1983) | 58 (2003) | 2450 | 81 | 107 | 169 | 356 | 1150 | 3290 | 4910 | 6510 | 7240 |
| 2026-04-12 06:00 | 4.63 | 1530 | 19700 (1983) | 58 (2003) | 2450 | 81 | 107 | 169 | 356 | 1150 | 3290 | 4910 | 6510 | 7240 |
| 2026-04-12 05:30 | 4.58 | 1480 | 19700 (1983) | 58 (2003) | 2450 | 81 | 107 | 169 | 356 | 1150 | 3290 | 4910 | 6510 | 7240 |
| 2026-04-12 05:00 | 4.53 | 1430 | 19700 (1983) | 58 (2003) | 2450 | 81 | 107 | 169 | 356 | 1150 | 3290 | 4910 | 6510 | 7240 |
| 2026-04-12 04:30 | 4.49 | 1400 | 19700 (1983) | 58 (2003) | 2450 | 81 | 107 | 169 | 356 | 1150 | 3290 | 4910 | 6510 | 7240 |
| 2026-04-12 04:00 | 4.45 | 1360 | 19700 (1983) | 58 (2003) | 2450 | 81 | 107 | 169 | 356 | 1150 | 3290 | 4910 | 6510 | 7240 |
| 2026-04-12 03:30 | 4.44 | 1350 | 19700 (1983) | 58 (2003) | 2450 | 81 | 107 | 169 | 356 | 1150 | 3290 | 4910 | 6510 | 7240 |
| 2026-04-12 03:00 | 4.42 | 1330 | 19700 (1983) | 58 (2003) | 2450 | 81 | 107 | 169 | 356 | 1150 | 3290 | 4910 | 6510 | 7240 |
| 2026-04-12 02:30 | 4.41 | 1320 | 19700 (1983) | 58 (2003) | 2450 | 81 | 107 | 169 | 356 | 1150 | 3290 | 4910 | 6510 | 7240 |
| 2026-04-12 02:00 | 4.40 | 1310 | 19700 (1983) | 58 (2003) | 2450 | 81 | 107 | 169 | 356 | 1150 | 3290 | 4910 | 6510 | 7240 |
| 2026-04-12 01:30 | 4.39 | 1300 | 19700 (1983) | 58 (2003) | 2450 | 81 | 107 | 169 | 356 | 1150 | 3290 | 4910 | 6510 | 7240 |
| 2026-04-12 01:00 | 4.39 | 1300 | 19700 (1983) | 58 (2003) | 2450 | 81 | 107 | 169 | 356 | 1150 | 3290 | 4910 | 6510 | 7240 |
| 2026-04-12 00:30 | 4.37 | 1280 | 19700 (1983) | 58 (2003) | 2450 | 81 | 107 | 169 | 356 | 1150 | 3290 | 4910 | 6510 | 7240 |
| 2026-04-12 00:00 | 4.38 | 1290 | 19700 (1983) | 58 (2003) | 2450 | 81 | 107 | 169 | 356 | 1150 | 3290 | 4910 | 6510 | 7240 |
| 2026-04-11 23:30 | 4.37 | 1280 | 19700 (1983) | 58 (2003) | 2450 | 81 | 107 | 169 | 356 | 1150 | 3290 | 4910 | 6510 | 7240 |
| 2026-04-11 23:00 | 4.37 | 1280 | 19700 (1983) | 58 (2003) | 2450 | 81 | 107 | 169 | 356 | 1150 | 3290 | 4910 | 6510 | 7240 |
| 2026-04-11 22:30 | 4.36 | 1280 | 22100 (1983) | 60 (2003) | 2520 | 74 | 104 | 166 | 258 | 1040 | 3110 | 4910 | 6870 | 9950 |
| 2026-04-11 22:00 | 4.37 | 1280 | 22100 (1983) | 60 (2003) | 2520 | 74 | 104 | 166 | 258 | 1040 | 3110 | 4910 | 6870 | 9950 |
| 2026-04-11 21:30 | 4.38 | 1290 | 22100 (1983) | 60 (2003) | 2520 | 74 | 104 | 166 | 258 | 1040 | 3110 | 4910 | 6870 | 9950 |
| 2026-04-11 21:00 | 4.38 | 1290 | 22100 (1983) | 60 (2003) | 2520 | 74 | 104 | 166 | 258 | 1040 | 3110 | 4910 | 6870 | 9950 |
| 2026-04-11 20:30 | 4.39 | 1300 | 22100 (1983) | 60 (2003) | 2520 | 74 | 104 | 166 | 258 | 1040 | 3110 | 4910 | 6870 | 9950 |
| 2026-04-11 20:00 | 4.39 | 1300 | 22100 (1983) | 60 (2003) | 2520 | 74 | 104 | 166 | 258 | 1040 | 3110 | 4910 | 6870 | 9950 |
| 2026-04-11 19:30 | 4.40 | 1310 | 22100 (1983) | 60 (2003) | 2520 | 74 | 104 | 166 | 258 | 1040 | 3110 | 4910 | 6870 | 9950 |
| 2026-04-11 19:00 | 4.40 | 1310 | 22100 (1983) | 60 (2003) | 2520 | 74 | 104 | 166 | 258 | 1040 | 3110 | 4910 | 6870 | 9950 |
| 2026-04-11 18:30 | 4.40 | 1310 | 22100 (1983) | 60 (2003) | 2520 | 74 | 104 | 166 | 258 | 1040 | 3110 | 4910 | 6870 | 9950 |
| 2026-04-11 18:00 | 4.41 | 1320 | 22100 (1983) | 60 (2003) | 2520 | 74 | 104 | 166 | 258 | 1040 | 3110 | 4910 | 6870 | 9950 |
| 2026-04-11 17:30 | 4.41 | 1320 | 22100 (1983) | 60 (2003) | 2520 | 74 | 104 | 166 | 258 | 1040 | 3110 | 4910 | 6870 | 9950 |
| 2026-04-11 17:00 | 4.42 | 1330 | 22100 (1983) | 60 (2003) | 2520 | 74 | 104 | 166 | 258 | 1040 | 3110 | 4910 | 6870 | 9950 |
| 2026-04-11 16:30 | 4.42 | 1330 | 22100 (1983) | 60 (2003) | 2520 | 74 | 104 | 166 | 258 | 1040 | 3110 | 4910 | 6870 | 9950 |
| 2026-04-11 16:00 | 4.43 | 1340 | 22100 (1983) | 60 (2003) | 2520 | 74 | 104 | 166 | 258 | 1040 | 3110 | 4910 | 6870 | 9950 |
| 2026-04-11 15:30 | 4.43 | 1340 | 22100 (1983) | 60 (2003) | 2520 | 74 | 104 | 166 | 258 | 1040 | 3110 | 4910 | 6870 | 9950 |
| 2026-04-11 15:00 | 4.44 | 1350 | 22100 (1983) | 60 (2003) | 2520 | 74 | 104 | 166 | 258 | 1040 | 3110 | 4910 | 6870 | 9950 |
| 2026-04-11 14:30 | 4.45 | 1360 | 22100 (1983) | 60 (2003) | 2520 | 74 | 104 | 166 | 258 | 1040 | 3110 | 4910 | 6870 | 9950 |
| 2026-04-11 14:00 | 4.47 | 1380 | 22100 (1983) | 60 (2003) | 2520 | 74 | 104 | 166 | 258 | 1040 | 3110 | 4910 | 6870 | 9950 |
| 2026-04-11 13:30 | 4.47 | 1380 | 22100 (1983) | 60 (2003) | 2520 | 74 | 104 | 166 | 258 | 1040 | 3110 | 4910 | 6870 | 9950 |
| 2026-04-11 13:00 | 4.48 | 1390 | 22100 (1983) | 60 (2003) | 2520 | 74 | 104 | 166 | 258 | 1040 | 3110 | 4910 | 6870 | 9950 |
| 2026-04-11 12:30 | 4.49 | 1400 | 22100 (1983) | 60 (2003) | 2520 | 74 | 104 | 166 | 258 | 1040 | 3110 | 4910 | 6870 | 9950 |
| 2026-04-11 12:00 | 4.51 | 1420 | 22100 (1983) | 60 (2003) | 2520 | 74 | 104 | 166 | 258 | 1040 | 3110 | 4910 | 6870 | 9950 |
| 2026-04-11 11:30 | 4.53 | 1430 | 22100 (1983) | 60 (2003) | 2520 | 74 | 104 | 166 | 258 | 1040 | 3110 | 4910 | 6870 | 9950 |
| 2026-04-11 11:00 | 4.56 | 1460 | 22100 (1983) | 60 (2003) | 2520 | 74 | 104 | 166 | 258 | 1040 | 3110 | 4910 | 6870 | 9950 |
| 2026-04-11 10:30 | 4.58 | 1480 | 22100 (1983) | 60 (2003) | 2520 | 74 | 104 | 166 | 258 | 1040 | 3110 | 4910 | 6870 | 9950 |
| 2026-04-11 10:00 | 4.62 | 1520 | 22100 (1983) | 60 (2003) | 2520 | 74 | 104 | 166 | 258 | 1040 | 3110 | 4910 | 6870 | 9950 |
| 2026-04-11 09:30 | 4.66 | 1560 | 22100 (1983) | 60 (2003) | 2520 | 74 | 104 | 166 | 258 | 1040 | 3110 | 4910 | 6870 | 9950 |
| 2026-04-11 09:00 | 4.70 | 1600 | 22100 (1983) | 60 (2003) | 2520 | 74 | 104 | 166 | 258 | 1040 | 3110 | 4910 | 6870 | 9950 |
| 2026-04-11 08:30 | 4.75 | 1660 | 22100 (1983) | 60 (2003) | 2520 | 74 | 104 | 166 | 258 | 1040 | 3110 | 4910 | 6870 | 9950 |
| 2026-04-11 08:00 | 4.82 | 1730 | 22100 (1983) | 60 (2003) | 2520 | 74 | 104 | 166 | 258 | 1040 | 3110 | 4910 | 6870 | 9950 |
| 2026-04-11 07:30 | 4.89 | 1810 | 22100 (1983) | 60 (2003) | 2520 | 74 | 104 | 166 | 258 | 1040 | 3110 | 4910 | 6870 | 9950 |
| 2026-04-11 07:00 | 4.97 | 1900 | 22100 (1983) | 60 (2003) | 2520 | 74 | 104 | 166 | 258 | 1040 | 3110 | 4910 | 6870 | 9950 |
| 2026-04-11 06:30 | 5.06 | 1990 | 22100 (1983) | 60 (2003) | 2520 | 74 | 104 | 166 | 258 | 1040 | 3110 | 4910 | 6870 | 9950 |
| 2026-04-11 06:00 | 5.15 | 2090 | 22100 (1983) | 60 (2003) | 2520 | 74 | 104 | 166 | 258 | 1040 | 3110 | 4910 | 6870 | 9950 |
| 2026-04-11 05:30 | 5.24 | 2180 | 22100 (1983) | 60 (2003) | 2520 | 74 | 104 | 166 | 258 | 1040 | 3110 | 4910 | 6870 | 9950 |
| 2026-04-11 05:00 | 5.34 | 2270 | 22100 (1983) | 60 (2003) | 2520 | 74 | 104 | 166 | 258 | 1040 | 3110 | 4910 | 6870 | 9950 |
| 2026-04-11 04:30 | 5.42 | 2350 | 22100 (1983) | 60 (2003) | 2520 | 74 | 104 | 166 | 258 | 1040 | 3110 | 4910 | 6870 | 9950 |
| 2026-04-11 04:00 | 5.49 | 2420 | 22100 (1983) | 60 (2003) | 2520 | 74 | 104 | 166 | 258 | 1040 | 3110 | 4910 | 6870 | 9950 |
| 2026-04-11 03:30 | 5.55 | 2470 | 22100 (1983) | 60 (2003) | 2520 | 74 | 104 | 166 | 258 | 1040 | 3110 | 4910 | 6870 | 9950 |
| 2026-04-11 03:00 | 5.56 | 2480 | 22100 (1983) | 60 (2003) | 2520 | 74 | 104 | 166 | 258 | 1040 | 3110 | 4910 | 6870 | 9950 |
| 2026-04-11 02:30 | 5.51 | 2430 | 22100 (1983) | 60 (2003) | 2520 | 74 | 104 | 166 | 258 | 1040 | 3110 | 4910 | 6870 | 9950 |
| 2026-04-11 02:00 | 5.38 | 2310 | 22100 (1983) | 60 (2003) | 2520 | 74 | 104 | 166 | 258 | 1040 | 3110 | 4910 | 6870 | 9950 |
| 2026-04-11 01:30 | 5.17 | 2120 | 22100 (1983) | 60 (2003) | 2520 | 74 | 104 | 166 | 258 | 1040 | 3110 | 4910 | 6870 | 9950 |
| 2026-04-11 01:00 | 4.90 | 1820 | 22100 (1983) | 60 (2003) | 2520 | 74 | 104 | 166 | 258 | 1040 | 3110 | 4910 | 6870 | 9950 |
| 2026-04-11 00:30 | 4.63 | 1530 | 22100 (1983) | 60 (2003) | 2520 | 74 | 104 | 166 | 258 | 1040 | 3110 | 4910 | 6870 | 9950 |
| 2026-04-11 00:00 | 4.46 | 1370 | 22100 (1983) | 60 (2003) | 2520 | 74 | 104 | 166 | 258 | 1040 | 3110 | 4910 | 6870 | 9950 |
| 2026-04-10 23:30 | 4.39 | 1300 | 22100 (1983) | 60 (2003) | 2520 | 74 | 104 | 166 | 258 | 1040 | 3110 | 4910 | 6870 | 9950 |
| 2026-04-10 23:00 | 4.36 | 1280 | 22100 (1983) | 60 (2003) | 2520 | 74 | 104 | 166 | 258 | 1040 | 3110 | 4910 | 6870 | 9950 |
| 2026-04-10 22:30 | 4.35 | 1270 | 23600 (1983) | 49 (1981) | 2490 | 64 | 82 | 163 | 332 | 1450 | 3480 | 4190 | 5770 | 8840 |
| 2026-04-10 22:00 | 4.35 | 1270 | 23600 (1983) | 49 (1981) | 2490 | 64 | 82 | 163 | 332 | 1450 | 3480 | 4190 | 5770 | 8840 |
| 2026-04-10 21:30 | 4.35 | 1270 | 23600 (1983) | 49 (1981) | 2490 | 64 | 82 | 163 | 332 | 1450 | 3480 | 4190 | 5770 | 8840 |
| 2026-04-10 21:00 | 4.35 | 1270 | 23600 (1983) | 49 (1981) | 2490 | 64 | 82 | 163 | 332 | 1450 | 3480 | 4190 | 5770 | 8840 |
| 2026-04-10 20:30 | 4.34 | 1260 | 23600 (1983) | 49 (1981) | 2490 | 64 | 82 | 163 | 332 | 1450 | 3480 | 4190 | 5770 | 8840 |
| 2026-04-10 20:00 | 4.34 | 1260 | 23600 (1983) | 49 (1981) | 2490 | 64 | 82 | 163 | 332 | 1450 | 3480 | 4190 | 5770 | 8840 |
| 2026-04-10 19:30 | 4.35 | 1270 | 23600 (1983) | 49 (1981) | 2490 | 64 | 82 | 163 | 332 | 1450 | 3480 | 4190 | 5770 | 8840 |
| 2026-04-10 19:00 | 4.35 | 1270 | 23600 (1983) | 49 (1981) | 2490 | 64 | 82 | 163 | 332 | 1450 | 3480 | 4190 | 5770 | 8840 |
| 2026-04-10 18:30 | 4.36 | 1280 | 23600 (1983) | 49 (1981) | 2490 | 64 | 82 | 163 | 332 | 1450 | 3480 | 4190 | 5770 | 8840 |
| 2026-04-10 18:00 | 4.36 | 1280 | 23600 (1983) | 49 (1981) | 2490 | 64 | 82 | 163 | 332 | 1450 | 3480 | 4190 | 5770 | 8840 |
| 2026-04-10 17:30 | 4.36 | 1280 | 23600 (1983) | 49 (1981) | 2490 | 64 | 82 | 163 | 332 | 1450 | 3480 | 4190 | 5770 | 8840 |
| 2026-04-10 17:00 | 4.37 | 1280 | 23600 (1983) | 49 (1981) | 2490 | 64 | 82 | 163 | 332 | 1450 | 3480 | 4190 | 5770 | 8840 |
| 2026-04-10 16:30 | 4.37 | 1280 | 23600 (1983) | 49 (1981) | 2490 | 64 | 82 | 163 | 332 | 1450 | 3480 | 4190 | 5770 | 8840 |
| 2026-04-10 16:00 | 4.37 | 1280 | 23600 (1983) | 49 (1981) | 2490 | 64 | 82 | 163 | 332 | 1450 | 3480 | 4190 | 5770 | 8840 |
| 2026-04-10 15:30 | 4.38 | 1290 | 23600 (1983) | 49 (1981) | 2490 | 64 | 82 | 163 | 332 | 1450 | 3480 | 4190 | 5770 | 8840 |
| 2026-04-10 15:00 | 4.38 | 1290 | 23600 (1983) | 49 (1981) | 2490 | 64 | 82 | 163 | 332 | 1450 | 3480 | 4190 | 5770 | 8840 |
| 2026-04-10 14:30 | 4.39 | 1300 | 23600 (1983) | 49 (1981) | 2490 | 64 | 82 | 163 | 332 | 1450 | 3480 | 4190 | 5770 | 8840 |
| 2026-04-10 14:00 | 4.39 | 1300 | 23600 (1983) | 49 (1981) | 2490 | 64 | 82 | 163 | 332 | 1450 | 3480 | 4190 | 5770 | 8840 |
| 2026-04-10 13:30 | 4.40 | 1310 | 23600 (1983) | 49 (1981) | 2490 | 64 | 82 | 163 | 332 | 1450 | 3480 | 4190 | 5770 | 8840 |
| 2026-04-10 13:00 | 4.40 | 1310 | 23600 (1983) | 49 (1981) | 2490 | 64 | 82 | 163 | 332 | 1450 | 3480 | 4190 | 5770 | 8840 |
| 2026-04-10 12:30 | 4.41 | 1320 | 23600 (1983) | 49 (1981) | 2490 | 64 | 82 | 163 | 332 | 1450 | 3480 | 4190 | 5770 | 8840 |
| 2026-04-10 12:00 | 4.41 | 1320 | 23600 (1983) | 49 (1981) | 2490 | 64 | 82 | 163 | 332 | 1450 | 3480 | 4190 | 5770 | 8840 |
| 2026-04-10 11:30 | 4.42 | 1330 | 23600 (1983) | 49 (1981) | 2490 | 64 | 82 | 163 | 332 | 1450 | 3480 | 4190 | 5770 | 8840 |
| 2026-04-10 11:00 | 4.42 | 1330 | 23600 (1983) | 49 (1981) | 2490 | 64 | 82 | 163 | 332 | 1450 | 3480 | 4190 | 5770 | 8840 |
| 2026-04-10 10:30 | 4.42 | 1330 | 23600 (1983) | 49 (1981) | 2490 | 64 | 82 | 163 | 332 | 1450 | 3480 | 4190 | 5770 | 8840 |
| 2026-04-10 10:00 | 4.42 | 1330 | 23600 (1983) | 49 (1981) | 2490 | 64 | 82 | 163 | 332 | 1450 | 3480 | 4190 | 5770 | 8840 |
| 2026-04-10 09:30 | 4.42 | 1330 | 23600 (1983) | 49 (1981) | 2490 | 64 | 82 | 163 | 332 | 1450 | 3480 | 4190 | 5770 | 8840 |
| 2026-04-10 09:00 | 4.42 | 1330 | 23600 (1983) | 49 (1981) | 2490 | 64 | 82 | 163 | 332 | 1450 | 3480 | 4190 | 5770 | 8840 |
| 2026-04-10 08:30 | 4.42 | 1330 | 23600 (1983) | 49 (1981) | 2490 | 64 | 82 | 163 | 332 | 1450 | 3480 | 4190 | 5770 | 8840 |
| 2026-04-10 08:00 | 4.41 | 1320 | 23600 (1983) | 49 (1981) | 2490 | 64 | 82 | 163 | 332 | 1450 | 3480 | 4190 | 5770 | 8840 |
| 2026-04-10 07:30 | 4.41 | 1320 | 23600 (1983) | 49 (1981) | 2490 | 64 | 82 | 163 | 332 | 1450 | 3480 | 4190 | 5770 | 8840 |
| 2026-04-10 07:00 | 4.39 | 1300 | 23600 (1983) | 49 (1981) | 2490 | 64 | 82 | 163 | 332 | 1450 | 3480 | 4190 | 5770 | 8840 |
| 2026-04-10 06:30 | 4.37 | 1280 | 23600 (1983) | 49 (1981) | 2490 | 64 | 82 | 163 | 332 | 1450 | 3480 | 4190 | 5770 | 8840 |
| 2026-04-10 06:00 | 4.35 | 1270 | 23600 (1983) | 49 (1981) | 2490 | 64 | 82 | 163 | 332 | 1450 | 3480 | 4190 | 5770 | 8840 |
| 2026-04-10 05:30 | 4.31 | 1230 | 23600 (1983) | 49 (1981) | 2490 | 64 | 82 | 163 | 332 | 1450 | 3480 | 4190 | 5770 | 8840 |
| 2026-04-10 05:00 | 4.27 | 1200 | 23600 (1983) | 49 (1981) | 2490 | 64 | 82 | 163 | 332 | 1450 | 3480 | 4190 | 5770 | 8840 |
| 2026-04-10 04:30 | 4.21 | 1140 | 23600 (1983) | 49 (1981) | 2490 | 64 | 82 | 163 | 332 | 1450 | 3480 | 4190 | 5770 | 8840 |
| 2026-04-10 04:00 | 4.13 | 1080 | 23600 (1983) | 49 (1981) | 2490 | 64 | 82 | 163 | 332 | 1450 | 3480 | 4190 | 5770 | 8840 |
| 2026-04-10 03:30 | 4.03 | 995 | 23600 (1983) | 49 (1981) | 2490 | 64 | 82 | 163 | 332 | 1450 | 3480 | 4190 | 5770 | 8840 |
| 2026-04-10 03:00 | 3.90 | 895 | 23600 (1983) | 49 (1981) | 2490 | 64 | 82 | 163 | 332 | 1450 | 3480 | 4190 | 5770 | 8840 |
| 2026-04-10 02:30 | 3.75 | 787 | 23600 (1983) | 49 (1981) | 2490 | 64 | 82 | 163 | 332 | 1450 | 3480 | 4190 | 5770 | 8840 |
| 2026-04-10 02:00 | 3.56 | 660 | 23600 (1983) | 49 (1981) | 2490 | 64 | 82 | 163 | 332 | 1450 | 3480 | 4190 | 5770 | 8840 |
| 2026-04-10 01:30 | 3.38 | 552 | 23600 (1983) | 49 (1981) | 2490 | 64 | 82 | 163 | 332 | 1450 | 3480 | 4190 | 5770 | 8840 |
| 2026-04-10 01:00 | 3.21 | 459 | 23600 (1983) | 49 (1981) | 2490 | 64 | 82 | 163 | 332 | 1450 | 3480 | 4190 | 5770 | 8840 |
| 2026-04-10 00:30 | 3.08 | 394 | 23600 (1983) | 49 (1981) | 2490 | 64 | 82 | 163 | 332 | 1450 | 3480 | 4190 | 5770 | 8840 |
| 2026-04-10 00:00 | 3.01 | 362 | 23600 (1983) | 49 (1981) | 2490 | 64 | 82 | 163 | 332 | 1450 | 3480 | 4190 | 5770 | 8840 |
| 2026-04-09 23:30 | 3.00 | 357 | 23600 (1983) | 49 (1981) | 2490 | 64 | 82 | 163 | 332 | 1450 | 3480 | 4190 | 5770 | 8840 |
| 2026-04-09 23:00 | 3.02 | 366 | 23600 (1983) | 49 (1981) | 2490 | 64 | 82 | 163 | 332 | 1450 | 3480 | 4190 | 5770 | 8840 |
| 2026-04-09 22:30 | 3.05 | 380 | 25800 (1983) | 43 (2003) | 2710 | 55 | 82 | 120 | 198 | 1340 | 3740 | 4250 | 5200 | 11700 |
| 2026-04-09 22:00 | 3.10 | 404 | 25800 (1983) | 43 (2003) | 2710 | 55 | 82 | 120 | 198 | 1340 | 3740 | 4250 | 5200 | 11700 |
| 2026-04-09 21:30 | 3.14 | 424 | 25800 (1983) | 43 (2003) | 2710 | 55 | 82 | 120 | 198 | 1340 | 3740 | 4250 | 5200 | 11700 |
| 2026-04-09 21:00 | 3.19 | 449 | 25800 (1983) | 43 (2003) | 2710 | 55 | 82 | 120 | 198 | 1340 | 3740 | 4250 | 5200 | 11700 |
| 2026-04-09 20:30 | 3.25 | 480 | 25800 (1983) | 43 (2003) | 2710 | 55 | 82 | 120 | 198 | 1340 | 3740 | 4250 | 5200 | 11700 |
| 2026-04-09 20:00 | 3.30 | 507 | 25800 (1983) | 43 (2003) | 2710 | 55 | 82 | 120 | 198 | 1340 | 3740 | 4250 | 5200 | 11700 |
| 2026-04-09 19:30 | 3.37 | 546 | 25800 (1983) | 43 (2003) | 2710 | 55 | 82 | 120 | 198 | 1340 | 3740 | 4250 | 5200 | 11700 |
| 2026-04-09 19:00 | 3.43 | 581 | 25800 (1983) | 43 (2003) | 2710 | 55 | 82 | 120 | 198 | 1340 | 3740 | 4250 | 5200 | 11700 |
| 2026-04-09 18:30 | 3.50 | 623 | 25800 (1983) | 43 (2003) | 2710 | 55 | 82 | 120 | 198 | 1340 | 3740 | 4250 | 5200 | 11700 |
| 2026-04-09 18:00 | 3.58 | 673 | 25800 (1983) | 43 (2003) | 2710 | 55 | 82 | 120 | 198 | 1340 | 3740 | 4250 | 5200 | 11700 |
| 2026-04-09 17:30 | 3.66 | 725 | 25800 (1983) | 43 (2003) | 2710 | 55 | 82 | 120 | 198 | 1340 | 3740 | 4250 | 5200 | 11700 |
| 2026-04-09 17:00 | 3.75 | 787 | 25800 (1983) | 43 (2003) | 2710 | 55 | 82 | 120 | 198 | 1340 | 3740 | 4250 | 5200 | 11700 |
| 2026-04-09 16:30 | 3.85 | 858 | 25800 (1983) | 43 (2003) | 2710 | 55 | 82 | 120 | 198 | 1340 | 3740 | 4250 | 5200 | 11700 |
| 2026-04-09 16:00 | 3.95 | 933 | 25800 (1983) | 43 (2003) | 2710 | 55 | 82 | 120 | 198 | 1340 | 3740 | 4250 | 5200 | 11700 |
| 2026-04-09 15:30 | 4.05 | 1010 | 25800 (1983) | 43 (2003) | 2710 | 55 | 82 | 120 | 198 | 1340 | 3740 | 4250 | 5200 | 11700 |
| 2026-04-09 15:00 | 4.17 | 1110 | 25800 (1983) | 43 (2003) | 2710 | 55 | 82 | 120 | 198 | 1340 | 3740 | 4250 | 5200 | 11700 |
| 2026-04-09 14:30 | 4.29 | 1210 | 25800 (1983) | 43 (2003) | 2710 | 55 | 82 | 120 | 198 | 1340 | 3740 | 4250 | 5200 | 11700 |
| 2026-04-09 14:00 | 4.41 | 1320 | 25800 (1983) | 43 (2003) | 2710 | 55 | 82 | 120 | 198 | 1340 | 3740 | 4250 | 5200 | 11700 |
| 2026-04-09 13:30 | 4.53 | 1430 | 25800 (1983) | 43 (2003) | 2710 | 55 | 82 | 120 | 198 | 1340 | 3740 | 4250 | 5200 | 11700 |
| 2026-04-09 13:00 | 4.66 | 1560 | 25800 (1983) | 43 (2003) | 2710 | 55 | 82 | 120 | 198 | 1340 | 3740 | 4250 | 5200 | 11700 |
| 2026-04-09 12:30 | 4.79 | 1700 | 25800 (1983) | 43 (2003) | 2710 | 55 | 82 | 120 | 198 | 1340 | 3740 | 4250 | 5200 | 11700 |
| 2026-04-09 12:00 | 4.92 | 1840 | 25800 (1983) | 43 (2003) | 2710 | 55 | 82 | 120 | 198 | 1340 | 3740 | 4250 | 5200 | 11700 |
| 2026-04-09 11:30 | 5.05 | 1980 | 25800 (1983) | 43 (2003) | 2710 | 55 | 82 | 120 | 198 | 1340 | 3740 | 4250 | 5200 | 11700 |
| 2026-04-09 11:00 | 5.17 | 2120 | 25800 (1983) | 43 (2003) | 2710 | 55 | 82 | 120 | 198 | 1340 | 3740 | 4250 | 5200 | 11700 |
| 2026-04-09 10:30 | 5.30 | 2240 | 25800 (1983) | 43 (2003) | 2710 | 55 | 82 | 120 | 198 | 1340 | 3740 | 4250 | 5200 | 11700 |
| 2026-04-09 10:00 | 5.42 | 25800 (1983) | 43 (2003) | 2710 | 55 | 82 | 120 | 198 | 1340 | 3740 | 4250 | 5200 | 11700 | |
| 2026-04-09 09:30 | 5.56 | 2480 | 25800 (1983) | 43 (2003) | 2710 | 55 | 82 | 120 | 198 | 1340 | 3740 | 4250 | 5200 | 11700 |
| 2026-04-09 09:00 | 5.69 | 2610 | 25800 (1983) | 43 (2003) | 2710 | 55 | 82 | 120 | 198 | 1340 | 3740 | 4250 | 5200 | 11700 |
| 2026-04-09 08:30 | 5.84 | 2760 | 25800 (1983) | 43 (2003) | 2710 | 55 | 82 | 120 | 198 | 1340 | 3740 | 4250 | 5200 | 11700 |
| 2026-04-09 08:00 | 5.98 | 2900 | 25800 (1983) | 43 (2003) | 2710 | 55 | 82 | 120 | 198 | 1340 | 3740 | 4250 | 5200 | 11700 |
| 2026-04-09 07:30 | 6.14 | 3070 | 25800 (1983) | 43 (2003) | 2710 | 55 | 82 | 120 | 198 | 1340 | 3740 | 4250 | 5200 | 11700 |
| 2026-04-09 07:00 | 6.29 | 3230 | 25800 (1983) | 43 (2003) | 2710 | 55 | 82 | 120 | 198 | 1340 | 3740 | 4250 | 5200 | 11700 |
| 2026-04-09 06:30 | 6.47 | 3430 | 25800 (1983) | 43 (2003) | 2710 | 55 | 82 | 120 | 198 | 1340 | 3740 | 4250 | 5200 | 11700 |
| 2026-04-09 06:00 | 6.64 | 3620 | 25800 (1983) | 43 (2003) | 2710 | 55 | 82 | 120 | 198 | 1340 | 3740 | 4250 | 5200 | 11700 |
| 2026-04-09 05:30 | 6.79 | 3800 | 25800 (1983) | 43 (2003) | 2710 | 55 | 82 | 120 | 198 | 1340 | 3740 | 4250 | 5200 | 11700 |
| 2026-04-09 05:00 | 6.95 | 3980 | 25800 (1983) | 43 (2003) | 2710 | 55 | 82 | 120 | 198 | 1340 | 3740 | 4250 | 5200 | 11700 |
| 2026-04-09 04:30 | 7.10 | 4160 | 25800 (1983) | 43 (2003) | 2710 | 55 | 82 | 120 | 198 | 1340 | 3740 | 4250 | 5200 | 11700 |
| 2026-04-09 04:00 | 7.22 | 4310 | 25800 (1983) | 43 (2003) | 2710 | 55 | 82 | 120 | 198 | 1340 | 3740 | 4250 | 5200 | 11700 |
| 2026-04-09 03:30 | 7.31 | 4420 | 25800 (1983) | 43 (2003) | 2710 | 55 | 82 | 120 | 198 | 1340 | 3740 | 4250 | 5200 | 11700 |
| 2026-04-09 03:00 | 7.36 | 4470 | 25800 (1983) | 43 (2003) | 2710 | 55 | 82 | 120 | 198 | 1340 | 3740 | 4250 | 5200 | 11700 |
| 2026-04-09 02:30 | 7.37 | 4480 | 25800 (1983) | 43 (2003) | 2710 | 55 | 82 | 120 | 198 | 1340 | 3740 | 4250 | 5200 | 11700 |
| 2026-04-09 02:00 | 7.38 | 4490 | 25800 (1983) | 43 (2003) | 2710 | 55 | 82 | 120 | 198 | 1340 | 3740 | 4250 | 5200 | 11700 |
| 2026-04-09 01:30 | 7.38 | 4490 | 25800 (1983) | 43 (2003) | 2710 | 55 | 82 | 120 | 198 | 1340 | 3740 | 4250 | 5200 | 11700 |
| 2026-04-09 01:00 | 7.38 | 4490 | 25800 (1983) | 43 (2003) | 2710 | 55 | 82 | 120 | 198 | 1340 | 3740 | 4250 | 5200 | 11700 |
| 2026-04-09 00:30 | 7.38 | 4490 | 25800 (1983) | 43 (2003) | 2710 | 55 | 82 | 120 | 198 | 1340 | 3740 | 4250 | 5200 | 11700 |
| 2026-04-09 00:00 | 7.37 | 4480 | 25800 (1983) | 43 (2003) | 2710 | 55 | 82 | 120 | 198 | 1340 | 3740 | 4250 | 5200 | 11700 |
| 2026-04-08 23:30 | 7.38 | 4490 | 25800 (1983) | 43 (2003) | 2710 | 55 | 82 | 120 | 198 | 1340 | 3740 | 4250 | 5200 | 11700 |
| 2026-04-08 23:00 | 7.38 | 4490 | 25800 (1983) | 43 (2003) | 2710 | 55 | 82 | 120 | 198 | 1340 | 3740 | 4250 | 5200 | 11700 |
| 2026-04-08 22:30 | 7.38 | 4490 | 26400 (1983) | 43 (2003) | 2890 | 56 | 78 | 109 | 133 | 1430 | 3080 | 4200 | 6680 | 13000 |
| 2026-04-08 22:00 | 7.38 | 4490 | 26400 (1983) | 43 (2003) | 2890 | 56 | 78 | 109 | 133 | 1430 | 3080 | 4200 | 6680 | 13000 |
| 2026-04-08 21:30 | 7.39 | 4500 | 26400 (1983) | 43 (2003) | 2890 | 56 | 78 | 109 | 133 | 1430 | 3080 | 4200 | 6680 | 13000 |
| 2026-04-08 21:00 | 7.38 | 4490 | 26400 (1983) | 43 (2003) | 2890 | 56 | 78 | 109 | 133 | 1430 | 3080 | 4200 | 6680 | 13000 |
| 2026-04-08 20:30 | 7.39 | 4500 | 26400 (1983) | 43 (2003) | 2890 | 56 | 78 | 109 | 133 | 1430 | 3080 | 4200 | 6680 | 13000 |
| 2026-04-08 20:00 | 7.38 | 4490 | 26400 (1983) | 43 (2003) | 2890 | 56 | 78 | 109 | 133 | 1430 | 3080 | 4200 | 6680 | 13000 |
| 2026-04-08 19:30 | 7.37 | 4480 | 26400 (1983) | 43 (2003) | 2890 | 56 | 78 | 109 | 133 | 1430 | 3080 | 4200 | 6680 | 13000 |
| 2026-04-08 19:00 | 7.39 | 4500 | 26400 (1983) | 43 (2003) | 2890 | 56 | 78 | 109 | 133 | 1430 | 3080 | 4200 | 6680 | 13000 |
| 2026-04-08 18:30 | 7.39 | 4500 | 26400 (1983) | 43 (2003) | 2890 | 56 | 78 | 109 | 133 | 1430 | 3080 | 4200 | 6680 | 13000 |
| 2026-04-08 18:00 | 7.39 | 4500 | 26400 (1983) | 43 (2003) | 2890 | 56 | 78 | 109 | 133 | 1430 | 3080 | 4200 | 6680 | 13000 |
| 2026-04-08 17:30 | 7.38 | 4490 | 26400 (1983) | 43 (2003) | 2890 | 56 | 78 | 109 | 133 | 1430 | 3080 | 4200 | 6680 | 13000 |
| 2026-04-08 17:00 | 7.40 | 4510 | 26400 (1983) | 43 (2003) | 2890 | 56 | 78 | 109 | 133 | 1430 | 3080 | 4200 | 6680 | 13000 |
| 2026-04-08 16:30 | 7.38 | 4490 | 26400 (1983) | 43 (2003) | 2890 | 56 | 78 | 109 | 133 | 1430 | 3080 | 4200 | 6680 | 13000 |
| 2026-04-08 16:00 | 7.39 | 4500 | 26400 (1983) | 43 (2003) | 2890 | 56 | 78 | 109 | 133 | 1430 | 3080 | 4200 | 6680 | 13000 |
| 2026-04-08 15:30 | 7.40 | 4510 | 26400 (1983) | 43 (2003) | 2890 | 56 | 78 | 109 | 133 | 1430 | 3080 | 4200 | 6680 | 13000 |
| 2026-04-08 15:00 | 7.39 | 4500 | 26400 (1983) | 43 (2003) | 2890 | 56 | 78 | 109 | 133 | 1430 | 3080 | 4200 | 6680 | 13000 |
| 2026-04-08 14:30 | 7.39 | 4500 | 26400 (1983) | 43 (2003) | 2890 | 56 | 78 | 109 | 133 | 1430 | 3080 | 4200 | 6680 | 13000 |
| 2026-04-08 14:00 | 7.38 | 4490 | 26400 (1983) | 43 (2003) | 2890 | 56 | 78 | 109 | 133 | 1430 | 3080 | 4200 | 6680 | 13000 |
| 2026-04-08 13:30 | 7.38 | 4490 | 26400 (1983) | 43 (2003) | 2890 | 56 | 78 | 109 | 133 | 1430 | 3080 | 4200 | 6680 | 13000 |
| 2026-04-08 13:00 | 7.39 | 4500 | 26400 (1983) | 43 (2003) | 2890 | 56 | 78 | 109 | 133 | 1430 | 3080 | 4200 | 6680 | 13000 |
| 2026-04-08 12:30 | 7.39 | 4500 | 26400 (1983) | 43 (2003) | 2890 | 56 | 78 | 109 | 133 | 1430 | 3080 | 4200 | 6680 | 13000 |
| 2026-04-08 12:00 | 7.40 | 4510 | 26400 (1983) | 43 (2003) | 2890 | 56 | 78 | 109 | 133 | 1430 | 3080 | 4200 | 6680 | 13000 |
| 2026-04-08 11:30 | 7.37 | 4480 | 26400 (1983) | 43 (2003) | 2890 | 56 | 78 | 109 | 133 | 1430 | 3080 | 4200 | 6680 | 13000 |
| 2026-04-08 11:00 | 7.38 | 4490 | 26400 (1983) | 43 (2003) | 2890 | 56 | 78 | 109 | 133 | 1430 | 3080 | 4200 | 6680 | 13000 |
| 2026-04-08 10:30 | 7.36 | 4470 | 26400 (1983) | 43 (2003) | 2890 | 56 | 78 | 109 | 133 | 1430 | 3080 | 4200 | 6680 | 13000 |
| 2026-04-08 10:00 | 7.38 | 4490 | 26400 (1983) | 43 (2003) | 2890 | 56 | 78 | 109 | 133 | 1430 | 3080 | 4200 | 6680 | 13000 |
| 2026-04-08 09:30 | 7.39 | 4500 | 26400 (1983) | 43 (2003) | 2890 | 56 | 78 | 109 | 133 | 1430 | 3080 | 4200 | 6680 | 13000 |
| 2026-04-08 09:00 | 7.38 | 4490 | 26400 (1983) | 43 (2003) | 2890 | 56 | 78 | 109 | 133 | 1430 | 3080 | 4200 | 6680 | 13000 |
| 2026-04-08 08:30 | 7.38 | 4490 | 26400 (1983) | 43 (2003) | 2890 | 56 | 78 | 109 | 133 | 1430 | 3080 | 4200 | 6680 | 13000 |
| 2026-04-08 08:00 | 7.37 | 4480 | 26400 (1983) | 43 (2003) | 2890 | 56 | 78 | 109 | 133 | 1430 | 3080 | 4200 | 6680 | 13000 |
| 2026-04-08 07:30 | 7.37 | 4480 | 26400 (1983) | 43 (2003) | 2890 | 56 | 78 | 109 | 133 | 1430 | 3080 | 4200 | 6680 | 13000 |
| 2026-04-08 07:00 | 7.37 | 4480 | 26400 (1983) | 43 (2003) | 2890 | 56 | 78 | 109 | 133 | 1430 | 3080 | 4200 | 6680 | 13000 |
| 2026-04-08 06:30 | 7.38 | 4490 | 26400 (1983) | 43 (2003) | 2890 | 56 | 78 | 109 | 133 | 1430 | 3080 | 4200 | 6680 | 13000 |
| 2026-04-08 06:00 | 7.37 | 4480 | 26400 (1983) | 43 (2003) | 2890 | 56 | 78 | 109 | 133 | 1430 | 3080 | 4200 | 6680 | 13000 |
| 2026-04-08 05:30 | 7.36 | 4470 | 26400 (1983) | 43 (2003) | 2890 | 56 | 78 | 109 | 133 | 1430 | 3080 | 4200 | 6680 | 13000 |
| 2026-04-08 05:00 | 7.36 | 4470 | 26400 (1983) | 43 (2003) | 2890 | 56 | 78 | 109 | 133 | 1430 | 3080 | 4200 | 6680 | 13000 |
| 2026-04-08 04:30 | 7.36 | 4470 | 26400 (1983) | 43 (2003) | 2890 | 56 | 78 | 109 | 133 | 1430 | 3080 | 4200 | 6680 | 13000 |
| 2026-04-08 04:00 | 7.35 | 4460 | 26400 (1983) | 43 (2003) | 2890 | 56 | 78 | 109 | 133 | 1430 | 3080 | 4200 | 6680 | 13000 |
| 2026-04-08 03:30 | 7.36 | 4470 | 26400 (1983) | 43 (2003) | 2890 | 56 | 78 | 109 | 133 | 1430 | 3080 | 4200 | 6680 | 13000 |
| 2026-04-08 03:00 | 7.36 | 4470 | 26400 (1983) | 43 (2003) | 2890 | 56 | 78 | 109 | 133 | 1430 | 3080 | 4200 | 6680 | 13000 |
| 2026-04-08 02:30 | 7.36 | 4470 | 26400 (1983) | 43 (2003) | 2890 | 56 | 78 | 109 | 133 | 1430 | 3080 | 4200 | 6680 | 13000 |
| 2026-04-08 02:00 | 7.37 | 4480 | 26400 (1983) | 43 (2003) | 2890 | 56 | 78 | 109 | 133 | 1430 | 3080 | 4200 | 6680 | 13000 |
| 2026-04-08 01:30 | 7.36 | 4470 | 26400 (1983) | 43 (2003) | 2890 | 56 | 78 | 109 | 133 | 1430 | 3080 | 4200 | 6680 | 13000 |
| 2026-04-08 01:00 | 7.36 | 4470 | 26400 (1983) | 43 (2003) | 2890 | 56 | 78 | 109 | 133 | 1430 | 3080 | 4200 | 6680 | 13000 |
| 2026-04-08 00:30 | 7.37 | 4480 | 26400 (1983) | 43 (2003) | 2890 | 56 | 78 | 109 | 133 | 1430 | 3080 | 4200 | 6680 | 13000 |
| 2026-04-08 00:00 | 7.36 | 4470 | 26400 (1983) | 43 (2003) | 2890 | 56 | 78 | 109 | 133 | 1430 | 3080 | 4200 | 6680 | 13000 |
| 2026-04-07 23:30 | 7.36 | 4470 | 26400 (1983) | 43 (2003) | 2890 | 56 | 78 | 109 | 133 | 1430 | 3080 | 4200 | 6680 | 13000 |
| 2026-04-07 23:00 | 7.38 | 4490 | 26400 (1983) | 43 (2003) | 2890 | 56 | 78 | 109 | 133 | 1430 | 3080 | 4200 | 6680 | 13000 |
A total of 1494 rows are displayed for years 1980 through 2025.